Darstellungsparameter: Aktuell verwendete Einstellungen:
Skalierung der Graphiken ... ?
xyx+y,   Skalierungsfaktor:      Skalierung: Modus: x, Faktor: 1
Darstellungszeitraum ... ?
Vom - - bis: - -   Zeitraum: 16.04.2003 - 17.01.2011
Min/Max/Avg-Anzeige ... ?
Zeige MMA aktuell
Zeige MMA Monat
Zeige MMA alles
Zeige --A aktuell
Zeige --A Monat
Zeige --A alles
Keine MMA-Anzeige
MMA:
Average (ber die Originaldaten)
MMA-Basis: 16.04.2003 - 17.01.2011
Quicknavigation für Darstellung... ?
Tage:      1T, 2T, 3T, 5T -1T -2T -3T -5T +1T +2T +3T +5T
Wochen: 1W, 2W, 3W -1W -2W -3W +1W +2W +3W
Monate: 1M, 3M, 6M -1M -3M -6M +1M +3M +6M
Jahre:    1J, 3J, 5J, 10J -1J -3J -5J -10J +1J +3J +5J +10J
Nutze für die Darstellung ... ?
Originaldaten oder ...
Mittelwerte Minima Maxima auf...
Stundenbasis Tagesbasis Wochenbasis
Monatsbasis Jahresbasis      Datenbasis: Mittelwerte auf Tagesbasis
Darstellen als:
Statistik (Auto) Statistik J:M      Darstellung:
Zur Graphik,    zurück zur Übersicht aller Sensoren.
 
Tabellarische Datenbersicht: ?
 
Sensor: Nr:Datum:Temp:Abs-Feuchte:Windchill:Wind:
Aussen-T/F 1 25-04-2003 00:00:00 26.39362 C 6.64 g/m*3 26.39 C 0 km/h
2 26-04-2003 00:00:00 15.08169 C 9.61 g/m*3 15.08 C 0 km/h
3 27-04-2003 00:00:00 12.72168 C 8.24 g/m*3 12.72 C 0 km/h
4 28-04-2003 00:00:00 17.06276 C 8.73 g/m*3 17.06 C 0 km/h
5 29-04-2003 00:00:00 17.9 C 8.79 g/m*3 17.9 C 0 km/h
6 30-04-2003 00:00:00 14.06319 C 10.01 g/m*3 14.06 C 0 km/h
7 01-05-2003 00:00:00 13.28944 C 7.35 g/m*3 13.29 C 0 km/h
8 02-05-2003 00:00:00 14.91042 C 7.56 g/m*3 14.91 C 0 km/h
9 03-05-2003 00:00:00 14.75944 C 5.98 g/m*3 14.76 C 0 km/h
10 04-05-2003 00:00:00 17.16901 C 7.25 g/m*3 17.17 C 0 km/h
11 05-05-2003 00:00:00 19.43681 C 8.95 g/m*3 19.44 C 0 km/h
12 06-05-2003 00:00:00 15.45874 C 9.46 g/m*3 15.46 C 0 km/h
13 07-05-2003 00:00:00 17.27569 C 8.9 g/m*3 17.28 C 0 km/h
14 08-05-2003 00:00:00 18.80278 C 9.79 g/m*3 18.8 C 0 km/h
15 09-05-2003 00:00:00 15.69375 C 10.2 g/m*3 15.69 C 0 km/h
16 10-05-2003 00:00:00 16.18112 C 8.23 g/m*3 16.18 C 0 km/h
17 11-05-2003 00:00:00 15.48322 C 6.96 g/m*3 15.48 C 0 km/h
18 12-05-2003 00:00:00 16.44028 C 7.63 g/m*3 16.44 C 0 km/h
19 13-05-2003 00:00:00 11.88042 C 6.89 g/m*3 11.88 C 0 km/h
20 14-05-2003 00:00:00 9.76224 C 6.27 g/m*3 9.76 C 0 km/h
21 15-05-2003 00:00:00 12.75944 C 6.15 g/m*3 12.76 C 0 km/h
22 16-05-2003 00:00:00 13.02917 C 6.2 g/m*3 13.03 C 0 km/h
23 17-05-2003 00:00:00 14.35594 C 7.59 g/m*3 14.36 C 0 km/h
24 18-05-2003 00:00:00 16.15714 C 9.6 g/m*3 16.16 C 0 km/h
25 19-05-2003 00:00:00 13.69172 C 10.42 g/m*3 13.69 C 0 km/h
Sensor: Nr:Datum:Temp:Abs-Feuchte:Windchill:Wind:
Aussen-T/F 26 20-05-2003 00:00:00 12.97431 C 7.17 g/m*3 12.97 C 0 km/h
27 21-05-2003 00:00:00 11.90559 C 8.02 g/m*3 11.91 C 0 km/h
28 22-05-2003 00:00:00 13.89792 C 10.1 g/m*3 13.9 C 0 km/h
29 23-05-2003 00:00:00 18.97762 C 9.14 g/m*3 18.98 C 0 km/h
30 24-05-2003 00:00:00 19.54577 C 9.98 g/m*3 19.55 C 0 km/h
31 25-05-2003 00:00:00 16.0137 C 8.9 g/m*3 16.01 C 0 km/h
32 26-05-2003 00:00:00 17.77413 C 8.37 g/m*3 17.77 C 0 km/h
33 27-05-2003 00:00:00 19.34444 C 9.55 g/m*3 19.34 C 0 km/h
34 28-05-2003 00:00:00 20.5951 C 9.97 g/m*3 20.6 C 0 km/h
35 29-05-2003 00:00:00 22.73056 C 10.02 g/m*3 22.73 C 0 km/h
36 30-05-2003 00:00:00 23.71367 C 11.58 g/m*3 23.71 C 0 km/h
37 31-05-2003 00:00:00 21.47902 C 13.38 g/m*3 21.48 C 0 km/h
38 01-06-2003 00:00:00 23.35175 C 13.24 g/m*3 23.35 C 0 km/h
39 02-06-2003 00:00:00 23.57394 C 12.51 g/m*3 23.57 C 0 km/h
40 03-06-2003 00:00:00 23.12153 C 13.79 g/m*3 23.12 C 0 km/h
41 04-06-2003 00:00:00 25.04755 C 13.87 g/m*3 25.05 C 0 km/h
42 05-06-2003 00:00:00 22.86621 C 12.83 g/m*3 22.87 C 0 km/h
43 06-06-2003 00:00:00 22.71608 C 12.29 g/m*3 22.72 C 0 km/h
44 07-06-2003 00:00:00 24.90694 C 13.21 g/m*3 24.91 C 0 km/h
45 08-06-2003 00:00:00 22.7993 C 13.98 g/m*3 22.8 C 0 km/h
46 09-06-2003 00:00:00 19.85139 C 8.47 g/m*3 19.85 C 0 km/h
47 10-06-2003 00:00:00 21.51389 C 12.3 g/m*3 21.51 C 0 km/h
48 11-06-2003 00:00:00 23.96899 C 13.08 g/m*3 23.97 C 0 km/h
49 12-06-2003 00:00:00 22.99412 C 13.7 g/m*3 22.99 C 0 km/h
50 13-06-2003 00:00:00 22.87647 C 11.72 g/m*3 22.88 C 0 km/h
Sensor: Nr:Datum:Temp:Abs-Feuchte:Windchill:Wind:
Aussen-T/F 51 14-06-2003 00:00:00 19.34812 C 11.47 g/m*3 19.35 C 0 km/h
52 15-06-2003 00:00:00 22.11274 C 11.31 g/m*3 22.11 C 0 km/h
53 16-06-2003 00:00:00 22.74242 C 9.22 g/m*3 22.74 C 0 km/h
54 17-06-2003 00:00:00 22.74154 C 10.64 g/m*3 22.74 C 0 km/h
55 18-06-2003 00:00:00 20.45909 C 12.13 g/m*3 20.46 C 0 km/h
56 19-06-2003 00:00:00 20.73846 C 11.16 g/m*3 20.74 C 0 km/h
57 20-06-2003 00:00:00 20.76769 C 8.96 g/m*3 20.77 C 0 km/h
58 21-06-2003 00:00:00 18.57692 C 7.61 g/m*3 18.58 C 0 km/h
59 22-06-2003 00:00:00 22.50152 C 9.54 g/m*3 22.5 C 0 km/h
60 23-06-2003 00:00:00 23.88438 C 11.21 g/m*3 23.88 C 0 km/h
61 24-06-2003 00:00:00 22.05758 C 10.02 g/m*3 22.06 C 0 km/h
62 25-06-2003 00:00:00 21.8 C 9.1 g/m*3 21.8 C 0 km/h
63 26-06-2003 00:00:00 23.58 C 9.35 g/m*3 23.58 C 0 km/h
64 27-06-2003 00:00:00 22.64923 C 9.95 g/m*3 22.65 C 0 km/h
65 28-06-2003 00:00:00 22.94308 C 12.05 g/m*3 22.94 C 0 km/h
66 29-06-2003 00:00:00 25.77699 C 10.4 g/m*3 25.78 C 0 km/h
67 30-06-2003 00:00:00 22.11883 C 12.24 g/m*3 22.12 C 0 km/h
68 01-07-2003 00:00:00 19.41218 C 10.7 g/m*3 19.41 C 0 km/h
69 02-07-2003 00:00:00 17.99791 C 9.76 g/m*3 18 C 0 km/h
70 03-07-2003 00:00:00 17.02667 C 10.35 g/m*3 17.03 C 0 km/h
71 04-07-2003 00:00:00 17.05607 C 10.28 g/m*3 17.06 C 0 km/h
72 05-07-2003 00:00:00 16.84059 C 10.64 g/m*3 16.84 C 0 km/h
73 06-07-2003 00:00:00 20.31743 C 9.59 g/m*3 20.32 C 0 km/h
74 07-07-2003 00:00:00 21.54861 C 9.65 g/m*3 21.55 C 0 km/h
75 08-07-2003 00:00:00 21.54825 C 9.54 g/m*3 21.55 C 0 km/h
Sensor: Nr:Datum:Temp:Abs-Feuchte:Windchill:Wind:
Aussen-T/F 76 09-07-2003 00:00:00 20.83077 C 10.49 g/m*3 20.83 C 0 km/h
77 10-07-2003 00:00:00 21.87972 C 10.1 g/m*3 21.88 C 0 km/h
78 11-07-2003 00:00:00 22.96875 C 10.61 g/m*3 22.97 C 0 km/h
79 12-07-2003 00:00:00 21.7951 C 8.51 g/m*3 21.8 C 0 km/h
80 13-07-2003 00:00:00 22.62708 C 9.02 g/m*3 22.63 C 0 km/h
81 14-07-2003 00:00:00 24.49648 C 8.2 g/m*3 24.5 C 0 km/h
82 15-07-2003 00:00:00 25.82168 C 8.71 g/m*3 25.82 C 0 km/h
83 16-07-2003 00:00:00 26.9125 C 9.52 g/m*3 26.91 C 0 km/h
84 17-07-2003 00:00:00 21.73147 C 9.97 g/m*3 21.73 C 0 km/h
85 18-07-2003 00:00:00 23.17361 C 9.24 g/m*3 23.17 C 0 km/h
86 19-07-2003 00:00:00 25.16783 C 9.49 g/m*3 25.17 C 0 km/h
87 20-07-2003 00:00:00 25.17292 C 10.49 g/m*3 25.17 C 0 km/h
88 21-07-2003 00:00:00 24.85804 C 13.44 g/m*3 24.86 C 0 km/h
89 22-07-2003 00:00:00 23.93147 C 13.41 g/m*3 23.93 C 0 km/h
90 23-07-2003 00:00:00 23.35208 C 11.09 g/m*3 23.35 C 0 km/h
91 24-07-2003 00:00:00 21.31549 C 11.76 g/m*3 21.32 C 0 km/h
92 25-07-2003 00:00:00 21.11064 C 11.64 g/m*3 21.11 C 0 km/h
93 26-07-2003 00:00:00 21.33333 C 12.47 g/m*3 21.33 C 0 km/h
94 27-07-2003 00:00:00 20.99861 C 14.27 g/m*3 21 C 0 km/h
95 28-07-2003 00:00:00 20.96667 C 9.78 g/m*3 20.97 C 0 km/h
96 29-07-2003 00:00:00 21.55556 C 8.86 g/m*3 21.56 C 0 km/h
97 30-07-2003 00:00:00 19.87292 C 11.23 g/m*3 19.87 C 0 km/h
98 31-07-2003 00:00:00 22.51319 C 13.35 g/m*3 22.51 C 0 km/h
99 01-08-2003 00:00:00 24.69658 C 11.82 g/m*3 24.7 C 0 km/h
100 02-08-2003 00:00:00 26.31181 C 11.89 g/m*3 26.31 C 0 km/h
Sensor: Nr:Datum:Temp:Abs-Feuchte:Windchill:Wind:
Aussen-T/F 101 03-08-2003 00:00:00 26.94236 C 12.66 g/m*3 26.94 C 0 km/h
102 04-08-2003 00:00:00 27.77133 C 12.6 g/m*3 27.77 C 0 km/h
103 05-08-2003 00:00:00 27.84375 C 11.54 g/m*3 27.84 C 0 km/h
104 06-08-2003 00:00:00 27.87292 C 11.76 g/m*3 27.87 C 0 km/h
105 07-08-2003 00:00:00 28.54167 C 10.88 g/m*3 28.54 C 0 km/h
106 08-08-2003 00:00:00 28.9625 C 11.22 g/m*3 28.96 C 0 km/h
107 09-08-2003 00:00:00 28.56528 C 12.44 g/m*3 28.57 C 0 km/h
108 10-08-2003 00:00:00 27.40347 C 10.21 g/m*3 27.4 C 0 km/h
109 11-08-2003 00:00:00 26.68333 C 9.8 g/m*3 26.68 C 0 km/h
110 12-08-2003 00:00:00 28.33655 C 10.48 g/m*3 28.34 C 0 km/h
111 13-08-2003 00:00:00 27.60694 C 10.9 g/m*3 27.61 C 0 km/h
112 14-08-2003 00:00:00 24.19301 C 10.36 g/m*3 24.19 C 0 km/h
113 15-08-2003 00:00:00 21.19583 C 8.05 g/m*3 21.2 C 0 km/h
114 16-08-2003 00:00:00 20.93819 C 8.03 g/m*3 20.94 C 0 km/h
115 17-08-2003 00:00:00 21.95417 C 8.71 g/m*3 21.95 C 0 km/h
116 18-08-2003 00:00:00 19.58194 C 13.98 g/m*3 19.58 C 0 km/h
117 19-08-2003 00:00:00 21.01528 C 12.66 g/m*3 21.02 C 0 km/h
118 20-08-2003 00:00:00 20.52164 C 9.87 g/m*3 20.52 C 0 km/h
119 21-08-2003 00:00:00 20.59583 C 9.54 g/m*3 20.6 C 0 km/h
120 22-08-2003 00:00:00 20.25 C 9.6 g/m*3 20.25 C 0 km/h
121 23-08-2003 00:00:00 21.61417 C 11.02 g/m*3 21.61 C 0 km/h
122 24-08-2003 00:00:00 20.755 C 9.76 g/m*3 20.76 C 0 km/h
123 25-08-2003 00:00:00 20.085 C 8.94 g/m*3 20.09 C 0 km/h
124 26-08-2003 00:00:00 20.6475 C 9.1 g/m*3 20.65 C 0 km/h
125 27-08-2003 00:00:00 18.16083 C 9.11 g/m*3 18.16 C 0 km/h
Sensor: Nr:Datum:Temp:Abs-Feuchte:Windchill:Wind:
Aussen-T/F 126 28-08-2003 00:00:00 18.705 C 10.16 g/m*3 18.7 C 0 km/h
127 29-08-2003 00:00:00 17.34333 C 12.45 g/m*3 17.34 C 0 km/h
128 30-08-2003 00:00:00 14.92583 C 10.45 g/m*3 14.93 C 0 km/h
129 31-08-2003 00:00:00 14.155 C 8.69 g/m*3 14.16 C 0 km/h
130 01-09-2003 00:00:00 13.11417 C 8.14 g/m*3 13.11 C 0 km/h
131 02-09-2003 00:00:00 14.14167 C 8.13 g/m*3 14.14 C 0 km/h
132 03-09-2003 00:00:00 14.39 C 7.38 g/m*3 14.39 C 0 km/h
133 04-09-2003 00:00:00 16.6175 C 8.24 g/m*3 16.62 C 0 km/h
134 05-09-2003 00:00:00 17.74833 C 8.41 g/m*3 17.75 C 0 km/h
135 06-09-2003 00:00:00 19.795 C 10.64 g/m*3 19.8 C 0 km/h
136 07-09-2003 00:00:00 18.97417 C 10.92 g/m*3 18.97 C 0 km/h
137 08-09-2003 00:00:00 16.28824 C 10.4 g/m*3 16.29 C 0 km/h
138 09-09-2003 00:00:00 15.21417 C 9.12 g/m*3 15.21 C 0 km/h
139 10-09-2003 00:00:00 14.80667 C 9.88 g/m*3 14.81 C 0 km/h
140 11-09-2003 00:00:00 14.8625 C 8.4 g/m*3 14.86 C 0 km/h
141 12-09-2003 00:00:00 16.89667 C 8.98 g/m*3 16.9 C 0 km/h
142 13-09-2003 00:00:00 17.87 C 8.81 g/m*3 17.87 C 0 km/h
143 14-09-2003 00:00:00 15.66083 C 8.48 g/m*3 15.66 C 0 km/h
144 15-09-2003 00:00:00 16.91818 C 9.43 g/m*3 16.92 C 0 km/h
145 16-09-2003 00:00:00 16.72397 C 9.58 g/m*3 16.72 C 0 km/h
146 17-09-2003 00:00:00 17.685 C 9.86 g/m*3 17.68 C 0 km/h
147 18-09-2003 00:00:00 18.04583 C 9.06 g/m*3 18.05 C 0 km/h
148 19-09-2003 00:00:00 19.47083 C 9.69 g/m*3 19.47 C 0 km/h
149 20-09-2003 00:00:00 20.25882 C 10.57 g/m*3 20.26 C 0 km/h
150 21-09-2003 00:00:00 20.695 C 9.57 g/m*3 20.7 C 0 km/h
Sensor: Nr:Datum:Temp:Abs-Feuchte:Windchill:Wind:
Aussen-T/F 151 22-09-2003 00:00:00 18.3225 C 10.88 g/m*3 18.32 C 0 km/h
152 23-09-2003 00:00:00 13.95333 C 8.5 g/m*3 13.95 C 0 km/h
153 24-09-2003 00:00:00 10.7375 C 6.94 g/m*3 10.74 C 0 km/h
154 25-09-2003 00:00:00 11.6925 C 6.73 g/m*3 11.69 C 0 km/h
155 26-09-2003 00:00:00 12.8025 C 7.07 g/m*3 12.8 C 0 km/h
156 27-09-2003 00:00:00 13.93417 C 8.15 g/m*3 13.93 C 0 km/h
157 28-09-2003 00:00:00 14.33554 C 9.53 g/m*3 14.34 C 0 km/h
158 29-09-2003 00:00:00 13.1625 C 7.49 g/m*3 13.16 C 0 km/h
159 30-09-2003 00:00:00 12.02083 C 7.43 g/m*3 12.02 C 0 km/h
160 01-10-2003 00:00:00 10.64793 C 7.98 g/m*3 10.65 C 0 km/h
161 02-10-2003 00:00:00 16.3025 C 11.21 g/m*3 16.3 C 0 km/h
162 03-10-2003 00:00:00 16.015 C 10.52 g/m*3 16.02 C 0 km/h
163 04-10-2003 00:00:00 12.51583 C 8.78 g/m*3 12.52 C 0 km/h
164 05-10-2003 00:00:00 9.27917 C 6.68 g/m*3 9.28 C 0 km/h
165 06-10-2003 00:00:00 7.6025 C 6.17 g/m*3 7.6 C 0 km/h
166 07-10-2003 00:00:00 8.125 C 6.67 g/m*3 8.13 C 0 km/h
167 08-10-2003 00:00:00 9.46694 C 6.93 g/m*3 9.47 C 0 km/h
168 09-10-2003 00:00:00 12.52833 C 8.38 g/m*3 12.53 C 0 km/h
169 10-10-2003 00:00:00 13.88667 C 8.8 g/m*3 13.89 C 0 km/h
170 11-10-2003 00:00:00 13.46833 C 8.93 g/m*3 13.47 C 0 km/h
171 12-10-2003 00:00:00 10.71157 C 6.94 g/m*3 10.71 C 0 km/h
172 13-10-2003 00:00:00 8.84417 C 6.18 g/m*3 8.84 C 0 km/h
173 14-10-2003 00:00:00 8.61774 C 5.57 g/m*3 8.62 C 0 km/h
174 15-10-2003 00:00:00 6.7392 C 5.15 g/m*3 6.74 C 0 km/h
175 16-10-2003 00:00:00 7.11532 C 5.35 g/m*3 7.12 C 0 km/h
Sensor: Nr:Datum:Temp:Abs-Feuchte:Windchill:Wind:
Aussen-T/F 176 17-10-2003 00:00:00 6.33417 C 4.84 g/m*3 6.33 C 0 km/h
177 18-10-2003 00:00:00 4.57667 C 4.79 g/m*3 4.58 C 0 km/h
178 19-10-2003 00:00:00 4.02333 C 4.99 g/m*3 4.02 C 0 km/h
179 20-10-2003 00:00:00 6.06833 C 5.39 g/m*3 6.07 C 0 km/h
180 21-10-2003 00:00:00 5.19853 C 5.43 g/m*3 5.2 C 0 km/h
181 22-10-2003 00:00:00 3.7873 C 5.48 g/m*3 3.79 C 0 km/h
182 23-10-2003 00:00:00 3.55476 C 3.96 g/m*3 3.55 C 0 km/h
183 24-10-2003 00:00:00 0.92869 C 3.4 g/m*3 0.93 C 0 km/h
184 25-10-2003 00:00:00 4.80331 C 4.49 g/m*3 4.8 C 0 km/h
185 26-10-2003 00:00:00 6.43361 C 5.2 g/m*3 6.43 C 0 km/h
186 27-10-2003 00:00:00 6.27667 C 5.5 g/m*3 6.28 C 0 km/h
187 28-10-2003 00:00:00 4.52667 C 4.92 g/m*3 4.53 C 0 km/h
188 29-10-2003 00:00:00 5.675 C 6.08 g/m*3 5.68 C 0 km/h
189 30-10-2003 00:00:00 5.9688 C 6.02 g/m*3 5.97 C 0 km/h
190 31-10-2003 00:00:00 7.1 C 6.8 g/m*3 7.1 C 0 km/h
191 01-11-2003 00:00:00 9.5144 C 6.99 g/m*3 9.51 C 0 km/h
192 02-11-2003 00:00:00 9.956 C 6.37 g/m*3 9.96 C 0 km/h
193 03-11-2003 00:00:00 12.28333 C 7.25 g/m*3 12.28 C 0 km/h
194 04-11-2003 00:00:00 9.815 C 6.84 g/m*3 9.82 C 0 km/h
195 05-11-2003 00:00:00 6.345 C 5.98 g/m*3 6.35 C 0 km/h
196 06-11-2003 00:00:00 4.63388 C 5.31 g/m*3 4.63 C 0 km/h
197 07-11-2003 00:00:00 5.57323 C 4.97 g/m*3 5.57 C 0 km/h
198 08-11-2003 00:00:00 6.66748 C 5.03 g/m*3 6.67 C 0 km/h
199 09-11-2003 00:00:00 5.94409 C 5.25 g/m*3 5.94 C 0 km/h
200 10-11-2003 00:00:00 6.52937 C 5.72 g/m*3 6.53 C 0 km/h
Sensor: Nr:Datum:Temp:Abs-Feuchte:Windchill:Wind:
Aussen-T/F 201 11-11-2003 00:00:00 5.2064 C 4.78 g/m*3 5.21 C 0 km/h
202 12-11-2003 00:00:00 5.06859 C 4.88 g/m*3 5.07 C 0 km/h
203 13-11-2003 00:00:00 7.195 C 5.99 g/m*3 7.2 C 0 km/h
204 14-11-2003 00:00:00 5.67167 C 5.63 g/m*3 5.67 C 0 km/h
205 15-11-2003 00:00:00 6.93719 C 5.98 g/m*3 6.94 C 0 km/h
206 16-11-2003 00:00:00 4.36532 C 5.7 g/m*3 4.37 C 0 km/h
207 17-11-2003 00:00:00 6.63361 C 5.71 g/m*3 6.63 C 0 km/h
208 18-11-2003 00:00:00 8.51967 C 7 g/m*3 8.52 C 0 km/h
209 19-11-2003 00:00:00 11.89837 C 7.86 g/m*3 11.9 C 0 km/h
210 20-11-2003 00:00:00 10.56167 C 7.07 g/m*3 10.56 C 0 km/h
211 21-11-2003 00:00:00 9.79083 C 6.66 g/m*3 9.79 C 0 km/h
212 22-11-2003 00:00:00 9.85167 C 6.99 g/m*3 9.85 C 0 km/h
213 23-11-2003 00:00:00 13.305 C 6.83 g/m*3 13.31 C 0 km/h
214 24-11-2003 00:00:00 13.64667 C 7.3 g/m*3 13.65 C 0 km/h
215 25-11-2003 00:00:00 11.82683 C 7.35 g/m*3 11.83 C 0 km/h
216 26-11-2003 00:00:00 9.87317 C 6.37 g/m*3 9.87 C 0 km/h
217 27-11-2003 00:00:00 7.63871 C 7.01 g/m*3 7.64 C 0 km/h
218 28-11-2003 00:00:00 5.24797 C 5.9 g/m*3 5.25 C 0 km/h
219 29-11-2003 00:00:00 3.545 C 4.95 g/m*3 3.55 C 0 km/h
220 30-11-2003 00:00:00 5.35833 C 5.77 g/m*3 5.36 C 0 km/h
221 01-12-2003 00:00:00 7.79167 C 6.28 g/m*3 7.79 C 0 km/h
222 02-12-2003 00:00:00 5.15833 C 5.56 g/m*3 5.16 C 0 km/h
223 03-12-2003 00:00:00 3.17273 C 5.32 g/m*3 3.17 C 0 km/h
224 04-12-2003 00:00:00 4.92258 C 5.43 g/m*3 4.92 C 0 km/h
225 05-12-2003 00:00:00 5.37787 C 5.04 g/m*3 5.38 C 0 km/h
Sensor: Nr:Datum:Temp:Abs-Feuchte:Windchill:Wind:
Aussen-T/F 226 06-12-2003 00:00:00 3.05124 C 4.26 g/m*3 3.05 C 0 km/h
227 07-12-2003 00:00:00 -2.40492 C 2.91 g/m*3 -2.4 C 0 km/h
228 08-12-2003 00:00:00 -4.28 C 2.82 g/m*3 -4.28 C 0 km/h
229 09-12-2003 00:00:00 -4.81083 C 2.64 g/m*3 -4.81 C 0 km/h
230 10-12-2003 00:00:00 -3.95583 C 2.85 g/m*3 -3.96 C 0 km/h
231 11-12-2003 00:00:00 1.15083 C 3.9 g/m*3 1.15 C 0 km/h
232 12-12-2003 00:00:00 4.94758 C 5.36 g/m*3 4.95 C 0 km/h
233 13-12-2003 00:00:00 10.35 C 7.53 g/m*3 10.35 C 0 km/h
234 14-12-2003 00:00:00 7.74758 C 5.35 g/m*3 7.75 C 0 km/h
235 15-12-2003 00:00:00 3.0314 C 4.11 g/m*3 3.03 C 0 km/h
236 16-12-2003 00:00:00 3.83333 C 4.46 g/m*3 3.83 C 0 km/h
237 17-12-2003 00:00:00 3.71417 C 4.71 g/m*3 3.71 C 0 km/h
238 18-12-2003 00:00:00 -0.60917 C 3.92 g/m*3 -0.61 C 0 km/h
239 19-12-2003 00:00:00 2.1325 C 4.51 g/m*3 2.13 C 0 km/h
240 20-12-2003 00:00:00 8.76446 C 6.39 g/m*3 8.76 C 0 km/h
241 21-12-2003 00:00:00 6.09262 C 5.24 g/m*3 6.09 C 0 km/h
242 22-12-2003 00:00:00 1.6822 C 3.9 g/m*3 1.68 C 0 km/h
243 23-12-2003 00:00:00 -0.1781 C 3.56 g/m*3 -0.18 C 0 km/h
244 24-12-2003 00:00:00 1.48333 C 3.74 g/m*3 1.48 C 0 km/h
245 25-12-2003 00:00:00 3.60256 C 4.32 g/m*3 3.6 C 0 km/h
246 26-12-2003 00:00:00 5.71008 C 5.12 g/m*3 5.71 C 0 km/h
247 27-12-2003 00:00:00 7.0438 C 5.41 g/m*3 7.04 C 0 km/h
248 28-12-2003 00:00:00 7.02333 C 5.58 g/m*3 7.02 C 0 km/h
249 29-12-2003 00:00:00 1.82917 C 3.79 g/m*3 1.83 C 0 km/h
250 30-12-2003 00:00:00 -1.70333 C 3.6 g/m*3 -1.7 C 0 km/h
Sensor: Nr:Datum:Temp:Abs-Feuchte:Windchill:Wind:
Aussen-T/F 251 31-12-2003 00:00:00 -1.04017 C 3.54 g/m*3 -1.04 C 0 km/h
252 01-01-2004 00:00:00 -2.37115 C 3.12 g/m*3 -2.37 C 0 km/h
253 02-01-2004 00:00:00 -2.12212 C 2.04 g/m*3 -2.12 C 0 km/h
254 03-01-2004 00:00:00 -5.68621 C 2.3 g/m*3 -5.69 C 0 km/h
255 04-01-2004 00:00:00 -2.61969 C 2.92 g/m*3 -2.62 C 0 km/h
256 05-01-2004 00:00:00 1.15917 C 4.37 g/m*3 1.16 C 0 km/h
257 06-01-2004 00:00:00 2.9925 C 5.17 g/m*3 2.99 C 0 km/h
258 07-01-2004 00:00:00 5.665 C 5.73 g/m*3 5.67 C 0 km/h
259 08-01-2004 00:00:00 4.4437 C 5.17 g/m*3 4.44 C 0 km/h
260 09-01-2004 00:00:00 5.33898 C 5.6 g/m*3 5.34 C 0 km/h
261 10-01-2004 00:00:00 4.62667 C 4.95 g/m*3 4.63 C 0 km/h
262 11-01-2004 00:00:00 9.1975 C 6.62 g/m*3 9.2 C 0 km/h
263 12-01-2004 00:00:00 5.775 C 5.22 g/m*3 5.78 C 0 km/h
264 13-01-2004 00:00:00 7.80083 C 5.69 g/m*3 7.8 C 0 km/h
265 14-01-2004 00:00:00 5.86667 C 4.58 g/m*3 5.87 C 0 km/h
266 15-01-2004 00:00:00 4.12083 C 4.51 g/m*3 4.12 C 0 km/h
267 16-01-2004 00:00:00 5.9575 C 4.71 g/m*3 5.96 C 0 km/h
268 17-01-2004 00:00:00 4.54333 C 4.53 g/m*3 4.54 C 0 km/h
269 18-01-2004 00:00:00 2.49583 C 3.96 g/m*3 2.5 C 0 km/h
270 19-01-2004 00:00:00 0.56471 C 3.91 g/m*3 0.56 C 0 km/h
271 20-01-2004 00:00:00 4.19833 C 4.81 g/m*3 4.2 C 0 km/h
272 21-01-2004 00:00:00 0.6125 C 3.15 g/m*3 0.61 C 0 km/h
273 22-01-2004 00:00:00 -0.92333 C 3.11 g/m*3 -0.92 C 0 km/h
274 23-01-2004 00:00:00 -0.45583 C 3 g/m*3 -0.46 C 0 km/h
275 24-01-2004 00:00:00 -0.8575 C 3.11 g/m*3 -0.86 C 0 km/h
Sensor: Nr:Datum:Temp:Abs-Feuchte:Windchill:Wind:
Aussen-T/F 276 25-01-2004 00:00:00 2.03167 C 4.55 g/m*3 2.03 C 0 km/h
277 26-01-2004 00:00:00 1.7325 C 3.9 g/m*3 1.73 C 0 km/h
278 27-01-2004 00:00:00 0.47583 C 3.24 g/m*3 0.48 C 0 km/h
279 28-01-2004 00:00:00 0.665 C 3.39 g/m*3 0.67 C 0 km/h
280 29-01-2004 00:00:00 0.295 C 3.5 g/m*3 0.3 C 0 km/h
281 30-01-2004 00:00:00 0.67083 C 3 g/m*3 0.67 C 0 km/h
282 31-01-2004 00:00:00 6.21597 C 4.37 g/m*3 6.22 C 0 km/h
283 01-02-2004 00:00:00 11.11083 C 5.85 g/m*3 11.11 C 0 km/h
284 02-02-2004 00:00:00 11.24083 C 6.81 g/m*3 11.24 C 0 km/h
285 03-02-2004 00:00:00 11.46 C 6.4 g/m*3 11.46 C 0 km/h
286 04-02-2004 00:00:00 12.275 C 5.56 g/m*3 12.28 C 0 km/h
287 05-02-2004 00:00:00 12.8325 C 5.77 g/m*3 12.83 C 0 km/h
288 06-02-2004 00:00:00 13.52417 C 5.92 g/m*3 13.52 C 0 km/h
289 07-02-2004 00:00:00 9.05417 C 4.41 g/m*3 9.05 C 0 km/h
290 08-02-2004 00:00:00 4.03583 C 4.28 g/m*3 4.04 C 0 km/h
291 09-02-2004 00:00:00 3.1225 C 3.69 g/m*3 3.12 C 0 km/h
292 10-02-2004 00:00:00 2.2525 C 3.66 g/m*3 2.25 C 0 km/h
293 11-02-2004 00:00:00 5.42417 C 5.62 g/m*3 5.42 C 0 km/h
294 12-02-2004 00:00:00 3.90932 C 4.01 g/m*3 3.91 C 0 km/h
295 13-02-2004 00:00:00 5.5876 C 5.33 g/m*3 5.59 C 0 km/h
296 14-02-2004 00:00:00 6.88083 C 5.67 g/m*3 6.88 C 0 km/h
297 15-02-2004 00:00:00 6.2625 C 5.4 g/m*3 6.26 C 0 km/h
298 16-02-2004 00:00:00 5.3425 C 4.83 g/m*3 5.34 C 0 km/h
299 17-02-2004 00:00:00 3.33417 C 4.18 g/m*3 3.33 C 0 km/h
300 18-02-2004 00:00:00 4.05167 C 4.09 g/m*3 4.05 C 0 km/h
Sensor: Nr:Datum:Temp:Abs-Feuchte:Windchill:Wind:
Aussen-T/F 301 19-02-2004 00:00:00 1.21833 C 3.08 g/m*3 1.22 C 0 km/h
302 20-02-2004 00:00:00 2.01417 C 2.7 g/m*3 2.01 C 0 km/h
303 21-02-2004 00:00:00 1.18 C 2.9 g/m*3 1.18 C 0 km/h
304 22-02-2004 00:00:00 1.965 C 3.3 g/m*3 1.97 C 0 km/h
305 23-02-2004 00:00:00 0.45868 C 3 g/m*3 0.46 C 0 km/h
306 24-02-2004 00:00:00 -0.95167 C 2.8 g/m*3 -0.95 C 0 km/h
307 25-02-2004 00:00:00 1.34583 C 3.91 g/m*3 1.35 C 0 km/h
308 26-02-2004 00:00:00 -0.21417 C 3.08 g/m*3 -0.21 C 0 km/h
309 27-02-2004 00:00:00 -1.6575 C 2.58 g/m*3 -1.66 C 0 km/h
310 28-02-2004 00:00:00 0.15508 C 2.64 g/m*3 0.16 C 0 km/h
311 29-02-2004 00:00:00 -1.085 C 2.65 g/m*3 -1.09 C 0 km/h
312 01-03-2004 00:00:00 -0.13417 C 2.61 g/m*3 -0.13 C 0 km/h
313 02-03-2004 00:00:00 3.0575 C 3.76 g/m*3 3.06 C 0 km/h
314 03-03-2004 00:00:00 3.86667 C 3.33 g/m*3 3.87 C 0 km/h
315 04-03-2004 00:00:00 3.09 C 3.39 g/m*3 3.09 C 0 km/h
316 05-03-2004 00:00:00 3.3075 C 2.85 g/m*3 3.31 C 0 km/h
317 06-03-2004 00:00:00 1.425 C 4.24 g/m*3 1.43 C 0 km/h
318 07-03-2004 00:00:00 3.68583 C 4.59 g/m*3 3.69 C 0 km/h
319 08-03-2004 00:00:00 4.06167 C 3.66 g/m*3 4.06 C 0 km/h
320 09-03-2004 00:00:00 1.66333 C 3.41 g/m*3 1.66 C 0 km/h
321 10-03-2004 00:00:00 0.88 C 3.88 g/m*3 0.88 C 0 km/h
322 11-03-2004 00:00:00 1.12857 C 4.05 g/m*3 1.13 C 0 km/h
323 12-03-2004 00:00:00 3.4975 C 3.96 g/m*3 3.5 C 0 km/h
324 13-03-2004 00:00:00 9.25417 C 5.28 g/m*3 9.25 C 0 km/h
325 14-03-2004 00:00:00 9.66417 C 4.9 g/m*3 9.66 C 0 km/h
Sensor: Nr:Datum:Temp:Abs-Feuchte:Windchill:Wind:
Aussen-T/F 326 15-03-2004 00:00:00 11.64167 C 5.22 g/m*3 11.64 C 0 km/h
327 16-03-2004 00:00:00 12.85583 C 6.54 g/m*3 12.86 C 0 km/h
328 17-03-2004 00:00:00 12.58333 C 6.62 g/m*3 12.58 C 0 km/h
329 18-03-2004 00:00:00 14.18 C 7.14 g/m*3 14.18 C 0 km/h
330 19-03-2004 00:00:00 12.33333 C 6.93 g/m*3 12.33 C 0 km/h
331 20-03-2004 00:00:00 12.1875 C 7.53 g/m*3 12.19 C 0 km/h
332 21-03-2004 00:00:00 9.85583 C 5.92 g/m*3 9.86 C 0 km/h
333 22-03-2004 00:00:00 6.47917 C 5.54 g/m*3 6.48 C 0 km/h
334 23-03-2004 00:00:00 5.15966 C 5.49 g/m*3 5.16 C 0 km/h
335 24-03-2004 00:00:00 5.735 C 4.8 g/m*3 5.74 C 0 km/h
336 25-03-2004 00:00:00 4.39083 C 4.22 g/m*3 4.39 C 0 km/h
337 26-03-2004 00:00:00 2.8575 C 3.77 g/m*3 2.86 C 0 km/h
338 27-03-2004 00:00:00 2.76167 C 3.42 g/m*3 2.76 C 0 km/h
339 28-03-2004 00:00:00 4.98174 C 3.63 g/m*3 4.98 C 0 km/h
340 29-03-2004 00:00:00 7.27 C 4.13 g/m*3 7.27 C 0 km/h
341 30-03-2004 00:00:00 11.1075 C 4.45 g/m*3 11.11 C 0 km/h
342 31-03-2004 00:00:00 11.83 C 5.02 g/m*3 11.83 C 0 km/h
343 01-04-2004 00:00:00 14.11083 C 5.67 g/m*3 14.11 C 0 km/h
344 02-04-2004 00:00:00 13.71083 C 6.01 g/m*3 13.71 C 0 km/h
345 03-04-2004 00:00:00 12.5275 C 7.01 g/m*3 12.53 C 0 km/h
346 04-04-2004 00:00:00 12.14333 C 5.94 g/m*3 12.14 C 0 km/h
347 05-04-2004 00:00:00 8.31176 C 5.82 g/m*3 8.31 C 0 km/h
348 06-04-2004 00:00:00 6.33333 C 5.48 g/m*3 6.33 C 0 km/h
349 07-04-2004 00:00:00 5.33417 C 5.38 g/m*3 5.33 C 0 km/h
350 08-04-2004 00:00:00 6.565 C 5.43 g/m*3 6.57 C 0 km/h
Sensor: Nr:Datum:Temp:Abs-Feuchte:Windchill:Wind:
Aussen-T/F 351 09-04-2004 00:00:00 7.14583 C 5.29 g/m*3 7.15 C 0 km/h
352 10-04-2004 00:00:00 7.875 C 5.71 g/m*3 7.88 C 0 km/h
353 11-04-2004 00:00:00 7.40667 C 5.06 g/m*3 7.41 C 0 km/h
354 12-04-2004 00:00:00 8.5875 C 4.97 g/m*3 8.59 C 0 km/h
355 13-04-2004 00:00:00 10.13917 C 5.92 g/m*3 10.14 C 0 km/h
356 14-04-2004 00:00:00 11.98667 C 5.46 g/m*3 11.99 C 0 km/h
357 15-04-2004 00:00:00 11.55833 C 5.32 g/m*3 11.56 C 0 km/h
358 16-04-2004 00:00:00 14.20083 C 6.04 g/m*3 14.2 C 0 km/h
359 17-04-2004 00:00:00 14.72521 C 6.1 g/m*3 14.73 C 0 km/h
360 18-04-2004 00:00:00 12.97583 C 6.27 g/m*3 12.98 C 0 km/h
361 19-04-2004 00:00:00 10.14917 C 4.68 g/m*3 10.15 C 0 km/h
362 20-04-2004 00:00:00 10.01083 C 6.42 g/m*3 10.01 C 0 km/h
363 21-04-2004 00:00:00 14.15667 C 7.93 g/m*3 14.16 C 0 km/h
364 22-04-2004 00:00:00 16.29917 C 8.77 g/m*3 16.3 C 0 km/h
365 23-04-2004 00:00:00 13.10417 C 8.1 g/m*3 13.1 C 0 km/h
366 24-04-2004 00:00:00 12.5125 C 6.29 g/m*3 12.51 C 0 km/h
367 25-04-2004 00:00:00 12.58083 C 6.49 g/m*3 12.58 C 0 km/h
368 26-04-2004 00:00:00 14.825 C 6.6 g/m*3 14.83 C 0 km/h
369 27-04-2004 00:00:00 16.15917 C 7.23 g/m*3 16.16 C 0 km/h
370 28-04-2004 00:00:00 16.0125 C 8.73 g/m*3 16.01 C 0 km/h
371 29-04-2004 00:00:00 16.4958 C 9.99 g/m*3 16.5 C 0 km/h
372 30-04-2004 00:00:00 18.50167 C 9.7 g/m*3 18.5 C 0 km/h
373 01-05-2004 00:00:00 14.56639 C 10 g/m*3 14.57 C 0 km/h
374 02-05-2004 00:00:00 15.70083 C 8.35 g/m*3 15.7 C 0 km/h
375 03-05-2004 00:00:00 14.50667 C 7.67 g/m*3 14.51 C 0 km/h
Sensor: Nr:Datum:Temp:Abs-Feuchte:Windchill:Wind:
Aussen-T/F 376 04-05-2004 00:00:00 14.02167 C 7.33 g/m*3 14.02 C 0 km/h
377 05-05-2004 00:00:00 12.41083 C 5.81 g/m*3 12.41 C 0 km/h
378 06-05-2004 00:00:00 10.04167 C 6.93 g/m*3 10.04 C 0 km/h
379 07-05-2004 00:00:00 8.415 C 7.62 g/m*3 8.41 C 0 km/h
380 08-05-2004 00:00:00 7.58083 C 6.96 g/m*3 7.58 C 0 km/h
381 09-05-2004 00:00:00 10.3025 C 7.31 g/m*3 10.3 C 0 km/h
382 10-05-2004 00:00:00 12.86 C 8.86 g/m*3 12.86 C 0 km/h
383 11-05-2004 00:00:00 14.43866 C 8.64 g/m*3 14.44 C 0 km/h
384 12-05-2004 00:00:00 12.22583 C 6.55 g/m*3 12.23 C 0 km/h
385 13-05-2004 00:00:00 11.9225 C 6.73 g/m*3 11.92 C 0 km/h
386 14-05-2004 00:00:00 15.3875 C 7.71 g/m*3 15.39 C 0 km/h
387 15-05-2004 00:00:00 14.34333 C 7.71 g/m*3 14.34 C 0 km/h
388 16-05-2004 00:00:00 16.78167 C 8.21 g/m*3 16.78 C 0 km/h
389 17-05-2004 00:00:00 17.8875 C 8.72 g/m*3 17.89 C 0 km/h
390 18-05-2004 00:00:00 18.75917 C 8.84 g/m*3 18.76 C 0 km/h
391 19-05-2004 00:00:00 19.56 C 9.24 g/m*3 19.56 C 0 km/h
392 20-05-2004 00:00:00 19.53 C 8.61 g/m*3 19.53 C 0 km/h
393 21-05-2004 00:00:00 13.19833 C 8 g/m*3 13.2 C 0 km/h
394 22-05-2004 00:00:00 10.73083 C 5.07 g/m*3 10.73 C 0 km/h
395 23-05-2004 00:00:00 11.5479 C 5.05 g/m*3 11.55 C 0 km/h
396 24-05-2004 00:00:00 11.78 C 5.65 g/m*3 11.78 C 0 km/h
397 25-05-2004 00:00:00 14.72583 C 6.62 g/m*3 14.73 C 0 km/h
398 26-05-2004 00:00:00 14.9725 C 6.13 g/m*3 14.97 C 0 km/h
399 27-05-2004 00:00:00 12.81083 C 5.6 g/m*3 12.81 C 0 km/h
400 28-05-2004 00:00:00 13.97333 C 6.32 g/m*3 13.97 C 0 km/h
Sensor: Nr:Datum:Temp:Abs-Feuchte:Windchill:Wind:
Aussen-T/F 401 29-05-2004 00:00:00 17.0438 C 6.95 g/m*3 17.04 C 0 km/h
402 30-05-2004 00:00:00 18.69077 C 7.26 g/m*3 18.69 C 0 km/h
403 31-05-2004 00:00:00 15.58167 C 10.4 g/m*3 15.58 C 0 km/h
404 01-06-2004 00:00:00 16.40168 C 9.4 g/m*3 16.4 C 0 km/h
405 02-06-2004 00:00:00 14.86303 C 9.85 g/m*3 14.86 C 0 km/h
406 03-06-2004 00:00:00 16.36167 C 10.23 g/m*3 16.36 C 0 km/h
407 04-06-2004 00:00:00 13.82583 C 10.17 g/m*3 13.83 C 0 km/h
408 05-06-2004 00:00:00 14.33583 C 9.13 g/m*3 14.34 C 0 km/h
409 06-06-2004 00:00:00 16.84667 C 9.18 g/m*3 16.85 C 0 km/h
410 07-06-2004 00:00:00 20.69333 C 9.87 g/m*3 20.69 C 0 km/h
411 08-06-2004 00:00:00 23.6575 C 11.14 g/m*3 23.66 C 0 km/h
412 09-06-2004 00:00:00 24.735 C 13.13 g/m*3 24.74 C 0 km/h
413 10-06-2004 00:00:00 21.21417 C 14.55 g/m*3 21.21 C 0 km/h
414 11-06-2004 00:00:00 18.8725 C 12.84 g/m*3 18.87 C 0 km/h
415 12-06-2004 00:00:00 15.64417 C 9.74 g/m*3 15.64 C 0 km/h
416 13-06-2004 00:00:00 15.35042 C 9.24 g/m*3 15.35 C 0 km/h
417 14-06-2004 00:00:00 17.5175 C 9.03 g/m*3 17.52 C 0 km/h
418 15-06-2004 00:00:00 20.5725 C 10.96 g/m*3 20.57 C 0 km/h
419 16-06-2004 00:00:00 17.205 C 7.51 g/m*3 17.2 C 0 km/h
420 17-06-2004 00:00:00 18.3025 C 8.69 g/m*3 18.3 C 0 km/h
421 18-06-2004 00:00:00 15.54 C 9.61 g/m*3 15.54 C 0 km/h
422 19-06-2004 00:00:00 14.39167 C 8.28 g/m*3 14.39 C 0 km/h
423 20-06-2004 00:00:00 14.56583 C 7.37 g/m*3 14.57 C 0 km/h
424 21-06-2004 00:00:00 14.90333 C 8.02 g/m*3 14.9 C 0 km/h
425 22-06-2004 00:00:00 15.64583 C 10.33 g/m*3 15.65 C 0 km/h
Sensor: Nr:Datum:Temp:Abs-Feuchte:Windchill:Wind:
Aussen-T/F 426 23-06-2004 00:00:00 19.17083 C 10.61 g/m*3 19.17 C 0 km/h
427 24-06-2004 00:00:00 16.3775 C 7.16 g/m*3 16.38 C 0 km/h
428 25-06-2004 00:00:00 14.59167 C 7.8 g/m*3 14.59 C 0 km/h
429 26-06-2004 00:00:00 16.39328 C 8.74 g/m*3 16.39 C 0 km/h
430 27-06-2004 00:00:00 20.93475 C 11.55 g/m*3 20.93 C 0 km/h
431 28-06-2004 00:00:00 19.74667 C 7.96 g/m*3 19.75 C 0 km/h
432 29-06-2004 00:00:00 18.54833 C 8.3 g/m*3 18.55 C 0 km/h
433 30-06-2004 00:00:00 20.9875 C 9.12 g/m*3 20.99 C 0 km/h
434 01-07-2004 00:00:00 18.20084 C 8.16 g/m*3 18.2 C 0 km/h
435 02-07-2004 00:00:00 15.81417 C 9.1 g/m*3 15.81 C 0 km/h
436 03-07-2004 00:00:00 15.91333 C 8.88 g/m*3 15.91 C 0 km/h
437 04-07-2004 00:00:00 15.28 C 9.43 g/m*3 15.28 C 0 km/h
438 05-07-2004 00:00:00 18.50083 C 10.14 g/m*3 18.5 C 0 km/h
439 06-07-2004 00:00:00 19.60833 C 8.72 g/m*3 19.61 C 0 km/h
440 07-07-2004 00:00:00 18.90167 C 10.22 g/m*3 18.9 C 0 km/h
441 08-07-2004 00:00:00 18.76833 C 11.9 g/m*3 18.77 C 0 km/h
442 09-07-2004 00:00:00 15.12333 C 10.24 g/m*3 15.12 C 0 km/h
443 10-07-2004 00:00:00 14.9525 C 8.82 g/m*3 14.95 C 0 km/h
444 11-07-2004 00:00:00 14.95417 C 8.32 g/m*3 14.95 C 0 km/h
445 12-07-2004 00:00:00 14.17 C 9.42 g/m*3 14.17 C 0 km/h
446 13-07-2004 00:00:00 14.57815 C 8.55 g/m*3 14.58 C 0 km/h
447 14-07-2004 00:00:00 16.24083 C 9.35 g/m*3 16.24 C 0 km/h
448 15-07-2004 00:00:00 19.03167 C 12.77 g/m*3 19.03 C 0 km/h
449 16-07-2004 00:00:00 22.7475 C 12.5 g/m*3 22.75 C 0 km/h
450 17-07-2004 00:00:00 21.68 C 13.47 g/m*3 21.68 C 0 km/h
Sensor: Nr:Datum:Temp:Abs-Feuchte:Windchill:Wind:
Aussen-T/F 451 18-07-2004 00:00:00 19.98843 C 13.88 g/m*3 19.99 C 0 km/h
452 19-07-2004 00:00:00 21.74667 C 12.55 g/m*3 21.75 C 0 km/h
453 20-07-2004 00:00:00 19.855 C 12.88 g/m*3 19.86 C 0 km/h
454 21-07-2004 00:00:00 22.40083 C 13.38 g/m*3 22.4 C 0 km/h
455 22-07-2004 00:00:00 24.60504 C 14.07 g/m*3 24.61 C 0 km/h
456 23-07-2004 00:00:00 23.33 C 14.72 g/m*3 23.33 C 0 km/h
457 24-07-2004 00:00:00 22.0075 C 10.74 g/m*3 22.01 C 0 km/h
458 25-07-2004 00:00:00 18.13833 C 10.05 g/m*3 18.14 C 0 km/h
459 26-07-2004 00:00:00 16.53583 C 10.88 g/m*3 16.54 C 0 km/h
460 27-07-2004 00:00:00 18.31092 C 10.02 g/m*3 18.31 C 0 km/h
461 28-07-2004 00:00:00 20.28583 C 9.5 g/m*3 20.29 C 0 km/h
462 29-07-2004 00:00:00 21.75917 C 9.6 g/m*3 21.76 C 0 km/h
463 30-07-2004 00:00:00 22.845 C 10.59 g/m*3 22.85 C 0 km/h
464 31-07-2004 00:00:00 23.185 C 12.07 g/m*3 23.19 C 0 km/h
465 01-08-2004 00:00:00 23.30333 C 12.07 g/m*3 23.3 C 0 km/h
466 02-08-2004 00:00:00 23.80917 C 11.1 g/m*3 23.81 C 0 km/h
467 03-08-2004 00:00:00 24.1975 C 10.83 g/m*3 24.2 C 0 km/h
468 04-08-2004 00:00:00 23.40756 C 13.04 g/m*3 23.41 C 0 km/h
469 05-08-2004 00:00:00 25.28167 C 12.69 g/m*3 25.28 C 0 km/h
470 06-08-2004 00:00:00 25.0625 C 12.09 g/m*3 25.06 C 0 km/h
471 07-08-2004 00:00:00 24.03167 C 14.41 g/m*3 24.03 C 0 km/h
472 08-08-2004 00:00:00 24.36 C 13.84 g/m*3 24.36 C 0 km/h
473 09-08-2004 00:00:00 25.4775 C 10.89 g/m*3 25.48 C 0 km/h
474 10-08-2004 00:00:00 22.66333 C 11.69 g/m*3 22.66 C 0 km/h
475 11-08-2004 00:00:00 22.42804 C 14.99 g/m*3 22.43 C 0 km/h
Sensor: Nr:Datum:Temp:Abs-Feuchte:Windchill:Wind:
Aussen-T/F 476 12-08-2004 00:00:00 20.15417 C 13.25 g/m*3 20.15 C 0 km/h
477 13-08-2004 00:00:00 17.9625 C 11.42 g/m*3 17.96 C 0 km/h
478 14-08-2004 00:00:00 18.08333 C 12.27 g/m*3 18.08 C 0 km/h
479 15-08-2004 00:00:00 21.52708 C 11.93 g/m*3 21.53 C 0 km/h
480 16-08-2004 00:00:00 20.10625 C 12.61 g/m*3 20.11 C 0 km/h
481 17-08-2004 00:00:00 20.58958 C 13.87 g/m*3 20.59 C 0 km/h
482 18-08-2004 00:00:00 22.67292 C 13.2 g/m*3 22.67 C 0 km/h
483 19-08-2004 00:00:00 21.05417 C 11.68 g/m*3 21.05 C 0 km/h
484 20-08-2004 00:00:00 18.89583 C 10.4 g/m*3 18.9 C 0 km/h
485 21-08-2004 00:00:00 15.52708 C 10.53 g/m*3 15.53 C 0 km/h
486 22-08-2004 00:00:00 16.41042 C 9.01 g/m*3 16.41 C 0 km/h
487 23-08-2004 00:00:00 16.42708 C 10.17 g/m*3 16.43 C 0 km/h
488 24-08-2004 00:00:00 17.42083 C 11.51 g/m*3 17.42 C 0 km/h
489 25-08-2004 00:00:00 16.20847 C 10.15 g/m*3 16.21 C 0 km/h
490 26-08-2004 00:00:00 16.76083 C 9.98 g/m*3 16.76 C 0 km/h
491 27-08-2004 00:00:00 15.82269 C 9.42 g/m*3 15.82 C 0 km/h
492 28-08-2004 00:00:00 17.58 C 12.34 g/m*3 17.58 C 0 km/h
493 29-08-2004 00:00:00 18.84917 C 11.59 g/m*3 18.85 C 0 km/h
494 30-08-2004 00:00:00 15.81333 C 10.43 g/m*3 15.81 C 0 km/h
495 31-08-2004 00:00:00 14.84333 C 8.88 g/m*3 14.84 C 0 km/h
496 01-09-2004 00:00:00 15.91667 C 9.07 g/m*3 15.92 C 0 km/h
497 02-09-2004 00:00:00 17.21429 C 9.62 g/m*3 17.21 C 0 km/h
498 03-09-2004 00:00:00 20.0275 C 11.76 g/m*3 20.03 C 0 km/h
499 04-09-2004 00:00:00 21.15083 C 12.63 g/m*3 21.15 C 0 km/h
500 05-09-2004 00:00:00 21.63833 C 12.6 g/m*3 21.64 C 0 km/h
Sensor: Nr:Datum:Temp:Abs-Feuchte:Windchill:Wind:
Aussen-T/F 501 06-09-2004 00:00:00 20.35 C 10.92 g/m*3 20.35 C 0 km/h
502 07-09-2004 00:00:00 21.00167 C 11.07 g/m*3 21 C 0 km/h
503 08-09-2004 00:00:00 20.15294 C 10.46 g/m*3 20.15 C 0 km/h
504 09-09-2004 00:00:00 18.48167 C 8.08 g/m*3 18.48 C 0 km/h
505 10-09-2004 00:00:00 17.9825 C 8.26 g/m*3 17.98 C 0 km/h
506 11-09-2004 00:00:00 20.54583 C 12.35 g/m*3 20.55 C 0 km/h
507 12-09-2004 00:00:00 17.1475 C 9.04 g/m*3 17.15 C 0 km/h
508 13-09-2004 00:00:00 17.07 C 8.88 g/m*3 17.07 C 0 km/h
509 14-09-2004 00:00:00 17.45462 C 8.44 g/m*3 17.45 C 0 km/h
510 15-09-2004 00:00:00 14.54333 C 8.16 g/m*3 14.54 C 0 km/h
511 16-09-2004 00:00:00 12.64 C 7.27 g/m*3 12.64 C 0 km/h
512 17-09-2004 00:00:00 13.2175 C 7.39 g/m*3 13.22 C 0 km/h
513 18-09-2004 00:00:00 15.71667 C 8.66 g/m*3 15.72 C 0 km/h
514 19-09-2004 00:00:00 16.38 C 10.18 g/m*3 16.38 C 0 km/h
515 20-09-2004 00:00:00 13.69833 C 7.61 g/m*3 13.7 C 0 km/h
516 21-09-2004 00:00:00 15.01167 C 6.9 g/m*3 15.01 C 0 km/h
517 22-09-2004 00:00:00 12.50168 C 7.63 g/m*3 12.5 C 0 km/h
518 23-09-2004 00:00:00 13.44917 C 10.41 g/m*3 13.45 C 0 km/h
519 24-09-2004 00:00:00 12.08833 C 7.68 g/m*3 12.09 C 0 km/h
520 25-09-2004 00:00:00 12.41167 C 7.54 g/m*3 12.41 C 0 km/h
521 26-09-2004 00:00:00 12.71667 C 8.34 g/m*3 12.72 C 0 km/h
522 27-09-2004 00:00:00 13.985 C 9.75 g/m*3 13.99 C 0 km/h
523 28-09-2004 00:00:00 15.85833 C 10.38 g/m*3 15.86 C 0 km/h
524 29-09-2004 00:00:00 15.4525 C 8.97 g/m*3 15.45 C 0 km/h
525 30-09-2004 00:00:00 13.13583 C 8.54 g/m*3 13.14 C 0 km/h
Sensor: Nr:Datum:Temp:Abs-Feuchte:Windchill:Wind:
Aussen-T/F 526 01-10-2004 00:00:00 15.1775 C 9.42 g/m*3 15.18 C 0 km/h
527 02-10-2004 00:00:00 14.82333 C 9.08 g/m*3 14.82 C 0 km/h
528 03-10-2004 00:00:00 13.56417 C 8.33 g/m*3 13.56 C 0 km/h
529 04-10-2004 00:00:00 16.06303 C 9.8 g/m*3 16.06 C 0 km/h
530 05-10-2004 00:00:00 19.11667 C 11.19 g/m*3 19.12 C 0 km/h
531 06-10-2004 00:00:00 14.425 C 9.96 g/m*3 14.43 C 0 km/h
532 07-10-2004 00:00:00 11.63417 C 7.67 g/m*3 11.63 C 0 km/h
533 08-10-2004 00:00:00 9.55667 C 7.63 g/m*3 9.56 C 0 km/h
534 09-10-2004 00:00:00 10.71833 C 7.51 g/m*3 10.72 C 0 km/h
535 10-10-2004 00:00:00 9.49167 C 6.16 g/m*3 9.49 C 0 km/h
536 11-10-2004 00:00:00 8.54167 C 5.21 g/m*3 8.54 C 0 km/h
537 12-10-2004 00:00:00 8.30333 C 5.07 g/m*3 8.3 C 0 km/h
538 13-10-2004 00:00:00 9.11167 C 6.86 g/m*3 9.11 C 0 km/h
539 14-10-2004 00:00:00 11.28417 C 8.04 g/m*3 11.28 C 0 km/h
540 15-10-2004 00:00:00 10.13917 C 7.5 g/m*3 10.14 C 0 km/h
541 16-10-2004 00:00:00 7.7475 C 6.95 g/m*3 7.75 C 0 km/h
542 17-10-2004 00:00:00 8.67143 C 6.95 g/m*3 8.67 C 0 km/h
543 18-10-2004 00:00:00 9.92417 C 6.91 g/m*3 9.92 C 0 km/h
544 19-10-2004 00:00:00 8.205 C 7.02 g/m*3 8.21 C 0 km/h
545 20-10-2004 00:00:00 12.1075 C 9.58 g/m*3 12.11 C 0 km/h
546 21-10-2004 00:00:00 14.14083 C 8.35 g/m*3 14.14 C 0 km/h
547 22-10-2004 00:00:00 10.405 C 7.51 g/m*3 10.41 C 0 km/h
548 23-10-2004 00:00:00 14.51083 C 8.98 g/m*3 14.51 C 0 km/h
549 24-10-2004 00:00:00 15.26 C 10.21 g/m*3 15.26 C 0 km/h
550 25-10-2004 00:00:00 14.77917 C 8.83 g/m*3 14.78 C 0 km/h
Sensor: Nr:Datum:Temp:Abs-Feuchte:Windchill:Wind:
Aussen-T/F 551 26-10-2004 00:00:00 10.89917 C 7.87 g/m*3 10.9 C 0 km/h
552 27-10-2004 00:00:00 9.63083 C 7.31 g/m*3 9.63 C 0 km/h
553 28-10-2004 00:00:00 12.44833 C 8.74 g/m*3 12.45 C 0 km/h
554 29-10-2004 00:00:00 12.78908 C 9.56 g/m*3 12.79 C 0 km/h
555 30-10-2004 00:00:00 10.50417 C 8.76 g/m*3 10.5 C 0 km/h
556 31-10-2004 00:00:00 10.9848 C 8.21 g/m*3 10.98 C 0 km/h
557 01-11-2004 00:00:00 9.905 C 7.35 g/m*3 9.9 C 0 km/h
558 02-11-2004 00:00:00 10.325 C 7.68 g/m*3 10.33 C 0 km/h
559 03-11-2004 00:00:00 10.58917 C 8.6 g/m*3 10.59 C 0 km/h
560 04-11-2004 00:00:00 10.43417 C 9.03 g/m*3 10.43 C 0 km/h
561 05-11-2004 00:00:00 8.9725 C 6.72 g/m*3 8.97 C 0 km/h
562 06-11-2004 00:00:00 7.45417 C 6.76 g/m*3 7.45 C 0 km/h
563 07-11-2004 00:00:00 5.835 C 6.43 g/m*3 5.84 C 0 km/h
564 08-11-2004 00:00:00 3.9825 C 5.85 g/m*3 3.98 C 0 km/h
565 09-11-2004 00:00:00 2.1375 C 4.89 g/m*3 2.14 C 0 km/h
566 10-11-2004 00:00:00 1.37667 C 4.98 g/m*3 1.38 C 0 km/h
567 11-11-2004 00:00:00 3.1563 C 5.18 g/m*3 3.16 C 0 km/h
568 12-11-2004 00:00:00 4.21333 C 5.29 g/m*3 4.21 C 0 km/h
569 13-11-2004 00:00:00 4.75583 C 5.38 g/m*3 4.76 C 0 km/h
570 14-11-2004 00:00:00 3.52333 C 4.99 g/m*3 3.52 C 0 km/h
571 15-11-2004 00:00:00 2.90583 C 4.99 g/m*3 2.91 C 0 km/h
572 16-11-2004 00:00:00 6.5475 C 5.87 g/m*3 6.55 C 0 km/h
573 17-11-2004 00:00:00 9.91917 C 7.05 g/m*3 9.92 C 0 km/h
574 18-11-2004 00:00:00 9.40583 C 7.16 g/m*3 9.41 C 0 km/h
575 19-11-2004 00:00:00 3.91083 C 4.5 g/m*3 3.91 C 0 km/h
Sensor: Nr:Datum:Temp:Abs-Feuchte:Windchill:Wind:
Aussen-T/F 576 20-11-2004 00:00:00 2.23583 C 3.44 g/m*3 2.24 C 0 km/h
577 21-11-2004 00:00:00 0.33333 C 3.81 g/m*3 0.33 C 0 km/h
578 22-11-2004 00:00:00 8.65583 C 6.81 g/m*3 8.66 C 0 km/h
579 23-11-2004 00:00:00 7.97563 C 6.86 g/m*3 7.98 C 0 km/h
580 24-11-2004 00:00:00 1.78417 C 4.76 g/m*3 1.78 C 0 km/h
581 25-11-2004 00:00:00 -0.49667 C 4 g/m*3 -0.5 C 0 km/h
582 26-11-2004 00:00:00 3.6775 C 4.77 g/m*3 3.68 C 0 km/h
583 27-11-2004 00:00:00 7.69167 C 6.37 g/m*3 7.69 C 0 km/h
584 28-11-2004 00:00:00 8.34417 C 6.1 g/m*3 8.34 C 0 km/h
585 29-11-2004 00:00:00 5.86583 C 5.62 g/m*3 5.87 C 0 km/h
586 30-11-2004 00:00:00 2.81167 C 4.91 g/m*3 2.81 C 0 km/h
587 01-12-2004 00:00:00 4.71167 C 5.16 g/m*3 4.71 C 0 km/h
588 02-12-2004 00:00:00 4.24333 C 4.84 g/m*3 4.24 C 0 km/h
589 03-12-2004 00:00:00 3.0975 C 5.28 g/m*3 3.1 C 0 km/h
590 04-12-2004 00:00:00 1.99667 C 4.6 g/m*3 2 C 0 km/h
591 05-12-2004 00:00:00 1.255 C 4.17 g/m*3 1.25 C 0 km/h
592 06-12-2004 00:00:00 4.54622 C 5.31 g/m*3 4.55 C 0 km/h
593 07-12-2004 00:00:00 4.37667 C 4.85 g/m*3 4.38 C 0 km/h
594 08-12-2004 00:00:00 5.02833 C 5.01 g/m*3 5.03 C 0 km/h
595 09-12-2004 00:00:00 -0.1025 C 3.89 g/m*3 -0.1 C 0 km/h
596 10-12-2004 00:00:00 -3.5675 C 3.26 g/m*3 -3.57 C 0 km/h
597 11-12-2004 00:00:00 -2.575 C 3.5 g/m*3 -2.58 C 0 km/h
598 12-12-2004 00:00:00 -1.58833 C 3.25 g/m*3 -1.59 C 0 km/h
599 13-12-2004 00:00:00 -1.33917 C 3.22 g/m*3 -1.34 C 0 km/h
600 14-12-2004 00:00:00 -2.87083 C 3.12 g/m*3 -2.87 C 0 km/h
Sensor: Nr:Datum:Temp:Abs-Feuchte:Windchill:Wind:
Aussen-T/F 601 15-12-2004 00:00:00 -3.50917 C 3.26 g/m*3 -3.51 C 0 km/h
602 16-12-2004 00:00:00 -0.65333 C 4.04 g/m*3 -0.65 C 0 km/h
603 17-12-2004 00:00:00 5.17667 C 5.6 g/m*3 5.18 C 0 km/h
604 18-12-2004 00:00:00 3.6479 C 4.61 g/m*3 3.65 C 0 km/h
605 19-12-2004 00:00:00 1.25083 C 4.26 g/m*3 1.25 C 0 km/h
606 20-12-2004 00:00:00 -2.95667 C 3.26 g/m*3 -2.96 C 0 km/h
607 21-12-2004 00:00:00 -6.37167 C 2.46 g/m*3 -6.37 C 0 km/h
608 22-12-2004 00:00:00 -1.36667 C 3.44 g/m*3 -1.37 C 0 km/h
609 23-12-2004 00:00:00 5.19667 C 5.57 g/m*3 5.2 C 0 km/h
610 24-12-2004 00:00:00 8.21833 C 6.45 g/m*3 8.22 C 0 km/h
611 25-12-2004 00:00:00 6.31333 C 5.5 g/m*3 6.31 C 0 km/h
612 26-12-2004 00:00:00 1.5975 C 4.62 g/m*3 1.6 C 0 km/h
613 27-12-2004 00:00:00 1.34167 C 3.71 g/m*3 1.34 C 0 km/h
614 28-12-2004 00:00:00 0.25917 C 3.75 g/m*3 0.26 C 0 km/h
615 29-12-2004 00:00:00 2.37333 C 4.75 g/m*3 2.37 C 0 km/h
616 30-12-2004 00:00:00 3.3325 C 4.63 g/m*3 3.33 C 0 km/h
617 31-12-2004 00:00:00 6.41333 C 5.98 g/m*3 6.41 C 0 km/h
618 01-01-2005 00:00:00 7.80171 C 6.26 g/m*3 7.8 C 0 km/h
619 02-01-2005 00:00:00 5.9225 C 4.43 g/m*3 5.92 C 0 km/h
620 03-01-2005 00:00:00 4.92521 C 4.64 g/m*3 4.93 C 0 km/h
621 04-01-2005 00:00:00 5.78083 C 4.93 g/m*3 5.78 C 0 km/h
622 05-01-2005 00:00:00 4.83917 C 5.25 g/m*3 4.84 C 0 km/h
623 06-01-2005 00:00:00 6.5425 C 5.77 g/m*3 6.54 C 0 km/h
624 07-01-2005 00:00:00 10.02917 C 6.15 g/m*3 10.03 C 0 km/h
625 08-01-2005 00:00:00 9.30079 C 5.2 g/m*3 9.3 C 0 km/h
Sensor: Nr:Datum:Temp:Abs-Feuchte:Windchill:Wind:
Aussen-T/F 626 09-01-2005 00:00:00 6.9625 C 4.94 g/m*3 6.96 C 0 km/h
627 10-01-2005 00:00:00 10.83083 C 6.2 g/m*3 10.83 C 0 km/h
628 11-01-2005 00:00:00 9.06807 C 5.92 g/m*3 9.07 C 0 km/h
629 12-01-2005 00:00:00 8.70833 C 6.17 g/m*3 8.71 C 0 km/h
630 13-01-2005 00:00:00 4.19917 C 4.35 g/m*3 4.2 C 0 km/h
631 14-01-2005 00:00:00 1.69333 C 4.21 g/m*3 1.69 C 0 km/h
632 15-01-2005 00:00:00 -0.22583 C 3.87 g/m*3 -0.23 C 0 km/h
633 16-01-2005 00:00:00 -2.78333 C 3.26 g/m*3 -2.78 C 0 km/h
634 17-01-2005 00:00:00 2.64583 C 4.56 g/m*3 2.65 C 0 km/h
635 18-01-2005 00:00:00 4.8275 C 5.2 g/m*3 4.83 C 0 km/h
636 19-01-2005 00:00:00 3.46917 C 4.51 g/m*3 3.47 C 0 km/h
637 20-01-2005 00:00:00 8.7 C 6.22 g/m*3 8.7 C 0 km/h
638 21-01-2005 00:00:00 6.0475 C 4.06 g/m*3 6.05 C 0 km/h
639 22-01-2005 00:00:00 3.84167 C 4.3 g/m*3 3.84 C 0 km/h
640 23-01-2005 00:00:00 2.245 C 4.32 g/m*3 2.25 C 0 km/h
641 24-01-2005 00:00:00 -0.1275 C 3.31 g/m*3 -0.13 C 0 km/h
642 25-01-2005 00:00:00 -1.08333 C 2.78 g/m*3 -1.08 C 0 km/h
643 26-01-2005 00:00:00 -0.69496 C 2.53 g/m*3 -0.69 C 0 km/h
644 27-01-2005 00:00:00 -2.94167 C 2.65 g/m*3 -2.94 C 0 km/h
645 28-01-2005 00:00:00 -0.65417 C 3.36 g/m*3 -0.65 C 0 km/h
646 29-01-2005 00:00:00 -3.79333 C 2.57 g/m*3 -3.79 C 0 km/h
647 30-01-2005 00:00:00 -1.29083 C 3.07 g/m*3 -1.29 C 0 km/h
648 31-01-2005 00:00:00 3.05083 C 4.91 g/m*3 3.05 C 0 km/h
649 01-02-2005 00:00:00 3.62917 C 4.63 g/m*3 3.63 C 0 km/h
650 02-02-2005 00:00:00 4.28417 C 5.35 g/m*3 4.28 C 0 km/h
Sensor: Nr:Datum:Temp:Abs-Feuchte:Windchill:Wind:
Aussen-T/F 651 03-02-2005 00:00:00 5.17 C 5.38 g/m*3 5.17 C 0 km/h
652 04-02-2005 00:00:00 2.60917 C 4.59 g/m*3 2.61 C 0 km/h
653 05-02-2005 00:00:00 -0.30583 C 3.2 g/m*3 -0.31 C 0 km/h
654 06-02-2005 00:00:00 0.64333 C 2.99 g/m*3 0.64 C 0 km/h
655 07-02-2005 00:00:00 -0.38034 C 3.12 g/m*3 -0.38 C 0 km/h
656 08-02-2005 00:00:00 -0.04333 C 3.84 g/m*3 -0.04 C 0 km/h
657 09-02-2005 00:00:00 1.38333 C 4.21 g/m*3 1.38 C 0 km/h
658 10-02-2005 00:00:00 5.81917 C 5.24 g/m*3 5.82 C 0 km/h
659 11-02-2005 00:00:00 8.145 C 6.61 g/m*3 8.15 C 0 km/h
660 12-02-2005 00:00:00 9.7825 C 6.9 g/m*3 9.78 C 0 km/h
661 13-02-2005 00:00:00 3.3175 C 4.21 g/m*3 3.32 C 0 km/h
662 14-02-2005 00:00:00 1.97917 C 4.46 g/m*3 1.98 C 0 km/h
663 15-02-2005 00:00:00 0.3958 C 3.67 g/m*3 0.4 C 0 km/h
664 16-02-2005 00:00:00 -0.49083 C 3.08 g/m*3 -0.49 C 0 km/h
665 17-02-2005 00:00:00 -0.4075 C 2.88 g/m*3 -0.41 C 0 km/h
666 18-02-2005 00:00:00 -0.81333 C 2.67 g/m*3 -0.81 C 0 km/h
667 19-02-2005 00:00:00 0.64583 C 4.03 g/m*3 0.65 C 0 km/h
668 20-02-2005 00:00:00 1.39083 C 4.24 g/m*3 1.39 C 0 km/h
669 21-02-2005 00:00:00 1.055 C 4.1 g/m*3 1.06 C 0 km/h
670 22-02-2005 00:00:00 -0.25196 C 3.03 g/m*3 -0.25 C 0 km/h
671 23-02-2005 00:00:00 -1.68333 C 2.99 g/m*3 -1.68 C 0 km/h
672 24-02-2005 00:00:00 -1.31111 C 2.9 g/m*3 -1.31 C 0 km/h
673 25-02-2005 00:00:00 -2.17778 C 2.74 g/m*3 -2.18 C 0 km/h
674 26-02-2005 00:00:00 -0.5 C 3.46 g/m*3 -0.5 C 0 km/h
675 27-02-2005 00:00:00 -3.63472 C 2.28 g/m*3 -3.63 C 0 km/h
Sensor: Nr:Datum:Temp:Abs-Feuchte:Windchill:Wind:
Aussen-T/F 676 28-02-2005 00:00:00 -6.9625 C 1.63 g/m*3 -6.96 C 0 km/h
677 01-03-2005 00:00:00 -5.96528 C 1.39 g/m*3 -5.97 C 0 km/h
678 02-03-2005 00:00:00 -1.48056 C 1.75 g/m*3 -1.48 C 0 km/h
679 03-03-2005 00:00:00 -0.1375 C 2.18 g/m*3 -0.14 C 0 km/h
680 04-03-2005 00:00:00 -0.27982 C 2.64 g/m*3 -0.28 C 0 km/h
681 05-03-2005 00:00:00 -0.07014 C 3.18 g/m*3 -0.07 C 0 km/h
682 06-03-2005 00:00:00 -1.81042 C 2.3 g/m*3 -1.81 C 0 km/h
683 07-03-2005 00:00:00 1.11888 C 3.56 g/m*3 1.12 C 0 km/h
684 08-03-2005 00:00:00 3.91111 C 4.71 g/m*3 3.91 C 0 km/h
685 09-03-2005 00:00:00 3.77708 C 4.91 g/m*3 3.78 C 0 km/h
686 10-03-2005 00:00:00 4.05347 C 4.05 g/m*3 4.05 C 0 km/h
687 11-03-2005 00:00:00 2.94028 C 3.93 g/m*3 2.94 C 0 km/h
688 12-03-2005 00:00:00 2.99514 C 4.05 g/m*3 3 C 0 km/h
689 13-03-2005 00:00:00 4.81528 C 3.58 g/m*3 4.82 C 0 km/h
690 14-03-2005 00:00:00 5.70208 C 3.52 g/m*3 5.7 C 0 km/h
691 15-03-2005 00:00:00 7.14306 C 4.06 g/m*3 7.14 C 0 km/h
692 16-03-2005 00:00:00 12.97083 C 5.83 g/m*3 12.97 C 0 km/h
693 17-03-2005 00:00:00 14.52308 C 6.69 g/m*3 14.52 C 0 km/h
694 18-03-2005 00:00:00 14.71528 C 7.56 g/m*3 14.72 C 0 km/h
695 19-03-2005 00:00:00 13.49931 C 8.38 g/m*3 13.5 C 0 km/h
696 20-03-2005 00:00:00 11.45278 C 5.64 g/m*3 11.45 C 0 km/h
697 21-03-2005 00:00:00 9.87917 C 4.56 g/m*3 9.88 C 0 km/h
698 22-03-2005 00:00:00 11.33056 C 5.18 g/m*3 11.33 C 0 km/h
699 23-03-2005 00:00:00 14.70556 C 8.23 g/m*3 14.71 C 0 km/h
700 24-03-2005 00:00:00 12.16597 C 7.78 g/m*3 12.17 C 0 km/h
Sensor: Nr:Datum:Temp:Abs-Feuchte:Windchill:Wind:
Aussen-T/F 701 25-03-2005 00:00:00 13.2875 C 8.38 g/m*3 13.29 C 0 km/h
702 26-03-2005 00:00:00 12.16515 C 7.66 g/m*3 12.17 C 0 km/h
703 27-03-2005 00:00:00 12.68783 C 9.33 g/m*3 12.69 C 0 km/h
704 28-03-2005 00:00:00 12.38833 C 8.64 g/m*3 12.39 C 0 km/h
705 29-03-2005 00:00:00 13.05 C 8.2 g/m*3 13.05 C 0 km/h
706 30-03-2005 00:00:00 11.45917 C 8.8 g/m*3 11.46 C 0 km/h
707 31-03-2005 00:00:00 11.39 C 7.06 g/m*3 11.39 C 0 km/h
708 01-04-2005 00:00:00 10.41583 C 4.49 g/m*3 10.42 C 0 km/h
709 02-04-2005 00:00:00 10.82167 C 4.65 g/m*3 10.82 C 0 km/h
710 03-04-2005 00:00:00 12.61333 C 5.29 g/m*3 12.61 C 0 km/h
711 04-04-2005 00:00:00 13.35333 C 5.78 g/m*3 13.35 C 0 km/h
712 05-04-2005 00:00:00 11.55833 C 6.43 g/m*3 11.56 C 0 km/h
713 06-04-2005 00:00:00 10.38083 C 6.15 g/m*3 10.38 C 0 km/h
714 07-04-2005 00:00:00 12.06833 C 6.36 g/m*3 12.07 C 0 km/h
715 08-04-2005 00:00:00 7.8825 C 6.35 g/m*3 7.88 C 0 km/h
716 09-04-2005 00:00:00 5.93277 C 4.24 g/m*3 5.93 C 0 km/h
717 10-04-2005 00:00:00 7.76583 C 5.49 g/m*3 7.77 C 0 km/h
718 11-04-2005 00:00:00 10.6825 C 6.5 g/m*3 10.68 C 0 km/h
719 12-04-2005 00:00:00 11.34333 C 6.78 g/m*3 11.34 C 0 km/h
720 13-04-2005 00:00:00 12.79833 C 6.79 g/m*3 12.8 C 0 km/h
721 14-04-2005 00:00:00 13.26 C 6.74 g/m*3 13.26 C 0 km/h
722 15-04-2005 00:00:00 12.42583 C 7.07 g/m*3 12.43 C 0 km/h
723 16-04-2005 00:00:00 10.05167 C 7.71 g/m*3 10.05 C 0 km/h
724 17-04-2005 00:00:00 11.35583 C 8.37 g/m*3 11.36 C 0 km/h
725 18-04-2005 00:00:00 14.87083 C 7.91 g/m*3 14.87 C 0 km/h
Sensor: Nr:Datum:Temp:Abs-Feuchte:Windchill:Wind:
Aussen-T/F 726 19-04-2005 00:00:00 9.63167 C 8.13 g/m*3 9.63 C 0 km/h
727 20-04-2005 00:00:00 9.0325 C 7.01 g/m*3 9.03 C 0 km/h
728 21-04-2005 00:00:00 8.66134 C 4.72 g/m*3 8.66 C 0 km/h
729 22-04-2005 00:00:00 10.07 C 4.67 g/m*3 10.07 C 0 km/h
730 23-04-2005 00:00:00 10.6975 C 6 g/m*3 10.7 C 0 km/h
731 24-04-2005 00:00:00 14.47 C 8.87 g/m*3 14.47 C 0 km/h
732 25-04-2005 00:00:00 13.27583 C 9.86 g/m*3 13.28 C 0 km/h
733 26-04-2005 00:00:00 13.5575 C 8.22 g/m*3 13.56 C 0 km/h
734 27-04-2005 00:00:00 13.41667 C 7.37 g/m*3 13.42 C 0 km/h
735 28-04-2005 00:00:00 13.73417 C 6.84 g/m*3 13.73 C 0 km/h
736 29-04-2005 00:00:00 16.11 C 9.78 g/m*3 16.11 C 0 km/h
737 30-04-2005 00:00:00 20.35917 C 10.93 g/m*3 20.36 C 0 km/h
738 01-05-2005 00:00:00 21.73417 C 10.62 g/m*3 21.73 C 0 km/h
739 02-05-2005 00:00:00 20.5605 C 9.76 g/m*3 20.56 C 0 km/h
740 03-05-2005 00:00:00 17.2475 C 9.82 g/m*3 17.25 C 0 km/h
741 04-05-2005 00:00:00 12.76667 C 9.48 g/m*3 12.77 C 0 km/h
742 05-05-2005 00:00:00 12.50167 C 6.8 g/m*3 12.5 C 0 km/h
743 06-05-2005 00:00:00 11.26583 C 6.39 g/m*3 11.27 C 0 km/h
744 07-05-2005 00:00:00 8.97167 C 6.69 g/m*3 8.97 C 0 km/h
745 08-05-2005 00:00:00 7.88333 C 6.03 g/m*3 7.88 C 0 km/h
746 09-05-2005 00:00:00 8.5025 C 5.83 g/m*3 8.5 C 0 km/h
747 10-05-2005 00:00:00 9.0275 C 5.44 g/m*3 9.03 C 0 km/h
748 11-05-2005 00:00:00 10.67 C 5.6 g/m*3 10.67 C 0 km/h
749 12-05-2005 00:00:00 12.34917 C 5.9 g/m*3 12.35 C 0 km/h
750 13-05-2005 00:00:00 13.33583 C 5.67 g/m*3 13.34 C 0 km/h
Sensor: Nr:Datum:Temp:Abs-Feuchte:Windchill:Wind:
Aussen-T/F 751 14-05-2005 00:00:00 11.34917 C 8.9 g/m*3 11.35 C 0 km/h
752 15-05-2005 00:00:00 10.61176 C 7.06 g/m*3 10.61 C 0 km/h
753 16-05-2005 00:00:00 12.49 C 7.4 g/m*3 12.49 C 0 km/h
754 17-05-2005 00:00:00 10.19 C 6.48 g/m*3 10.19 C 0 km/h
755 18-05-2005 00:00:00 9.50333 C 5.38 g/m*3 9.5 C 0 km/h
756 19-05-2005 00:00:00 13.98667 C 6.1 g/m*3 13.99 C 0 km/h
757 20-05-2005 00:00:00 18.82 C 7.84 g/m*3 18.82 C 0 km/h
758 21-05-2005 00:00:00 17.09333 C 10.54 g/m*3 17.09 C 0 km/h
759 22-05-2005 00:00:00 16.69167 C 9.91 g/m*3 16.69 C 0 km/h
760 23-05-2005 00:00:00 15.47 C 8.81 g/m*3 15.47 C 0 km/h
761 24-05-2005 00:00:00 15.2125 C 7.47 g/m*3 15.21 C 0 km/h
762 25-05-2005 00:00:00 20.55083 C 9.07 g/m*3 20.55 C 0 km/h
763 26-05-2005 00:00:00 23.19417 C 10.55 g/m*3 23.19 C 0 km/h
764 27-05-2005 00:00:00 25.4563 C 11.26 g/m*3 25.46 C 0 km/h
765 28-05-2005 00:00:00 25.91333 C 11.84 g/m*3 25.91 C 0 km/h
766 29-05-2005 00:00:00 24.1375 C 9.98 g/m*3 24.14 C 0 km/h
767 30-05-2005 00:00:00 14.91167 C 10.28 g/m*3 14.91 C 0 km/h
768 31-05-2005 00:00:00 14.53333 C 7.22 g/m*3 14.53 C 0 km/h
769 01-06-2005 00:00:00 15.82667 C 7.19 g/m*3 15.83 C 0 km/h
770 02-06-2005 00:00:00 18.09167 C 8.27 g/m*3 18.09 C 0 km/h
771 03-06-2005 00:00:00 20.99667 C 10.8 g/m*3 21 C 0 km/h
772 04-06-2005 00:00:00 16.485 C 8.56 g/m*3 16.49 C 0 km/h
773 05-06-2005 00:00:00 14.8025 C 7.74 g/m*3 14.8 C 0 km/h
774 06-06-2005 00:00:00 15.25917 C 7.79 g/m*3 15.26 C 0 km/h
775 07-06-2005 00:00:00 12.26 C 5.02 g/m*3 12.26 C 0 km/h
Sensor: Nr:Datum:Temp:Abs-Feuchte:Windchill:Wind:
Aussen-T/F 776 08-06-2005 00:00:00 13.41429 C 6.24 g/m*3 13.41 C 0 km/h
777 09-06-2005 00:00:00 15.84167 C 6.69 g/m*3 15.84 C 0 km/h
778 10-06-2005 00:00:00 16.15833 C 7.12 g/m*3 16.16 C 0 km/h
779 11-06-2005 00:00:00 14.58 C 6.14 g/m*3 14.58 C 0 km/h
780 12-06-2005 00:00:00 14.0525 C 6.27 g/m*3 14.05 C 0 km/h
781 13-06-2005 00:00:00 17.27833 C 6.58 g/m*3 17.28 C 0 km/h
782 14-06-2005 00:00:00 16.55583 C 8.54 g/m*3 16.56 C 0 km/h
783 15-06-2005 00:00:00 20.05167 C 10.11 g/m*3 20.05 C 0 km/h
784 16-06-2005 00:00:00 21.46833 C 9.08 g/m*3 21.47 C 0 km/h
785 17-06-2005 00:00:00 21.405 C 12.17 g/m*3 21.41 C 0 km/h
786 18-06-2005 00:00:00 25.12583 C 10.68 g/m*3 25.13 C 0 km/h
787 19-06-2005 00:00:00 24.75417 C 8.2 g/m*3 24.75 C 0 km/h
788 20-06-2005 00:00:00 25.94538 C 10.02 g/m*3 25.95 C 0 km/h
789 21-06-2005 00:00:00 26.24583 C 10.89 g/m*3 26.25 C 0 km/h
790 22-06-2005 00:00:00 24.59333 C 9.45 g/m*3 24.59 C 0 km/h
791 23-06-2005 00:00:00 25.40417 C 9.9 g/m*3 25.4 C 0 km/h
792 24-06-2005 00:00:00 27.67167 C 10.61 g/m*3 27.67 C 0 km/h
793 25-06-2005 00:00:00 24.93083 C 12.35 g/m*3 24.93 C 0 km/h
794 26-06-2005 00:00:00 23.99833 C 11.73 g/m*3 24 C 0 km/h
795 27-06-2005 00:00:00 25.26083 C 10.77 g/m*3 25.26 C 0 km/h
796 28-06-2005 00:00:00 26.35917 C 9.96 g/m*3 26.36 C 0 km/h
797 29-06-2005 00:00:00 23.065 C 12.98 g/m*3 23.07 C 0 km/h
798 30-06-2005 00:00:00 20.43667 C 12.48 g/m*3 20.44 C 0 km/h
799 01-07-2005 00:00:00 18.08083 C 11.11 g/m*3 18.08 C 0 km/h
800 02-07-2005 00:00:00 19.26807 C 12.28 g/m*3 19.27 C 0 km/h
Sensor: Nr:Datum:Temp:Abs-Feuchte:Windchill:Wind:
Aussen-T/F 801 03-07-2005 00:00:00 24.03333 C 13.19 g/m*3 24.03 C 0 km/h
802 04-07-2005 00:00:00 21.58833 C 11.39 g/m*3 21.59 C 0 km/h
803 05-07-2005 00:00:00 17.17083 C 7.23 g/m*3 17.17 C 0 km/h
804 06-07-2005 00:00:00 16.24167 C 9.2 g/m*3 16.24 C 0 km/h
805 07-07-2005 00:00:00 14.92 C 9.47 g/m*3 14.92 C 0 km/h
806 08-07-2005 00:00:00 16.17583 C 9.49 g/m*3 16.18 C 0 km/h
807 09-07-2005 00:00:00 19.5375 C 9.84 g/m*3 19.54 C 0 km/h
808 10-07-2005 00:00:00 22.93917 C 10.79 g/m*3 22.94 C 0 km/h
809 11-07-2005 00:00:00 23.77333 C 10.84 g/m*3 23.77 C 0 km/h
810 12-07-2005 00:00:00 23.70667 C 11.85 g/m*3 23.71 C 0 km/h
811 13-07-2005 00:00:00 25.555 C 11.6 g/m*3 25.56 C 0 km/h
812 14-07-2005 00:00:00 25.76723 C 12.39 g/m*3 25.77 C 0 km/h
813 15-07-2005 00:00:00 25.0575 C 11.9 g/m*3 25.06 C 0 km/h
814 16-07-2005 00:00:00 23.73917 C 11.46 g/m*3 23.74 C 0 km/h
815 17-07-2005 00:00:00 23.48167 C 9.48 g/m*3 23.48 C 0 km/h
816 18-07-2005 00:00:00 22.98917 C 10.39 g/m*3 22.99 C 0 km/h
817 19-07-2005 00:00:00 19.165 C 10.11 g/m*3 19.17 C 0 km/h
818 20-07-2005 00:00:00 17.92333 C 9 g/m*3 17.92 C 0 km/h
819 21-07-2005 00:00:00 16.6875 C 8.29 g/m*3 16.69 C 0 km/h
820 22-07-2005 00:00:00 17.13833 C 8.74 g/m*3 17.14 C 0 km/h
821 23-07-2005 00:00:00 17.69 C 7.64 g/m*3 17.69 C 0 km/h
822 24-07-2005 00:00:00 17.87167 C 11.25 g/m*3 17.87 C 0 km/h
823 25-07-2005 00:00:00 20.895 C 11.75 g/m*3 20.9 C 0 km/h
824 26-07-2005 00:00:00 20.33361 C 10.75 g/m*3 20.33 C 0 km/h
825 27-07-2005 00:00:00 23.76 C 13.16 g/m*3 23.76 C 0 km/h
Sensor: Nr:Datum:Temp:Abs-Feuchte:Windchill:Wind:
Aussen-T/F 826 28-07-2005 00:00:00 25.00583 C 14.67 g/m*3 25.01 C 0 km/h
827 29-07-2005 00:00:00 23.18917 C 13.92 g/m*3 23.19 C 0 km/h
828 30-07-2005 00:00:00 20.03083 C 11.38 g/m*3 20.03 C 0 km/h
829 31-07-2005 00:00:00 17.3425 C 10.74 g/m*3 17.34 C 0 km/h
830 01-08-2005 00:00:00 19.36167 C 10.99 g/m*3 19.36 C 0 km/h
831 02-08-2005 00:00:00 19.71 C 9.16 g/m*3 19.71 C 0 km/h
832 03-08-2005 00:00:00 18.86917 C 8.93 g/m*3 18.87 C 0 km/h
833 04-08-2005 00:00:00 17.4025 C 8.67 g/m*3 17.4 C 0 km/h
834 05-08-2005 00:00:00 16.13083 C 9.86 g/m*3 16.13 C 0 km/h
835 06-08-2005 00:00:00 16.02 C 9 g/m*3 16.02 C 0 km/h
836 07-08-2005 00:00:00 13.69412 C 8.11 g/m*3 13.69 C 0 km/h
837 08-08-2005 00:00:00 14.66667 C 8.88 g/m*3 14.67 C 0 km/h
838 09-08-2005 00:00:00 16.6775 C 8.55 g/m*3 16.68 C 0 km/h
839 10-08-2005 00:00:00 16.66083 C 7.5 g/m*3 16.66 C 0 km/h
840 11-08-2005 00:00:00 17.4125 C 9.48 g/m*3 17.41 C 0 km/h
841 12-08-2005 00:00:00 18.20917 C 11.32 g/m*3 18.21 C 0 km/h
842 13-08-2005 00:00:00 18.01833 C 8.84 g/m*3 18.02 C 0 km/h
843 14-08-2005 00:00:00 15.59833 C 10.51 g/m*3 15.6 C 0 km/h
844 15-08-2005 00:00:00 14.56583 C 11.02 g/m*3 14.57 C 0 km/h
845 16-08-2005 00:00:00 19.1575 C 11.13 g/m*3 19.16 C 0 km/h
846 17-08-2005 00:00:00 20.12333 C 10.72 g/m*3 20.12 C 0 km/h
847 18-08-2005 00:00:00 22.1825 C 11.42 g/m*3 22.18 C 0 km/h
848 19-08-2005 00:00:00 21.06975 C 12.52 g/m*3 21.07 C 0 km/h
849 20-08-2005 00:00:00 19.5825 C 10.72 g/m*3 19.58 C 0 km/h
850 21-08-2005 00:00:00 17.13083 C 11.35 g/m*3 17.13 C 0 km/h
Sensor: Nr:Datum:Temp:Abs-Feuchte:Windchill:Wind:
Aussen-T/F 851 22-08-2005 00:00:00 18.24 C 11.79 g/m*3 18.24 C 0 km/h
852 23-08-2005 00:00:00 19.4425 C 11.39 g/m*3 19.44 C 0 km/h
853 24-08-2005 00:00:00 18.79417 C 10.31 g/m*3 18.79 C 0 km/h
854 25-08-2005 00:00:00 16.47333 C 10.06 g/m*3 16.47 C 0 km/h
855 26-08-2005 00:00:00 15.255 C 8.61 g/m*3 15.26 C 0 km/h
856 27-08-2005 00:00:00 16.45083 C 9.03 g/m*3 16.45 C 0 km/h
857 28-08-2005 00:00:00 17.84083 C 9.36 g/m*3 17.84 C 0 km/h
858 29-08-2005 00:00:00 19.6675 C 10.08 g/m*3 19.67 C 0 km/h
859 30-08-2005 00:00:00 21.65667 C 10.92 g/m*3 21.66 C 0 km/h
860 31-08-2005 00:00:00 23.08403 C 11.54 g/m*3 23.08 C 0 km/h
861 01-09-2005 00:00:00 22.76917 C 12.16 g/m*3 22.77 C 0 km/h
862 02-09-2005 00:00:00 21.29917 C 11.95 g/m*3 21.3 C 0 km/h
863 03-09-2005 00:00:00 22.07899 C 11.2 g/m*3 22.08 C 0 km/h
864 04-09-2005 00:00:00 21.90417 C 10.62 g/m*3 21.9 C 0 km/h
865 05-09-2005 00:00:00 21.3675 C 9.49 g/m*3 21.37 C 0 km/h
866 06-09-2005 00:00:00 20.89417 C 10.71 g/m*3 20.89 C 0 km/h
867 07-09-2005 00:00:00 22.66167 C 11.44 g/m*3 22.66 C 0 km/h
868 08-09-2005 00:00:00 23.19833 C 12.14 g/m*3 23.2 C 0 km/h
869 09-09-2005 00:00:00 21.58833 C 12.69 g/m*3 21.59 C 0 km/h
870 10-09-2005 00:00:00 21.80833 C 12.68 g/m*3 21.81 C 0 km/h
871 11-09-2005 00:00:00 18.13 C 13.92 g/m*3 18.13 C 0 km/h
872 12-09-2005 00:00:00 16.6975 C 13.04 g/m*3 16.7 C 0 km/h
873 13-09-2005 00:00:00 17.45833 C 10.62 g/m*3 17.46 C 0 km/h
874 14-09-2005 00:00:00 16.755 C 10.01 g/m*3 16.76 C 0 km/h
875 15-09-2005 00:00:00 20.13361 C 11.35 g/m*3 20.13 C 0 km/h
Sensor: Nr:Datum:Temp:Abs-Feuchte:Windchill:Wind:
Aussen-T/F 876 16-09-2005 00:00:00 15.17311 C 9.68 g/m*3 15.17 C 0 km/h
877 17-09-2005 00:00:00 11.81667 C 6.67 g/m*3 11.82 C 0 km/h
878 18-09-2005 00:00:00 11.7875 C 6.82 g/m*3 11.79 C 0 km/h
879 19-09-2005 00:00:00 12.0719 C 6.68 g/m*3 12.07 C 0 km/h
880 20-09-2005 00:00:00 12.19583 C 7.15 g/m*3 12.2 C 0 km/h
881 21-09-2005 00:00:00 13.40667 C 7.66 g/m*3 13.41 C 0 km/h
882 22-09-2005 00:00:00 13.94833 C 8.1 g/m*3 13.95 C 0 km/h
883 23-09-2005 00:00:00 14.84667 C 8.74 g/m*3 14.85 C 0 km/h
884 24-09-2005 00:00:00 15.92583 C 9.59 g/m*3 15.93 C 0 km/h
885 25-09-2005 00:00:00 17.7325 C 10.47 g/m*3 17.73 C 0 km/h
886 26-09-2005 00:00:00 16.44083 C 9.46 g/m*3 16.44 C 0 km/h
887 27-09-2005 00:00:00 17.605 C 8.57 g/m*3 17.61 C 0 km/h
888 28-09-2005 00:00:00 15.42917 C 8.89 g/m*3 15.43 C 0 km/h
889 29-09-2005 00:00:00 12.91254 C 7.94 g/m*3 12.91 C 0 km/h
890 30-09-2005 00:00:00 12.29549 C 7.03 g/m*3 12.3 C 0 km/h
891 01-10-2005 00:00:00 12.61701 C 9.71 g/m*3 12.62 C 0 km/h
892 02-10-2005 00:00:00 10.70833 C 8.46 g/m*3 10.71 C 0 km/h
893 03-10-2005 00:00:00 11.3875 C 8.55 g/m*3 11.39 C 0 km/h
894 04-10-2005 00:00:00 14.26864 C 9.15 g/m*3 14.27 C 0 km/h
895 05-10-2005 00:00:00 16.7441 C 10.35 g/m*3 16.74 C 0 km/h
896 06-10-2005 00:00:00 16.68194 C 10.26 g/m*3 16.68 C 0 km/h
897 07-10-2005 00:00:00 14.36563 C 9.48 g/m*3 14.37 C 0 km/h
898 08-10-2005 00:00:00 13.06285 C 9.3 g/m*3 13.06 C 0 km/h
899 09-10-2005 00:00:00 14.51049 C 9.74 g/m*3 14.51 C 0 km/h
900 10-10-2005 00:00:00 15.84132 C 9.84 g/m*3 15.84 C 0 km/h
Sensor: Nr:Datum:Temp:Abs-Feuchte:Windchill:Wind:
Aussen-T/F 901 11-10-2005 00:00:00 13.49444 C 9.21 g/m*3 13.49 C 0 km/h
902 12-10-2005 00:00:00 13.54549 C 9.11 g/m*3 13.55 C 0 km/h
903 13-10-2005 00:00:00 12.36181 C 8.52 g/m*3 12.36 C 0 km/h
904 14-10-2005 00:00:00 11.9951 C 8.33 g/m*3 12 C 0 km/h
905 15-10-2005 00:00:00 11.45174 C 8.2 g/m*3 11.45 C 0 km/h
906 16-10-2005 00:00:00 10.83472 C 7.4 g/m*3 10.83 C 0 km/h
907 17-10-2005 00:00:00 8.28194 C 5.72 g/m*3 8.28 C 0 km/h
908 18-10-2005 00:00:00 8.65749 C 5.37 g/m*3 8.66 C 0 km/h
909 19-10-2005 00:00:00 7.00417 C 6.38 g/m*3 7 C 0 km/h
910 20-10-2005 00:00:00 11.25382 C 9.08 g/m*3 11.25 C 0 km/h
911 21-10-2005 00:00:00 14.43681 C 10.35 g/m*3 14.44 C 0 km/h
912 22-10-2005 00:00:00 15.54896 C 10.18 g/m*3 15.55 C 0 km/h
913 23-10-2005 00:00:00 14.24321 C 9.16 g/m*3 14.24 C 0 km/h
914 24-10-2005 00:00:00 12.10545 C 8.42 g/m*3 12.11 C 0 km/h
915 25-10-2005 00:00:00 15.69143 C 8.79 g/m*3 15.69 C 0 km/h
916 26-10-2005 00:00:00 16.07417 C 9.59 g/m*3 16.07 C 0 km/h
917 27-10-2005 00:00:00 14.98583 C 10.01 g/m*3 14.99 C 0 km/h
918 28-10-2005 00:00:00 16.07721 C 9.93 g/m*3 16.08 C 0 km/h
919 29-10-2005 00:00:00 13.94583 C 9.13 g/m*3 13.95 C 0 km/h
920 30-10-2005 00:00:00 12.71467 C 8.73 g/m*3 12.71 C 0 km/h
921 31-10-2005 00:00:00 13.11667 C 8.12 g/m*3 13.12 C 0 km/h
922 01-11-2005 00:00:00 12.41319 C 8.54 g/m*3 12.41 C 0 km/h
923 02-11-2005 00:00:00 10.43819 C 8.46 g/m*3 10.44 C 0 km/h
924 03-11-2005 00:00:00 14.78403 C 9.99 g/m*3 14.78 C 0 km/h
925 04-11-2005 00:00:00 13.39444 C 9.98 g/m*3 13.39 C 0 km/h
Sensor: Nr:Datum:Temp:Abs-Feuchte:Windchill:Wind:
Aussen-T/F 926 05-11-2005 00:00:00 8.99792 C 7.03 g/m*3 9 C 0 km/h
927 06-11-2005 00:00:00 9.96224 C 7.32 g/m*3 9.96 C 0 km/h
928 07-11-2005 00:00:00 8.03611 C 7.17 g/m*3 8.04 C 0 km/h
929 08-11-2005 00:00:00 10.35903 C 7.4 g/m*3 10.36 C 0 km/h
930 09-11-2005 00:00:00 7.83194 C 7.09 g/m*3 7.83 C 0 km/h
931 10-11-2005 00:00:00 9.97639 C 7.21 g/m*3 9.98 C 0 km/h
932 11-11-2005 00:00:00 9.26736 C 7.4 g/m*3 9.27 C 0 km/h
933 12-11-2005 00:00:00 7.83611 C 5.99 g/m*3 7.84 C 0 km/h
934 13-11-2005 00:00:00 9.98542 C 7.43 g/m*3 9.99 C 0 km/h
935 14-11-2005 00:00:00 7.76458 C 6.52 g/m*3 7.76 C 0 km/h
936 15-11-2005 00:00:00 6.09931 C 5.92 g/m*3 6.1 C 0 km/h
937 16-11-2005 00:00:00 5.71806 C 5.83 g/m*3 5.72 C 0 km/h
938 17-11-2005 00:00:00 4.69231 C 4.87 g/m*3 4.69 C 0 km/h
939 18-11-2005 00:00:00 3.75903 C 4.75 g/m*3 3.76 C 0 km/h
940 19-11-2005 00:00:00 1.67431 C 4.45 g/m*3 1.67 C 0 km/h
941 20-11-2005 00:00:00 1.75625 C 4.65 g/m*3 1.76 C 0 km/h
942 21-11-2005 00:00:00 4.09236 C 5.57 g/m*3 4.09 C 0 km/h
943 22-11-2005 00:00:00 -0.87778 C 3.96 g/m*3 -0.88 C 0 km/h
944 23-11-2005 00:00:00 0.84861 C 4.11 g/m*3 0.85 C 0 km/h
945 24-11-2005 00:00:00 2.37778 C 4.63 g/m*3 2.38 C 0 km/h
946 25-11-2005 00:00:00 1.54167 C 3.59 g/m*3 1.54 C 0 km/h
947 26-11-2005 00:00:00 2.46111 C 3.28 g/m*3 2.46 C 0 km/h
948 27-11-2005 00:00:00 2.30979 C 4.39 g/m*3 2.31 C 0 km/h
949 28-11-2005 00:00:00 1.92847 C 4.78 g/m*3 1.93 C 0 km/h
950 29-11-2005 00:00:00 2.30694 C 4.43 g/m*3 2.31 C 0 km/h
Sensor: Nr:Datum:Temp:Abs-Feuchte:Windchill:Wind:
Aussen-T/F 951 30-11-2005 00:00:00 2.00069 C 4.01 g/m*3 2 C 0 km/h
952 01-12-2005 00:00:00 0.41875 C 3.53 g/m*3 0.42 C 0 km/h
953 02-12-2005 00:00:00 0.22153 C 3.38 g/m*3 0.22 C 0 km/h
954 03-12-2005 00:00:00 3.82708 C 5.01 g/m*3 3.83 C 0 km/h
955 04-12-2005 00:00:00 7.05417 C 6.74 g/m*3 7.05 C 0 km/h
956 05-12-2005 00:00:00 6.35208 C 5.78 g/m*3 6.35 C 0 km/h
957 06-12-2005 00:00:00 4.99583 C 5.15 g/m*3 5 C 0 km/h
958 07-12-2005 00:00:00 4.93706 C 5.56 g/m*3 4.94 C 0 km/h
959 08-12-2005 00:00:00 4.74653 C 5.18 g/m*3 4.75 C 0 km/h
960 09-12-2005 00:00:00 3.66458 C 5.09 g/m*3 3.66 C 0 km/h
961 10-12-2005 00:00:00 -0.92292 C 3.78 g/m*3 -0.92 C 0 km/h
962 11-12-2005 00:00:00 -2.30069 C 3.46 g/m*3 -2.3 C 0 km/h
963 12-12-2005 00:00:00 1.72847 C 4.76 g/m*3 1.73 C 0 km/h
964 13-12-2005 00:00:00 1.28472 C 4.91 g/m*3 1.28 C 0 km/h
965 14-12-2005 00:00:00 3.84028 C 5.78 g/m*3 3.84 C 0 km/h
966 15-12-2005 00:00:00 5.59167 C 5.53 g/m*3 5.59 C 0 km/h
967 16-12-2005 00:00:00 6.09861 C 5.31 g/m*3 6.1 C 0 km/h
968 17-12-2005 00:00:00 1.45035 C 3.8 g/m*3 1.45 C 0 km/h
969 18-12-2005 00:00:00 1.59861 C 3.96 g/m*3 1.6 C 0 km/h
970 19-12-2005 00:00:00 1.45417 C 4.2 g/m*3 1.45 C 0 km/h
971 20-12-2005 00:00:00 2.75347 C 4.64 g/m*3 2.75 C 0 km/h
972 21-12-2005 00:00:00 2.23194 C 4.34 g/m*3 2.23 C 0 km/h
973 22-12-2005 00:00:00 2.96875 C 5.07 g/m*3 2.97 C 0 km/h
974 23-12-2005 00:00:00 4.89653 C 5.59 g/m*3 4.9 C 0 km/h
975 24-12-2005 00:00:00 5.93264 C 5.56 g/m*3 5.93 C 0 km/h
Sensor: Nr:Datum:Temp:Abs-Feuchte:Windchill:Wind:
Aussen-T/F 976 25-12-2005 00:00:00 4.13958 C 5.2 g/m*3 4.14 C 0 km/h
977 26-12-2005 00:00:00 1.48403 C 4.21 g/m*3 1.48 C 0 km/h
978 27-12-2005 00:00:00 -1.47413 C 3.38 g/m*3 -1.47 C 0 km/h
979 28-12-2005 00:00:00 -1.48681 C 3.38 g/m*3 -1.49 C 0 km/h
980 29-12-2005 00:00:00 -2.85486 C 2.99 g/m*3 -2.85 C 0 km/h
981 30-12-2005 00:00:00 -3.14514 C 2.78 g/m*3 -3.15 C 0 km/h
982 31-12-2005 00:00:00 2.82361 C 4.93 g/m*3 2.82 C 0 km/h
983 01-01-2006 00:00:00 3.86319 C 5.09 g/m*3 3.86 C 0 km/h
984 02-01-2006 00:00:00 3.13125 C 4.93 g/m*3 3.13 C 0 km/h
985 03-01-2006 00:00:00 2.31597 C 4.43 g/m*3 2.32 C 0 km/h
986 04-01-2006 00:00:00 0.29583 C 3.73 g/m*3 0.3 C 0 km/h
987 05-01-2006 00:00:00 1.24306 C 3.66 g/m*3 1.24 C 0 km/h
988 06-01-2006 00:00:00 -0.25035 C 4 g/m*3 -0.25 C 0 km/h
989 07-01-2006 00:00:00 2.66181 C 4.44 g/m*3 2.66 C 0 km/h
990 08-01-2006 00:00:00 2.09653 C 3.9 g/m*3 2.1 C 0 km/h
991 09-01-2006 00:00:00 -2.41736 C 3.27 g/m*3 -2.42 C 0 km/h
992 10-01-2006 00:00:00 -1.51736 C 3.25 g/m*3 -1.52 C 0 km/h
993 11-01-2006 00:00:00 -1.95903 C 3.55 g/m*3 -1.96 C 0 km/h
994 12-01-2006 00:00:00 1.79583 C 5.01 g/m*3 1.8 C 0 km/h
995 13-01-2006 00:00:00 0.35972 C 3.83 g/m*3 0.36 C 0 km/h
996 14-01-2006 00:00:00 -3.27639 C 3.12 g/m*3 -3.28 C 0 km/h
997 15-01-2006 00:00:00 -4.27153 C 2.57 g/m*3 -4.27 C 0 km/h
998 16-01-2006 00:00:00 -4.78951 C 2.59 g/m*3 -4.79 C 0 km/h
999 17-01-2006 00:00:00 1.90278 C 4.54 g/m*3 1.9 C 0 km/h
1000 18-01-2006 00:00:00 3.8125 C 5.08 g/m*3 3.81 C 0 km/h
Sensor: Nr:Datum:Temp:Abs-Feuchte:Windchill:Wind:
Aussen-T/F 1001 19-01-2006 00:00:00 1.43403 C 4.72 g/m*3 1.43 C 0 km/h
1002 20-01-2006 00:00:00 6.2375 C 6 g/m*3 6.24 C 0 km/h
1003 21-01-2006 00:00:00 4.58889 C 5.24 g/m*3 4.59 C 0 km/h
1004 22-01-2006 00:00:00 1.08125 C 3.94 g/m*3 1.08 C 0 km/h
1005 23-01-2006 00:00:00 -5.20417 C 1.94 g/m*3 -5.2 C 0 km/h
1006 24-01-2006 00:00:00 -5.83542 C 1.92 g/m*3 -5.84 C 0 km/h
1007 25-01-2006 00:00:00 -3.80833 C 2.61 g/m*3 -3.81 C 0 km/h
1008 26-01-2006 00:00:00 -2.11818 C 3.16 g/m*3 -2.12 C 0 km/h
1009 27-01-2006 00:00:00 -5.44236 C 2.23 g/m*3 -5.44 C 0 km/h
1010 28-01-2006 00:00:00 -6.67986 C 2.22 g/m*3 -6.68 C 0 km/h
1011 29-01-2006 00:00:00 -6.29792 C 2.35 g/m*3 -6.3 C 0 km/h
1012 30-01-2006 00:00:00 -5.95139 C 2.43 g/m*3 -5.95 C 0 km/h
1013 31-01-2006 00:00:00 -3.30486 C 3.12 g/m*3 -3.3 C 0 km/h
1014 01-02-2006 00:00:00 -5.48333 C 2.52 g/m*3 -5.48 C 0 km/h
1015 02-02-2006 00:00:00 -6.16667 C 2.42 g/m*3 -6.17 C 0 km/h
1016 03-02-2006 00:00:00 -3.79931 C 2.72 g/m*3 -3.8 C 0 km/h
1017 04-02-2006 00:00:00 -0.85208 C 3.61 g/m*3 -0.85 C 0 km/h
1018 05-02-2006 00:00:00 -0.32867 C 3.81 g/m*3 -0.33 C 0 km/h
1019 06-02-2006 00:00:00 1.50903 C 4.7 g/m*3 1.51 C 0 km/h
1020 07-02-2006 00:00:00 3.74861 C 4.89 g/m*3 3.75 C 0 km/h
1021 08-02-2006 00:00:00 3.70208 C 4.95 g/m*3 3.7 C 0 km/h
1022 09-02-2006 00:00:00 2.29722 C 4.03 g/m*3 2.3 C 0 km/h
1023 10-02-2006 00:00:00 2.10979 C 4.24 g/m*3 2.11 C 0 km/h
1024 11-02-2006 00:00:00 1.21458 C 4.02 g/m*3 1.21 C 0 km/h
1025 12-02-2006 00:00:00 1.60694 C 3.21 g/m*3 1.61 C 0 km/h
Sensor: Nr:Datum:Temp:Abs-Feuchte:Windchill:Wind:
Aussen-T/F 1026 13-02-2006 00:00:00 2.60764 C 2.97 g/m*3 2.61 C 0 km/h
1027 14-02-2006 00:00:00 4.21597 C 4.26 g/m*3 4.22 C 0 km/h
1028 15-02-2006 00:00:00 6.17832 C 5.78 g/m*3 6.18 C 0 km/h
1029 16-02-2006 00:00:00 7.31736 C 6.23 g/m*3 7.32 C 0 km/h
1030 17-02-2006 00:00:00 6.0625 C 5.09 g/m*3 6.06 C 0 km/h
1031 18-02-2006 00:00:00 5.81389 C 5.1 g/m*3 5.81 C 0 km/h
1032 19-02-2006 00:00:00 7.08472 C 4.96 g/m*3 7.08 C 0 km/h
1033 20-02-2006 00:00:00 4.17917 C 5.28 g/m*3 4.18 C 0 km/h
1034 21-02-2006 00:00:00 3.04444 C 5.09 g/m*3 3.04 C 0 km/h
1035 22-02-2006 00:00:00 2.47639 C 3.64 g/m*3 2.48 C 0 km/h
1036 23-02-2006 00:00:00 1.36736 C 2.72 g/m*3 1.37 C 0 km/h
1037 24-02-2006 00:00:00 2.05972 C 2.88 g/m*3 2.06 C 0 km/h
1038 25-02-2006 00:00:00 0.46364 C 2.5 g/m*3 0.46 C 0 km/h
1039 26-02-2006 00:00:00 -1.08472 C 2.46 g/m*3 -1.08 C 0 km/h
1040 27-02-2006 00:00:00 -1.57569 C 3.19 g/m*3 -1.58 C 0 km/h
1041 28-02-2006 00:00:00 1.56806 C 4.03 g/m*3 1.57 C 0 km/h
1042 01-03-2006 00:00:00 0.10556 C 3.05 g/m*3 0.11 C 0 km/h
1043 02-03-2006 00:00:00 -0.25347 C 2.76 g/m*3 -0.25 C 0 km/h
1044 03-03-2006 00:00:00 -0.44722 C 3.59 g/m*3 -0.45 C 0 km/h
1045 04-03-2006 00:00:00 -0.87361 C 3.51 g/m*3 -0.87 C 0 km/h
1046 05-03-2006 00:00:00 -1.41944 C 3.13 g/m*3 -1.42 C 0 km/h
1047 06-03-2006 00:00:00 1.2125 C 3.34 g/m*3 1.21 C 0 km/h
1048 07-03-2006 00:00:00 2.11748 C 3.25 g/m*3 2.12 C 0 km/h
1049 08-03-2006 00:00:00 0.99722 C 3.99 g/m*3 1 C 0 km/h
1050 09-03-2006 00:00:00 8.02431 C 6.63 g/m*3 8.02 C 0 km/h
Sensor: Nr:Datum:Temp:Abs-Feuchte:Windchill:Wind:
Aussen-T/F 1051 10-03-2006 00:00:00 5.79931 C 4.67 g/m*3 5.8 C 0 km/h
1052 11-03-2006 00:00:00 1.7 C 4.29 g/m*3 1.7 C 0 km/h
1053 12-03-2006 00:00:00 -2.45556 C 1.99 g/m*3 -2.46 C 0 km/h
1054 13-03-2006 00:00:00 -1.82553 C 2.07 g/m*3 -1.83 C 0 km/h
1055 14-03-2006 00:00:00 -0.25972 C 2.33 g/m*3 -0.26 C 0 km/h
1056 15-03-2006 00:00:00 1.33333 C 2.81 g/m*3 1.33 C 0 km/h
1057 16-03-2006 00:00:00 2.07292 C 2.65 g/m*3 2.07 C 0 km/h
1058 17-03-2006 00:00:00 2.75175 C 3.25 g/m*3 2.75 C 0 km/h
1059 18-03-2006 00:00:00 3.75069 C 3.43 g/m*3 3.75 C 0 km/h
1060 19-03-2006 00:00:00 4.88056 C 3.93 g/m*3 4.88 C 0 km/h
1061 20-03-2006 00:00:00 4.13542 C 4.32 g/m*3 4.14 C 0 km/h
1062 21-03-2006 00:00:00 3.42222 C 5.01 g/m*3 3.42 C 0 km/h
1063 22-03-2006 00:00:00 4.52708 C 3.53 g/m*3 4.53 C 0 km/h
1064 23-03-2006 00:00:00 4.85694 C 2.84 g/m*3 4.86 C 0 km/h
1065 24-03-2006 00:00:00 5.28125 C 5.03 g/m*3 5.28 C 0 km/h
1066 25-03-2006 00:00:00 12.04861 C 7.85 g/m*3 12.05 C 0 km/h
1067 26-03-2006 00:00:00 15.02826 C 9.07 g/m*3 15.03 C 0 km/h
1068 27-03-2006 00:00:00 14.96319 C 8.44 g/m*3 14.96 C 0 km/h
1069 28-03-2006 00:00:00 11.67273 C 6.09 g/m*3 11.67 C 0 km/h
1070 29-03-2006 00:00:00 9.22222 C 5.78 g/m*3 9.22 C 0 km/h
1071 30-03-2006 00:00:00 11.31181 C 7.59 g/m*3 11.31 C 0 km/h
1072 31-03-2006 00:00:00 12.225 C 7.78 g/m*3 12.23 C 0 km/h
1073 01-04-2006 00:00:00 10.95 C 7.33 g/m*3 10.95 C 0 km/h
1074 02-04-2006 00:00:00 10.30347 C 6.71 g/m*3 10.3 C 0 km/h
1075 03-04-2006 00:00:00 9.04444 C 5.27 g/m*3 9.04 C 0 km/h
Sensor: Nr:Datum:Temp:Abs-Feuchte:Windchill:Wind:
Aussen-T/F 1076 04-04-2006 00:00:00 7.89306 C 4.31 g/m*3 7.89 C 0 km/h
1077 05-04-2006 00:00:00 5.38542 C 3.69 g/m*3 5.39 C 0 km/h
1078 06-04-2006 00:00:00 5.62847 C 3.78 g/m*3 5.63 C 0 km/h
1079 07-04-2006 00:00:00 7.78112 C 3.69 g/m*3 7.78 C 0 km/h
1080 08-04-2006 00:00:00 8.88681 C 3.81 g/m*3 8.89 C 0 km/h
1081 09-04-2006 00:00:00 9.54931 C 4.04 g/m*3 9.55 C 0 km/h
1082 10-04-2006 00:00:00 7.99444 C 3.73 g/m*3 7.99 C 0 km/h
1083 11-04-2006 00:00:00 6.56528 C 3.66 g/m*3 6.57 C 0 km/h
1084 12-04-2006 00:00:00 7.39167 C 5.46 g/m*3 7.39 C 0 km/h
1085 13-04-2006 00:00:00 7.97014 C 5.79 g/m*3 7.97 C 0 km/h
1086 14-04-2006 00:00:00 11.28681 C 7.12 g/m*3 11.29 C 0 km/h
1087 15-04-2006 00:00:00 12.20486 C 7.42 g/m*3 12.2 C 0 km/h
1088 16-04-2006 00:00:00 12.37986 C 7.33 g/m*3 12.38 C 0 km/h
1089 17-04-2006 00:00:00 11.4 C 7.54 g/m*3 11.4 C 0 km/h
1090 18-04-2006 00:00:00 10.37986 C 6.23 g/m*3 10.38 C 0 km/h
1091 19-04-2006 00:00:00 11.18264 C 5.43 g/m*3 11.18 C 0 km/h
1092 20-04-2006 00:00:00 12.16528 C 5.8 g/m*3 12.17 C 0 km/h
1093 21-04-2006 00:00:00 14.47622 C 6.36 g/m*3 14.48 C 0 km/h
1094 22-04-2006 00:00:00 13.62014 C 7.04 g/m*3 13.62 C 0 km/h
1095 23-04-2006 00:00:00 10.87639 C 6.01 g/m*3 10.88 C 0 km/h
1096 24-04-2006 00:00:00 15.40833 C 6.53 g/m*3 15.41 C 0 km/h
1097 25-04-2006 00:00:00 17.60972 C 7.26 g/m*3 17.61 C 0 km/h
1098 26-04-2006 00:00:00 15.22778 C 10.04 g/m*3 15.23 C 0 km/h
1099 27-04-2006 00:00:00 12.53611 C 8.58 g/m*3 12.54 C 0 km/h
1100 28-04-2006 00:00:00 10.85 C 5.75 g/m*3 10.85 C 0 km/h
Sensor: Nr:Datum:Temp:Abs-Feuchte:Windchill:Wind:
Aussen-T/F 1101 29-04-2006 00:00:00 7.53194 C 4.57 g/m*3 7.53 C 0 km/h
1102 30-04-2006 00:00:00 6.51389 C 5.5 g/m*3 6.51 C 0 km/h
1103 01-05-2006 00:00:00 8.32727 C 6.64 g/m*3 8.33 C 0 km/h
1104 02-05-2006 00:00:00 15.08819 C 7.52 g/m*3 15.09 C 0 km/h
1105 03-05-2006 00:00:00 18.44931 C 8.16 g/m*3 18.45 C 0 km/h
1106 04-05-2006 00:00:00 19.40278 C 8.14 g/m*3 19.4 C 0 km/h
1107 05-05-2006 00:00:00 20.21389 C 7.05 g/m*3 20.21 C 0 km/h
1108 06-05-2006 00:00:00 18.90069 C 6.51 g/m*3 18.9 C 0 km/h
1109 07-05-2006 00:00:00 19.45486 C 5.48 g/m*3 19.45 C 0 km/h
1110 08-05-2006 00:00:00 18.61667 C 6.18 g/m*3 18.62 C 0 km/h
1111 09-05-2006 00:00:00 18.27431 C 6.73 g/m*3 18.27 C 0 km/h
1112 10-05-2006 00:00:00 18.83194 C 8.46 g/m*3 18.83 C 0 km/h
1113 11-05-2006 00:00:00 19.10629 C 6.83 g/m*3 19.11 C 0 km/h
1114 12-05-2006 00:00:00 18.74583 C 6.68 g/m*3 18.75 C 0 km/h
1115 13-05-2006 00:00:00 16.36944 C 9.54 g/m*3 16.37 C 0 km/h
1116 14-05-2006 00:00:00 15.00278 C 8.64 g/m*3 15 C 0 km/h
1117 15-05-2006 00:00:00 16.62986 C 8.78 g/m*3 16.63 C 0 km/h
1118 16-05-2006 00:00:00 19.50347 C 9.69 g/m*3 19.5 C 0 km/h
1119 17-05-2006 00:00:00 17.91736 C 9.73 g/m*3 17.92 C 0 km/h
1120 18-05-2006 00:00:00 18.00347 C 10.26 g/m*3 18 C 0 km/h
1121 19-05-2006 00:00:00 14.40347 C 8.4 g/m*3 14.4 C 0 km/h
1122 20-05-2006 00:00:00 12.56853 C 7.83 g/m*3 12.57 C 0 km/h
1123 21-05-2006 00:00:00 15.07431 C 7.61 g/m*3 15.07 C 0 km/h
1124 22-05-2006 00:00:00 15.73472 C 8.94 g/m*3 15.73 C 0 km/h
1125 23-05-2006 00:00:00 12.35556 C 6.68 g/m*3 12.36 C 0 km/h
Sensor: Nr:Datum:Temp:Abs-Feuchte:Windchill:Wind:
Aussen-T/F 1126 24-05-2006 00:00:00 10.91667 C 6.68 g/m*3 10.92 C 0 km/h
1127 25-05-2006 00:00:00 11.81736 C 8.3 g/m*3 11.82 C 0 km/h
1128 26-05-2006 00:00:00 13.58681 C 10.19 g/m*3 13.59 C 0 km/h
1129 27-05-2006 00:00:00 16.75972 C 10.96 g/m*3 16.76 C 0 km/h
1130 28-05-2006 00:00:00 16.35 C 8.5 g/m*3 16.35 C 0 km/h
1131 29-05-2006 00:00:00 12.47431 C 7.16 g/m*3 12.47 C 0 km/h
1132 30-05-2006 00:00:00 9.24792 C 6.53 g/m*3 9.25 C 0 km/h
1133 31-05-2006 00:00:00 9.13776 C 6.51 g/m*3 9.14 C 0 km/h
1134 01-06-2006 00:00:00 9.43819 C 6.58 g/m*3 9.44 C 0 km/h
1135 02-06-2006 00:00:00 13.68056 C 6.85 g/m*3 13.68 C 0 km/h
1136 03-06-2006 00:00:00 13.95278 C 7.53 g/m*3 13.95 C 0 km/h
1137 04-06-2006 00:00:00 14.34514 C 6.93 g/m*3 14.35 C 0 km/h
1138 05-06-2006 00:00:00 14.45764 C 6.07 g/m*3 14.46 C 0 km/h
1139 06-06-2006 00:00:00 14.33472 C 6.42 g/m*3 14.33 C 0 km/h
1140 07-06-2006 00:00:00 16.37431 C 7.03 g/m*3 16.37 C 0 km/h
1141 08-06-2006 00:00:00 19.21736 C 7.78 g/m*3 19.22 C 0 km/h
1142 09-06-2006 00:00:00 21.24306 C 8.18 g/m*3 21.24 C 0 km/h
1143 10-06-2006 00:00:00 22.62098 C 8.87 g/m*3 22.62 C 0 km/h
1144 11-06-2006 00:00:00 23.39653 C 8.75 g/m*3 23.4 C 0 km/h
1145 12-06-2006 00:00:00 23.62431 C 8.32 g/m*3 23.62 C 0 km/h
1146 13-06-2006 00:00:00 25.05625 C 9.6 g/m*3 25.06 C 0 km/h
1147 14-06-2006 00:00:00 25.71667 C 10.84 g/m*3 25.72 C 0 km/h
1148 15-06-2006 00:00:00 22.39653 C 13.02 g/m*3 22.4 C 0 km/h
1149 16-06-2006 00:00:00 19.19792 C 9.2 g/m*3 19.2 C 0 km/h
1150 17-06-2006 00:00:00 19.55139 C 8.62 g/m*3 19.55 C 0 km/h
Sensor: Nr:Datum:Temp:Abs-Feuchte:Windchill:Wind:
Aussen-T/F 1151 18-06-2006 00:00:00 22.94931 C 11.05 g/m*3 22.95 C 0 km/h
1152 19-06-2006 00:00:00 22.18819 C 13.64 g/m*3 22.19 C 0 km/h
1153 20-06-2006 00:00:00 22.95524 C 12.6 g/m*3 22.96 C 0 km/h
1154 21-06-2006 00:00:00 22.61597 C 10.2 g/m*3 22.62 C 0 km/h
1155 22-06-2006 00:00:00 18.87222 C 7.76 g/m*3 18.87 C 0 km/h
1156 23-06-2006 00:00:00 18.88681 C 7.57 g/m*3 18.89 C 0 km/h
1157 24-06-2006 00:00:00 22.39792 C 8.91 g/m*3 22.4 C 0 km/h
1158 25-06-2006 00:00:00 23.4375 C 12.58 g/m*3 23.44 C 0 km/h
1159 26-06-2006 00:00:00 21.99097 C 12.21 g/m*3 21.99 C 0 km/h
1160 27-06-2006 00:00:00 19.64028 C 11.66 g/m*3 19.64 C 0 km/h
1161 28-06-2006 00:00:00 21.16111 C 10.45 g/m*3 21.16 C 0 km/h
1162 29-06-2006 00:00:00 21.06319 C 11.36 g/m*3 21.06 C 0 km/h
1163 30-06-2006 00:00:00 23.44545 C 11.46 g/m*3 23.45 C 0 km/h
1164 01-07-2006 00:00:00 24.6875 C 10.22 g/m*3 24.69 C 0 km/h
1165 02-07-2006 00:00:00 25.27986 C 9.46 g/m*3 25.28 C 0 km/h
1166 03-07-2006 00:00:00 25.22083 C 8.68 g/m*3 25.22 C 0 km/h
1167 04-07-2006 00:00:00 26.70278 C 10.21 g/m*3 26.7 C 0 km/h
1168 05-07-2006 00:00:00 26.28681 C 12.37 g/m*3 26.29 C 0 km/h
1169 06-07-2006 00:00:00 24.85278 C 12.2 g/m*3 24.85 C 0 km/h
1170 07-07-2006 00:00:00 22.81528 C 12.32 g/m*3 22.82 C 0 km/h
1171 08-07-2006 00:00:00 22.68958 C 13.01 g/m*3 22.69 C 0 km/h
1172 09-07-2006 00:00:00 23.57778 C 11.52 g/m*3 23.58 C 0 km/h
1173 10-07-2006 00:00:00 25.03147 C 10.68 g/m*3 25.03 C 0 km/h
1174 11-07-2006 00:00:00 23.91181 C 13.08 g/m*3 23.91 C 0 km/h
1175 12-07-2006 00:00:00 25.55625 C 13.47 g/m*3 25.56 C 0 km/h
Sensor: Nr:Datum:Temp:Abs-Feuchte:Windchill:Wind:
Aussen-T/F 1176 13-07-2006 00:00:00 26.02986 C 13.12 g/m*3 26.03 C 0 km/h
1177 14-07-2006 00:00:00 24.71389 C 8.97 g/m*3 24.71 C 0 km/h
1178 15-07-2006 00:00:00 23.42431 C 7.65 g/m*3 23.42 C 0 km/h
1179 16-07-2006 00:00:00 24.37639 C 8.1 g/m*3 24.38 C 0 km/h
1180 17-07-2006 00:00:00 25.54792 C 7.82 g/m*3 25.55 C 0 km/h
1181 18-07-2006 00:00:00 26.24722 C 8.99 g/m*3 26.25 C 0 km/h
1182 19-07-2006 00:00:00 27.43125 C 9.1 g/m*3 27.43 C 0 km/h
1183 20-07-2006 00:00:00 28.02797 C 9.35 g/m*3 28.03 C 0 km/h
1184 21-07-2006 00:00:00 28.09306 C 11.49 g/m*3 28.09 C 0 km/h
1185 22-07-2006 00:00:00 24.58125 C 12.7 g/m*3 24.58 C 0 km/h
1186 23-07-2006 00:00:00 26.09375 C 13.17 g/m*3 26.09 C 0 km/h
1187 24-07-2006 00:00:00 27.19236 C 11.15 g/m*3 27.19 C 0 km/h
1188 25-07-2006 00:00:00 28.08194 C 10.78 g/m*3 28.08 C 0 km/h
1189 26-07-2006 00:00:00 28.25208 C 11.87 g/m*3 28.25 C 0 km/h
1190 27-07-2006 00:00:00 25.83403 C 14.1 g/m*3 25.83 C 0 km/h
1191 28-07-2006 00:00:00 22.68264 C 14.34 g/m*3 22.68 C 0 km/h
1192 29-07-2006 00:00:00 24.07431 C 13.52 g/m*3 24.07 C 0 km/h
1193 30-07-2006 00:00:00 24.48392 C 12.14 g/m*3 24.48 C 0 km/h
1194 31-07-2006 00:00:00 23.2375 C 10.23 g/m*3 23.24 C 0 km/h
1195 01-08-2006 00:00:00 20.05625 C 10.27 g/m*3 20.06 C 0 km/h
1196 02-08-2006 00:00:00 16.51667 C 9.93 g/m*3 16.52 C 0 km/h
1197 03-08-2006 00:00:00 15.56111 C 9.83 g/m*3 15.56 C 0 km/h
1198 04-08-2006 00:00:00 19.03056 C 10.44 g/m*3 19.03 C 0 km/h
1199 05-08-2006 00:00:00 20.59514 C 10.71 g/m*3 20.6 C 0 km/h
1200 06-08-2006 00:00:00 21.40694 C 10.86 g/m*3 21.41 C 0 km/h
Sensor: Nr:Datum:Temp:Abs-Feuchte:Windchill:Wind:
Aussen-T/F 1201 07-08-2006 00:00:00 21.93056 C 10.07 g/m*3 21.93 C 0 km/h
1202 08-08-2006 00:00:00 19.79583 C 9.89 g/m*3 19.8 C 0 km/h
1203 09-08-2006 00:00:00 19.08322 C 9.32 g/m*3 19.08 C 0 km/h
1204 10-08-2006 00:00:00 15.04792 C 9.68 g/m*3 15.05 C 0 km/h
1205 11-08-2006 00:00:00 14.23611 C 9.74 g/m*3 14.24 C 0 km/h
1206 12-08-2006 00:00:00 15.08958 C 8.69 g/m*3 15.09 C 0 km/h
1207 13-08-2006 00:00:00 14.64514 C 9.18 g/m*3 14.65 C 0 km/h
1208 14-08-2006 00:00:00 14.16319 C 9.66 g/m*3 14.16 C 0 km/h
1209 15-08-2006 00:00:00 17.63333 C 10.27 g/m*3 17.63 C 0 km/h
1210 16-08-2006 00:00:00 17.65 C 10.87 g/m*3 17.65 C 0 km/h
1211 17-08-2006 00:00:00 20.9 C 11.79 g/m*3 20.9 C 0 km/h
1212 18-08-2006 00:00:00 19.10208 C 11.74 g/m*3 19.1 C 0 km/h
1213 19-08-2006 00:00:00 18.77343 C 11.44 g/m*3 18.77 C 0 km/h
1214 20-08-2006 00:00:00 18.10972 C 10.83 g/m*3 18.11 C 0 km/h
1215 21-08-2006 00:00:00 16.97292 C 10.27 g/m*3 16.97 C 0 km/h
1216 22-08-2006 00:00:00 16.96389 C 10.28 g/m*3 16.96 C 0 km/h
1217 23-08-2006 00:00:00 17.71319 C 10.25 g/m*3 17.71 C 0 km/h
1218 24-08-2006 00:00:00 16.95139 C 10.55 g/m*3 16.95 C 0 km/h
1219 25-08-2006 00:00:00 16.57778 C 11 g/m*3 16.58 C 0 km/h
1220 26-08-2006 00:00:00 16.86528 C 10.55 g/m*3 16.87 C 0 km/h
1221 27-08-2006 00:00:00 15.83681 C 10.94 g/m*3 15.84 C 0 km/h
1222 28-08-2006 00:00:00 13.83264 C 9.97 g/m*3 13.83 C 0 km/h
1223 29-08-2006 00:00:00 12.56713 C 8.65 g/m*3 12.57 C 0 km/h
1224 30-08-2006 00:00:00 13.16111 C 9.07 g/m*3 13.16 C 0 km/h
1225 31-08-2006 00:00:00 15.10417 C 8.8 g/m*3 15.1 C 0 km/h
Sensor: Nr:Datum:Temp:Abs-Feuchte:Windchill:Wind:
Aussen-T/F 1226 01-09-2006 00:00:00 20.10139 C 9.87 g/m*3 20.1 C 0 km/h
1227 02-09-2006 00:00:00 20.75 C 11 g/m*3 20.75 C 0 km/h
1228 03-09-2006 00:00:00 21.75069 C 12.12 g/m*3 21.75 C 0 km/h
1229 04-09-2006 00:00:00 22.06389 C 10.38 g/m*3 22.06 C 0 km/h
1230 05-09-2006 00:00:00 19.96458 C 11.3 g/m*3 19.96 C 0 km/h
1231 06-09-2006 00:00:00 21.68819 C 12.31 g/m*3 21.69 C 0 km/h
1232 07-09-2006 00:00:00 19.05694 C 11.44 g/m*3 19.06 C 0 km/h
1233 08-09-2006 00:00:00 16.55874 C 8.04 g/m*3 16.56 C 0 km/h
1234 09-09-2006 00:00:00 16.56458 C 8.18 g/m*3 16.56 C 0 km/h
1235 10-09-2006 00:00:00 18.675 C 9.16 g/m*3 18.68 C 0 km/h
1236 11-09-2006 00:00:00 20.64722 C 11.18 g/m*3 20.65 C 0 km/h
1237 12-09-2006 00:00:00 22.28889 C 12.16 g/m*3 22.29 C 0 km/h
1238 13-09-2006 00:00:00 22.18819 C 11.95 g/m*3 22.19 C 0 km/h
1239 14-09-2006 00:00:00 21.21806 C 11.23 g/m*3 21.22 C 0 km/h
1240 15-09-2006 00:00:00 21.27273 C 10.28 g/m*3 21.27 C 0 km/h
1241 16-09-2006 00:00:00 21.06759 C 11.67 g/m*3 21.07 C 0 km/h
1242 17-09-2006 00:00:00 18.62986 C 12.65 g/m*3 18.63 C 0 km/h
1243 18-09-2006 00:00:00 17.15903 C 12.29 g/m*3 17.16 C 0 km/h
1244 19-09-2006 00:00:00 16.75278 C 10.65 g/m*3 16.75 C 0 km/h
1245 20-09-2006 00:00:00 16.65139 C 9.61 g/m*3 16.65 C 0 km/h
1246 21-09-2006 00:00:00 18.26806 C 10.43 g/m*3 18.27 C 0 km/h
1247 22-09-2006 00:00:00 20.87413 C 10.57 g/m*3 20.87 C 0 km/h
1248 23-09-2006 00:00:00 20.17361 C 11.42 g/m*3 20.17 C 0 km/h
1249 24-09-2006 00:00:00 21.00903 C 11.38 g/m*3 21.01 C 0 km/h
1250 25-09-2006 00:00:00 18.50486 C 11.18 g/m*3 18.5 C 0 km/h
Sensor: Nr:Datum:Temp:Abs-Feuchte:Windchill:Wind:
Aussen-T/F 1251 26-09-2006 00:00:00 17.03056 C 11.32 g/m*3 17.03 C 0 km/h
1252 27-09-2006 00:00:00 17.04444 C 10.2 g/m*3 17.04 C 0 km/h
1253 28-09-2006 00:00:00 16.01042 C 9.81 g/m*3 16.01 C 0 km/h
1254 29-09-2006 00:00:00 17.325 C 10.7 g/m*3 17.33 C 0 km/h
1255 30-09-2006 00:00:00 17.09583 C 10.68 g/m*3 17.1 C 0 km/h
1256 01-10-2006 00:00:00 17.24406 C 11.46 g/m*3 17.24 C 0 km/h
1257 02-10-2006 00:00:00 15.91042 C 9.59 g/m*3 15.91 C 0 km/h
1258 03-10-2006 00:00:00 13.2126 C 10.47 g/m*3 13.21 C 0 km/h
1259 04-10-2006 00:00:00 13.01961 C 8.62 g/m*3 13.02 C 0 km/h
1260 05-10-2006 00:00:00 12.97647 C 7.92 g/m*3 12.98 C 0 km/h
1261 06-10-2006 00:00:00 15.82353 C 9.57 g/m*3 15.82 C 0 km/h
1262 07-10-2006 00:00:00 14.25769 C 8.26 g/m*3 14.26 C 0 km/h
1263 08-10-2006 00:00:00 11.08235 C 7.49 g/m*3 11.08 C 0 km/h
1264 09-10-2006 00:00:00 12.00192 C 8.16 g/m*3 12 C 0 km/h
1265 10-10-2006 00:00:00 15.38824 C 9.83 g/m*3 15.39 C 0 km/h
1266 11-10-2006 00:00:00 14.37885 C 9.66 g/m*3 14.38 C 0 km/h
1267 12-10-2006 00:00:00 15.54118 C 10.53 g/m*3 15.54 C 0 km/h
1268 13-10-2006 00:00:00 16.11765 C 11.21 g/m*3 16.12 C 0 km/h
1269 14-10-2006 00:00:00 14.12115 C 9.1 g/m*3 14.12 C 0 km/h
1270 15-10-2006 00:00:00 12.41569 C 8.17 g/m*3 12.42 C 0 km/h
1271 16-10-2006 00:00:00 9.56154 C 7.1 g/m*3 9.56 C 0 km/h
1272 17-10-2006 00:00:00 9.22745 C 7.11 g/m*3 9.23 C 0 km/h
1273 18-10-2006 00:00:00 11.90769 C 8.05 g/m*3 11.91 C 0 km/h
1274 19-10-2006 00:00:00 13.41961 C 9.54 g/m*3 13.42 C 0 km/h
1275 20-10-2006 00:00:00 15.83725 C 9.91 g/m*3 15.84 C 0 km/h
Sensor: Nr:Datum:Temp:Abs-Feuchte:Windchill:Wind:
Aussen-T/F 1276 21-10-2006 00:00:00 14.08553 C 10.16 g/m*3 14.09 C 0 km/h
1277 22-10-2006 00:00:00 15.405 C 9.54 g/m*3 15.41 C 0 km/h
1278 23-10-2006 00:00:00 17.22 C 11.01 g/m*3 17.22 C 0 km/h
1279 24-10-2006 00:00:00 14.19167 C 9.57 g/m*3 14.19 C 0 km/h
1280 25-10-2006 00:00:00 12.59167 C 8.45 g/m*3 12.59 C 0 km/h
1281 26-10-2006 00:00:00 16.50583 C 9.43 g/m*3 16.51 C 0 km/h
1282 27-10-2006 00:00:00 17.075 C 10.44 g/m*3 17.08 C 0 km/h
1283 28-10-2006 00:00:00 15.02083 C 10.11 g/m*3 15.02 C 0 km/h
1284 29-10-2006 00:00:00 15.9896 C 8.79 g/m*3 15.99 C 0 km/h
1285 30-10-2006 00:00:00 12.1575 C 7.78 g/m*3 12.16 C 0 km/h
1286 31-10-2006 00:00:00 10.23529 C 7.15 g/m*3 10.24 C 0 km/h
1287 01-11-2006 00:00:00 7.77167 C 4.9 g/m*3 7.77 C 0 km/h
1288 02-11-2006 00:00:00 3.03 C 5.06 g/m*3 3.03 C 0 km/h
1289 03-11-2006 00:00:00 5.84333 C 5.93 g/m*3 5.84 C 0 km/h
1290 04-11-2006 00:00:00 8.15833 C 6.41 g/m*3 8.16 C 0 km/h
1291 05-11-2006 00:00:00 9.14833 C 6.17 g/m*3 9.15 C 0 km/h
1292 06-11-2006 00:00:00 9.06833 C 6.39 g/m*3 9.07 C 0 km/h
1293 07-11-2006 00:00:00 7.04083 C 6.11 g/m*3 7.04 C 0 km/h
1294 08-11-2006 00:00:00 7.96417 C 6.49 g/m*3 7.96 C 0 km/h
1295 09-11-2006 00:00:00 9.81917 C 6.62 g/m*3 9.82 C 0 km/h
1296 10-11-2006 00:00:00 5.04917 C 5.59 g/m*3 5.05 C 0 km/h
1297 11-11-2006 00:00:00 6.26667 C 6.03 g/m*3 6.27 C 0 km/h
1298 12-11-2006 00:00:00 7.62353 C 5.75 g/m*3 7.62 C 0 km/h
1299 13-11-2006 00:00:00 8.9025 C 7.09 g/m*3 8.9 C 0 km/h
1300 14-11-2006 00:00:00 12.84083 C 9.06 g/m*3 12.84 C 0 km/h
Sensor: Nr:Datum:Temp:Abs-Feuchte:Windchill:Wind:
Aussen-T/F 1301 15-11-2006 00:00:00 12.90167 C 8.11 g/m*3 12.9 C 0 km/h
1302 16-11-2006 00:00:00 13.12 C 7.88 g/m*3 13.12 C 0 km/h
1303 17-11-2006 00:00:00 12.54333 C 8.13 g/m*3 12.54 C 0 km/h
1304 18-11-2006 00:00:00 9.73917 C 6.92 g/m*3 9.74 C 0 km/h
1305 19-11-2006 00:00:00 7.74083 C 7.39 g/m*3 7.74 C 0 km/h
1306 20-11-2006 00:00:00 6.5725 C 5.52 g/m*3 6.57 C 0 km/h
1307 21-11-2006 00:00:00 8.63583 C 6.49 g/m*3 8.64 C 0 km/h
1308 22-11-2006 00:00:00 6.01833 C 5.31 g/m*3 6.02 C 0 km/h
1309 23-11-2006 00:00:00 9.36083 C 7.72 g/m*3 9.36 C 0 km/h
1310 24-11-2006 00:00:00 10.1775 C 8.17 g/m*3 10.18 C 0 km/h
1311 25-11-2006 00:00:00 14.79583 C 7.59 g/m*3 14.8 C 0 km/h
1312 26-11-2006 00:00:00 10.72917 C 7.46 g/m*3 10.73 C 0 km/h
1313 27-11-2006 00:00:00 8.08083 C 7.39 g/m*3 8.08 C 0 km/h
1314 28-11-2006 00:00:00 7.2775 C 6.92 g/m*3 7.28 C 0 km/h
1315 29-11-2006 00:00:00 7.40583 C 7.46 g/m*3 7.41 C 0 km/h
1316 30-11-2006 00:00:00 6.29167 C 6.41 g/m*3 6.29 C 0 km/h
1317 01-12-2006 00:00:00 5.935 C 6.4 g/m*3 5.94 C 0 km/h
1318 02-12-2006 00:00:00 4.37083 C 6.16 g/m*3 4.37 C 0 km/h
1319 03-12-2006 00:00:00 10.00583 C 6.96 g/m*3 10.01 C 0 km/h
1320 04-12-2006 00:00:00 10.05042 C 6.32 g/m*3 10.05 C 0 km/h
1321 05-12-2006 00:00:00 14.25917 C 7.5 g/m*3 14.26 C 0 km/h
1322 06-12-2006 00:00:00 10.42667 C 6.11 g/m*3 10.43 C 0 km/h
1323 07-12-2006 00:00:00 8.7025 C 5.3 g/m*3 8.7 C 0 km/h
1324 08-12-2006 00:00:00 10.0975 C 6.14 g/m*3 10.1 C 0 km/h
1325 09-12-2006 00:00:00 7.6075 C 4.91 g/m*3 7.61 C 0 km/h
Sensor: Nr:Datum:Temp:Abs-Feuchte:Windchill:Wind:
Aussen-T/F 1326 10-12-2006 00:00:00 5.27833 C 4.83 g/m*3 5.28 C 0 km/h
1327 11-12-2006 00:00:00 5.05583 C 4.74 g/m*3 5.06 C 0 km/h
1328 12-12-2006 00:00:00 6.37333 C 5.29 g/m*3 6.37 C 0 km/h
1329 13-12-2006 00:00:00 6.9775 C 5.44 g/m*3 6.98 C 0 km/h
1330 14-12-2006 00:00:00 7.83083 C 5.4 g/m*3 7.83 C 0 km/h
1331 15-12-2006 00:00:00 3.2075 C 4.68 g/m*3 3.21 C 0 km/h
1332 16-12-2006 00:00:00 4.14333 C 5.23 g/m*3 4.14 C 0 km/h
1333 17-12-2006 00:00:00 3.69333 C 5.01 g/m*3 3.69 C 0 km/h
1334 18-12-2006 00:00:00 3.37917 C 5.38 g/m*3 3.38 C 0 km/h
1335 19-12-2006 00:00:00 3.70083 C 4.15 g/m*3 3.7 C 0 km/h
1336 20-12-2006 00:00:00 2.3425 C 4.1 g/m*3 2.34 C 0 km/h
1337 21-12-2006 00:00:00 4.7375 C 5.27 g/m*3 4.74 C 0 km/h
1338 22-12-2006 00:00:00 1.65 C 4.63 g/m*3 1.65 C 0 km/h
1339 23-12-2006 00:00:00 3.19244 C 4.47 g/m*3 3.19 C 0 km/h
1340 24-12-2006 00:00:00 0.1725 C 4.3 g/m*3 0.17 C 0 km/h
1341 25-12-2006 00:00:00 0.51583 C 4.15 g/m*3 0.52 C 0 km/h
1342 26-12-2006 00:00:00 0.8425 C 3.93 g/m*3 0.84 C 0 km/h
1343 27-12-2006 00:00:00 -1.28667 C 3.48 g/m*3 -1.29 C 0 km/h
1344 28-12-2006 00:00:00 0.405 C 3.88 g/m*3 0.41 C 0 km/h
1345 29-12-2006 00:00:00 1.22333 C 4.59 g/m*3 1.22 C 0 km/h
1346 30-12-2006 00:00:00 3.5575 C 5.12 g/m*3 3.56 C 0 km/h
1347 31-12-2006 00:00:00 10.37107 C 5.17 g/m*3 10.37 C 0 km/h
1348 01-01-2007 00:00:00 7.99664 C 5.44 g/m*3 8 C 0 km/h
1349 02-01-2007 00:00:00 4.33083 C 4.79 g/m*3 4.33 C 0 km/h
1350 03-01-2007 00:00:00 5.63417 C 5.28 g/m*3 5.63 C 0 km/h
Sensor: Nr:Datum:Temp:Abs-Feuchte:Windchill:Wind:
Aussen-T/F 1351 04-01-2007 00:00:00 7.7525 C 5.33 g/m*3 7.75 C 0 km/h
1352 05-01-2007 00:00:00 8.08667 C 5.69 g/m*3 8.09 C 0 km/h
1353 06-01-2007 00:00:00 10.50333 C 7.18 g/m*3 10.5 C 0 km/h
1354 07-01-2007 00:00:00 8.5725 C 5.21 g/m*3 8.57 C 0 km/h
1355 08-01-2007 00:00:00 9.32667 C 5.75 g/m*3 9.33 C 0 km/h
1356 09-01-2007 00:00:00 13.04333 C 7.07 g/m*3 13.04 C 0 km/h
1357 10-01-2007 00:00:00 11.54333 C 5.64 g/m*3 11.54 C 0 km/h
1358 11-01-2007 00:00:00 7.61933 C 4.64 g/m*3 7.62 C 0 km/h
1359 12-01-2007 00:00:00 9.0325 C 4.92 g/m*3 9.03 C 0 km/h
1360 13-01-2007 00:00:00 11.8175 C 6.14 g/m*3 11.82 C 0 km/h
1361 14-01-2007 00:00:00 7.55833 C 4.65 g/m*3 7.56 C 0 km/h
1362 15-01-2007 00:00:00 0.8725 C 4.34 g/m*3 0.87 C 0 km/h
1363 16-01-2007 00:00:00 5.06583 C 4.9 g/m*3 5.07 C 0 km/h
1364 17-01-2007 00:00:00 10.18333 C 6.05 g/m*3 10.18 C 0 km/h
1365 18-01-2007 00:00:00 12.41833 C 7.26 g/m*3 12.42 C 0 km/h
1366 19-01-2007 00:00:00 10.36667 C 6.21 g/m*3 10.37 C 0 km/h
1367 20-01-2007 00:00:00 11.68917 C 6.43 g/m*3 11.69 C 0 km/h
1368 21-01-2007 00:00:00 6.88167 C 3.9 g/m*3 6.88 C 0 km/h
1369 22-01-2007 00:00:00 4.26167 C 3.78 g/m*3 4.26 C 0 km/h
1370 23-01-2007 00:00:00 -1.075 C 1.21 g/m*3 -1.08 C 0 km/h
1371 24-01-2007 00:00:00 -2.97 C 1.85 g/m*3 -2.97 C 0 km/h
1372 25-01-2007 00:00:00 -3.4825 C 2.25 g/m*3 -3.48 C 0 km/h
1373 26-01-2007 00:00:00 -3.23083 C 2.24 g/m*3 -3.23 C 0 km/h
1374 27-01-2007 00:00:00 2.77 C 3.92 g/m*3 2.77 C 0 km/h
1375 28-01-2007 00:00:00 4.49917 C 4.21 g/m*3 4.5 C 0 km/h
Sensor: Nr:Datum:Temp:Abs-Feuchte:Windchill:Wind:
Aussen-T/F 1376 29-01-2007 00:00:00 7.0175 C 5.25 g/m*3 7.02 C 0 km/h
1377 30-01-2007 00:00:00 6.84917 C 5.2 g/m*3 6.85 C 0 km/h
1378 31-01-2007 00:00:00 6.82583 C 4.18 g/m*3 6.83 C 0 km/h
1379 01-02-2007 00:00:00 7.76667 C 5.68 g/m*3 7.77 C 0 km/h
1380 02-02-2007 00:00:00 8.26583 C 6.84 g/m*3 8.27 C 0 km/h
1381 03-02-2007 00:00:00 6.285 C 4.67 g/m*3 6.29 C 0 km/h
1382 04-02-2007 00:00:00 5.90667 C 4.74 g/m*3 5.91 C 0 km/h
1383 05-02-2007 00:00:00 2.19664 C 4.27 g/m*3 2.2 C 0 km/h
1384 06-02-2007 00:00:00 3.33417 C 4.06 g/m*3 3.33 C 0 km/h
1385 07-02-2007 00:00:00 1.63417 C 4.12 g/m*3 1.63 C 0 km/h
1386 08-02-2007 00:00:00 2.62167 C 4.23 g/m*3 2.62 C 0 km/h
1387 09-02-2007 00:00:00 5.79167 C 3.84 g/m*3 5.79 C 0 km/h
1388 10-02-2007 00:00:00 5.48667 C 5.34 g/m*3 5.49 C 0 km/h
1389 11-02-2007 00:00:00 7.70667 C 5.71 g/m*3 7.71 C 0 km/h
1390 12-02-2007 00:00:00 8.33083 C 5.62 g/m*3 8.33 C 0 km/h
1391 13-02-2007 00:00:00 7.8175 C 4.79 g/m*3 7.82 C 0 km/h
1392 14-02-2007 00:00:00 5.82083 C 5.14 g/m*3 5.82 C 0 km/h
1393 15-02-2007 00:00:00 7.37917 C 4.4 g/m*3 7.38 C 0 km/h
1394 16-02-2007 00:00:00 4.61583 C 4.23 g/m*3 4.62 C 0 km/h
1395 17-02-2007 00:00:00 4.92083 C 3.9 g/m*3 4.92 C 0 km/h
1396 18-02-2007 00:00:00 3.4775 C 4.32 g/m*3 3.48 C 0 km/h
1397 19-02-2007 00:00:00 5.4675 C 4.34 g/m*3 5.47 C 0 km/h
1398 20-02-2007 00:00:00 7.09583 C 4.63 g/m*3 7.1 C 0 km/h
1399 21-02-2007 00:00:00 5.63083 C 4.98 g/m*3 5.63 C 0 km/h
1400 22-02-2007 00:00:00 7.10583 C 5.19 g/m*3 7.11 C 0 km/h
Sensor: Nr:Datum:Temp:Abs-Feuchte:Windchill:Wind:
Aussen-T/F 1401 23-02-2007 00:00:00 9.02333 C 5.53 g/m*3 9.02 C 0 km/h
1402 24-02-2007 00:00:00 8.47917 C 6.6 g/m*3 8.48 C 0 km/h
1403 25-02-2007 00:00:00 7.975 C 5.55 g/m*3 7.98 C 0 km/h
1404 26-02-2007 00:00:00 6.53667 C 5.43 g/m*3 6.54 C 0 km/h
1405 27-02-2007 00:00:00 6.38333 C 4.96 g/m*3 6.38 C 0 km/h
1406 28-02-2007 00:00:00 10.44667 C 5.35 g/m*3 10.45 C 0 km/h
1407 01-03-2007 00:00:00 9.04667 C 5.11 g/m*3 9.05 C 0 km/h
1408 02-03-2007 00:00:00 6.77917 C 3.71 g/m*3 6.78 C 0 km/h
1409 03-03-2007 00:00:00 6.66639 C 4.88 g/m*3 6.67 C 0 km/h
1410 04-03-2007 00:00:00 7.69833 C 4.83 g/m*3 7.7 C 0 km/h
1411 05-03-2007 00:00:00 10.24667 C 4.19 g/m*3 10.25 C 0 km/h
1412 06-03-2007 00:00:00 9.76083 C 4.14 g/m*3 9.76 C 0 km/h
1413 07-03-2007 00:00:00 9.16417 C 4.96 g/m*3 9.16 C 0 km/h
1414 08-03-2007 00:00:00 7.035 C 4.54 g/m*3 7.04 C 0 km/h
1415 09-03-2007 00:00:00 6.3175 C 4.84 g/m*3 6.32 C 0 km/h
1416 10-03-2007 00:00:00 7.155 C 4.37 g/m*3 7.16 C 0 km/h
1417 11-03-2007 00:00:00 7.3175 C 4.45 g/m*3 7.32 C 0 km/h
1418 12-03-2007 00:00:00 8.52833 C 4.75 g/m*3 8.53 C 0 km/h
1419 13-03-2007 00:00:00 9.0475 C 5.4 g/m*3 9.05 C 0 km/h
1420 14-03-2007 00:00:00 10.57395 C 5.78 g/m*3 10.57 C 0 km/h
1421 15-03-2007 00:00:00 8.44333 C 5.18 g/m*3 8.44 C 0 km/h
1422 16-03-2007 00:00:00 7.8175 C 5.18 g/m*3 7.82 C 0 km/h
1423 17-03-2007 00:00:00 8.70833 C 6.38 g/m*3 8.71 C 0 km/h
1424 18-03-2007 00:00:00 7.715 C 5.51 g/m*3 7.72 C 0 km/h
1425 19-03-2007 00:00:00 4.56333 C 4 g/m*3 4.56 C 0 km/h
Sensor: Nr:Datum:Temp:Abs-Feuchte:Windchill:Wind:
Aussen-T/F 1426 20-03-2007 00:00:00 4.1325 C 4.47 g/m*3 4.13 C 0 km/h
1427 21-03-2007 00:00:00 4.47417 C 4.53 g/m*3 4.47 C 0 km/h
1428 22-03-2007 00:00:00 2.25667 C 5.17 g/m*3 2.26 C 0 km/h
1429 23-03-2007 00:00:00 3.37333 C 5.31 g/m*3 3.37 C 0 km/h
1430 24-03-2007 00:00:00 5.37333 C 6.27 g/m*3 5.37 C 0 km/h
1431 25-03-2007 00:00:00 8.58101 C 5.72 g/m*3 8.58 C 0 km/h
1432 26-03-2007 00:00:00 14.9957 C 4.93 g/m*3 15 C 0 km/h
1433 27-03-2007 00:00:00 11.65 C 4.69 g/m*3 11.65 C 0 km/h
1434 28-03-2007 00:00:00 11.65313 C 4.21 g/m*3 11.65 C 0 km/h
1435 29-03-2007 00:00:00 9.75 C 5.52 g/m*3 9.75 C 0 km/h
1436 30-03-2007 00:00:00 10.73785 C 6.65 g/m*3 10.74 C 0 km/h
1437 31-03-2007 00:00:00 10.49618 C 6.1 g/m*3 10.5 C 0 km/h
1438 01-04-2007 00:00:00 13.71707 C 4.51 g/m*3 13.72 C 0 km/h
1439 02-04-2007 00:00:00 13.59583 C 4.59 g/m*3 13.6 C 0 km/h
1440 03-04-2007 00:00:00 8.94861 C 4.81 g/m*3 8.95 C 0 km/h
1441 04-04-2007 00:00:00 9.66076 C 3.85 g/m*3 9.66 C 0 km/h
1442 05-04-2007 00:00:00 8.81528 C 4.24 g/m*3 8.82 C 0 km/h
1443 06-04-2007 00:00:00 12.12431 C 6.2 g/m*3 12.12 C 0 km/h
1444 07-04-2007 00:00:00 9.61533 C 5.4 g/m*3 9.62 C 0 km/h
1445 08-04-2007 00:00:00 9.79306 C 5.37 g/m*3 9.79 C 0 km/h
1446 09-04-2007 00:00:00 11.52465 C 5.47 g/m*3 11.52 C 0 km/h
1447 10-04-2007 00:00:00 11.94688 C 6.26 g/m*3 11.95 C 0 km/h
1448 11-04-2007 00:00:00 10.93697 C 6.87 g/m*3 10.94 C 0 km/h
1449 12-04-2007 00:00:00 16.75 C 7.24 g/m*3 16.75 C 0 km/h
1450 13-04-2007 00:00:00 19.17708 C 8 g/m*3 19.18 C 0 km/h
Sensor: Nr:Datum:Temp:Abs-Feuchte:Windchill:Wind:
Aussen-T/F 1451 14-04-2007 00:00:00 21.16042 C 7.77 g/m*3 21.16 C 0 km/h
1452 15-04-2007 00:00:00 20.80833 C 7.27 g/m*3 20.81 C 0 km/h
1453 16-04-2007 00:00:00 19.4375 C 6.62 g/m*3 19.44 C 0 km/h
1454 17-04-2007 00:00:00 14.74271 C 6.57 g/m*3 14.74 C 0 km/h
1455 18-04-2007 00:00:00 11.07188 C 4.76 g/m*3 11.07 C 0 km/h
1456 19-04-2007 00:00:00 11.67188 C 5.25 g/m*3 11.67 C 0 km/h
1457 20-04-2007 00:00:00 12.26458 C 4.91 g/m*3 12.26 C 0 km/h
1458 21-04-2007 00:00:00 11.89271 C 4.5 g/m*3 11.89 C 0 km/h
1459 22-04-2007 00:00:00 15.65729 C 5.54 g/m*3 15.66 C 0 km/h
1460 23-04-2007 00:00:00 17.48021 C 6.48 g/m*3 17.48 C 0 km/h
1461 24-04-2007 00:00:00 20.85102 C 8.12 g/m*3 20.85 C 0 km/h
1462 25-04-2007 00:00:00 22.135 C 8.68 g/m*3 22.14 C 0 km/h
1463 26-04-2007 00:00:00 21.16 C 7.81 g/m*3 21.16 C 0 km/h
1464 27-04-2007 00:00:00 20.46303 C 7.42 g/m*3 20.46 C 0 km/h
1465 28-04-2007 00:00:00 20.92083 C 7.71 g/m*3 20.92 C 0 km/h
1466 29-04-2007 00:00:00 19.75583 C 7.1 g/m*3 19.76 C 0 km/h
1467 30-04-2007 00:00:00 16.78917 C 4.21 g/m*3 16.79 C 0 km/h
1468 01-05-2007 00:00:00 16.47083 C 4.66 g/m*3 16.47 C 0 km/h
1469 02-05-2007 00:00:00 16.09167 C 3.81 g/m*3 16.09 C 0 km/h
1470 03-05-2007 00:00:00 17.355 C 5.15 g/m*3 17.36 C 0 km/h
1471 04-05-2007 00:00:00 18.835 C 5.97 g/m*3 18.84 C 0 km/h
1472 05-05-2007 00:00:00 17.5975 C 6.18 g/m*3 17.6 C 0 km/h
1473 06-05-2007 00:00:00 16.51167 C 7.41 g/m*3 16.51 C 0 km/h
1474 07-05-2007 00:00:00 15.5625 C 8.64 g/m*3 15.56 C 0 km/h
1475 08-05-2007 00:00:00 14.1825 C 7.73 g/m*3 14.18 C 0 km/h
Sensor: Nr:Datum:Temp:Abs-Feuchte:Windchill:Wind:
Aussen-T/F 1476 09-05-2007 00:00:00 12.76917 C 8.87 g/m*3 12.77 C 0 km/h
1477 10-05-2007 00:00:00 17.70667 C 8.53 g/m*3 17.71 C 0 km/h
1478 11-05-2007 00:00:00 15.535 C 6.56 g/m*3 15.54 C 0 km/h
1479 12-05-2007 00:00:00 15.02689 C 7.96 g/m*3 15.03 C 0 km/h
1480 13-05-2007 00:00:00 17.04333 C 8.98 g/m*3 17.04 C 0 km/h
1481 14-05-2007 00:00:00 15.98917 C 7.81 g/m*3 15.99 C 0 km/h
1482 15-05-2007 00:00:00 13.36917 C 7.46 g/m*3 13.37 C 0 km/h
1483 16-05-2007 00:00:00 12.17917 C 7.6 g/m*3 12.18 C 0 km/h
1484 17-05-2007 00:00:00 10.8525 C 7.97 g/m*3 10.85 C 0 km/h
1485 18-05-2007 00:00:00 14.6325 C 8.23 g/m*3 14.63 C 0 km/h
1486 19-05-2007 00:00:00 18.53583 C 10.39 g/m*3 18.54 C 0 km/h
1487 20-05-2007 00:00:00 21.92667 C 9.73 g/m*3 21.93 C 0 km/h
1488 21-05-2007 00:00:00 22.61667 C 11.44 g/m*3 22.62 C 0 km/h
1489 22-05-2007 00:00:00 22.86667 C 11.78 g/m*3 22.87 C 0 km/h
1490 23-05-2007 00:00:00 20.8675 C 11.32 g/m*3 20.87 C 0 km/h
1491 24-05-2007 00:00:00 23.91417 C 11.42 g/m*3 23.91 C 0 km/h
1492 25-05-2007 00:00:00 24.57059 C 11.78 g/m*3 24.57 C 0 km/h
1493 26-05-2007 00:00:00 21.745 C 12.71 g/m*3 21.75 C 0 km/h
1494 27-05-2007 00:00:00 17.5125 C 9.85 g/m*3 17.51 C 0 km/h
1495 28-05-2007 00:00:00 12.24917 C 8.51 g/m*3 12.25 C 0 km/h
1496 29-05-2007 00:00:00 11.033 C 7.93 g/m*3 11.03 C 0 km/h
1497 30-05-2007 00:00:00 13.67465 C 6.29 g/m*3 13.67 C 0 km/h
1498 31-05-2007 00:00:00 16.05139 C 8.28 g/m*3 16.05 C 0 km/h
1499 01-06-2007 00:00:00 15.42361 C 9.57 g/m*3 15.42 C 0 km/h
1500 02-06-2007 00:00:00 18.53611 C 9.82 g/m*3 18.54 C 0 km/h
Sensor: Nr:Datum:Temp:Abs-Feuchte:Windchill:Wind:
Aussen-T/F 1501 03-06-2007 00:00:00 20.87083 C 10.1 g/m*3 20.87 C 0 km/h
1502 04-06-2007 00:00:00 22.02361 C 10.59 g/m*3 22.02 C 0 km/h
1503 05-06-2007 00:00:00 21.66389 C 10.23 g/m*3 21.66 C 0 km/h
1504 06-06-2007 00:00:00 22.53889 C 10.59 g/m*3 22.54 C 0 km/h
1505 07-06-2007 00:00:00 25.42222 C 11.36 g/m*3 25.42 C 0 km/h
1506 08-06-2007 00:00:00 26.47639 C 11.42 g/m*3 26.48 C 0 km/h
1507 09-06-2007 00:00:00 23.12917 C 12.28 g/m*3 23.13 C 0 km/h
1508 10-06-2007 00:00:00 21.28889 C 12.55 g/m*3 21.29 C 0 km/h
1509 11-06-2007 00:00:00 21.88068 C 11.9 g/m*3 21.88 C 0 km/h
1510 12-06-2007 00:00:00 20.17167 C 11.8 g/m*3 20.17 C 0 km/h
1511 13-06-2007 00:00:00 21.51176 C 10.38 g/m*3 21.51 C 0 km/h
1512 14-06-2007 00:00:00 22.15833 C 12.13 g/m*3 22.16 C 0 km/h
1513 15-06-2007 00:00:00 19.84667 C 11.6 g/m*3 19.85 C 0 km/h
1514 16-06-2007 00:00:00 18.0125 C 9.3 g/m*3 18.01 C 0 km/h
1515 17-06-2007 00:00:00 20.0125 C 9.63 g/m*3 20.01 C 0 km/h
1516 18-06-2007 00:00:00 20.92583 C 11.23 g/m*3 20.93 C 0 km/h
1517 19-06-2007 00:00:00 23.70833 C 11.18 g/m*3 23.71 C 0 km/h
1518 20-06-2007 00:00:00 23.68667 C 12.04 g/m*3 23.69 C 0 km/h
1519 21-06-2007 00:00:00 18.30167 C 12.42 g/m*3 18.3 C 0 km/h
1520 22-06-2007 00:00:00 16.06417 C 10.95 g/m*3 16.06 C 0 km/h
1521 23-06-2007 00:00:00 16.04167 C 10.56 g/m*3 16.04 C 0 km/h
1522 24-06-2007 00:00:00 19.31667 C 10.02 g/m*3 19.32 C 0 km/h
1523 25-06-2007 00:00:00 18.13667 C 10.86 g/m*3 18.14 C 0 km/h
1524 26-06-2007 00:00:00 13.90667 C 8.35 g/m*3 13.91 C 0 km/h
1525 27-06-2007 00:00:00 14.2225 C 6.63 g/m*3 14.22 C 0 km/h
Sensor: Nr:Datum:Temp:Abs-Feuchte:Windchill:Wind:
Aussen-T/F 1526 28-06-2007 00:00:00 15.82833 C 7.44 g/m*3 15.83 C 0 km/h
1527 29-06-2007 00:00:00 16.88417 C 8.32 g/m*3 16.88 C 0 km/h
1528 30-06-2007 00:00:00 18.675 C 9.69 g/m*3 18.68 C 0 km/h
1529 01-07-2007 00:00:00 20.8525 C 10.65 g/m*3 20.85 C 0 km/h
1530 02-07-2007 00:00:00 19.54917 C 10.43 g/m*3 19.55 C 0 km/h
1531 03-07-2007 00:00:00 15.42583 C 9.84 g/m*3 15.43 C 0 km/h
1532 04-07-2007 00:00:00 15.17417 C 8.93 g/m*3 15.17 C 0 km/h
1533 05-07-2007 00:00:00 15.1325 C 9.55 g/m*3 15.13 C 0 km/h
1534 06-07-2007 00:00:00 17.63613 C 8.26 g/m*3 17.64 C 0 km/h
1535 07-07-2007 00:00:00 18.55167 C 7.14 g/m*3 18.55 C 0 km/h
1536 08-07-2007 00:00:00 19.8175 C 8.32 g/m*3 19.82 C 0 km/h
1537 09-07-2007 00:00:00 17.15583 C 9.38 g/m*3 17.16 C 0 km/h
1538 10-07-2007 00:00:00 14.66583 C 9.37 g/m*3 14.67 C 0 km/h
1539 11-07-2007 00:00:00 14.37833 C 9.44 g/m*3 14.38 C 0 km/h
1540 12-07-2007 00:00:00 17.7 C 9.66 g/m*3 17.7 C 0 km/h
1541 13-07-2007 00:00:00 22.43167 C 11.88 g/m*3 22.43 C 0 km/h
1542 14-07-2007 00:00:00 25.05 C 11.69 g/m*3 25.05 C 0 km/h
1543 15-07-2007 00:00:00 27.2075 C 11.44 g/m*3 27.21 C 0 km/h
1544 16-07-2007 00:00:00 26.8025 C 8.93 g/m*3 26.8 C 0 km/h
1545 17-07-2007 00:00:00 25.11167 C 8.56 g/m*3 25.11 C 0 km/h
1546 18-07-2007 00:00:00 22.78 C 9.2 g/m*3 22.78 C 0 km/h
1547 19-07-2007 00:00:00 20.29333 C 11.02 g/m*3 20.29 C 0 km/h
1548 20-07-2007 00:00:00 22.04917 C 12.14 g/m*3 22.05 C 0 km/h
1549 21-07-2007 00:00:00 19.74917 C 9.69 g/m*3 19.75 C 0 km/h
1550 22-07-2007 00:00:00 19.89917 C 8.33 g/m*3 19.9 C 0 km/h
Sensor: Nr:Datum:Temp:Abs-Feuchte:Windchill:Wind:
Aussen-T/F 1551 23-07-2007 00:00:00 16.33333 C 10.14 g/m*3 16.33 C 0 km/h
1552 24-07-2007 00:00:00 16.72667 C 9.48 g/m*3 16.73 C 0 km/h
1553 25-07-2007 00:00:00 19.68571 C 8.82 g/m*3 19.69 C 0 km/h
1554 26-07-2007 00:00:00 21.75583 C 9.38 g/m*3 21.76 C 0 km/h
1555 27-07-2007 00:00:00 22.4675 C 8.25 g/m*3 22.47 C 0 km/h
1556 28-07-2007 00:00:00 21.095 C 10.2 g/m*3 21.1 C 0 km/h
1557 29-07-2007 00:00:00 17.3075 C 9.52 g/m*3 17.31 C 0 km/h
1558 30-07-2007 00:00:00 14.66167 C 6.94 g/m*3 14.66 C 0 km/h
1559 31-07-2007 00:00:00 15.68167 C 6.71 g/m*3 15.68 C 0 km/h
1560 01-08-2007 00:00:00 18.53833 C 7.48 g/m*3 18.54 C 0 km/h
1561 02-08-2007 00:00:00 18.3275 C 9.54 g/m*3 18.33 C 0 km/h
1562 03-08-2007 00:00:00 19.78083 C 8.92 g/m*3 19.78 C 0 km/h
1563 04-08-2007 00:00:00 21.05 C 8.85 g/m*3 21.05 C 0 km/h
1564 05-08-2007 00:00:00 23.69833 C 9.12 g/m*3 23.7 C 0 km/h
1565 06-08-2007 00:00:00 24.23417 C 9.32 g/m*3 24.23 C 0 km/h
1566 07-08-2007 00:00:00 18.36167 C 12.63 g/m*3 18.36 C 0 km/h
1567 08-08-2007 00:00:00 16.0175 C 11.01 g/m*3 16.02 C 0 km/h
1568 09-08-2007 00:00:00 14.26667 C 11.55 g/m*3 14.27 C 0 km/h
1569 10-08-2007 00:00:00 17.82833 C 13.5 g/m*3 17.83 C 0 km/h
1570 11-08-2007 00:00:00 19.64083 C 11.07 g/m*3 19.64 C 0 km/h
1571 12-08-2007 00:00:00 20.07417 C 10.09 g/m*3 20.07 C 0 km/h
1572 13-08-2007 00:00:00 20.9175 C 10.13 g/m*3 20.92 C 0 km/h
1573 14-08-2007 00:00:00 20.9275 C 9.64 g/m*3 20.93 C 0 km/h
1574 15-08-2007 00:00:00 23.49917 C 12.92 g/m*3 23.5 C 0 km/h
1575 16-08-2007 00:00:00 18.74667 C 10.51 g/m*3 18.75 C 0 km/h
Sensor: Nr:Datum:Temp:Abs-Feuchte:Windchill:Wind:
Aussen-T/F 1576 17-08-2007 00:00:00 17.27833 C 8.08 g/m*3 17.28 C 0 km/h
1577 18-08-2007 00:00:00 17.40917 C 8.03 g/m*3 17.41 C 0 km/h
1578 19-08-2007 00:00:00 17.24583 C 9.91 g/m*3 17.25 C 0 km/h
1579 20-08-2007 00:00:00 17.315 C 9.7 g/m*3 17.32 C 0 km/h
1580 21-08-2007 00:00:00 15.4225 C 10.31 g/m*3 15.42 C 0 km/h
1581 22-08-2007 00:00:00 15.95593 C 11.84 g/m*3 15.96 C 0 km/h
1582 23-08-2007 00:00:00 17.7575 C 11.98 g/m*3 17.76 C 0 km/h
1583 24-08-2007 00:00:00 19.43833 C 11.56 g/m*3 19.44 C 0 km/h
1584 25-08-2007 00:00:00 21.42 C 11.91 g/m*3 21.42 C 0 km/h
1585 26-08-2007 00:00:00 21.99167 C 12.1 g/m*3 21.99 C 0 km/h
1586 27-08-2007 00:00:00 19.53583 C 8.84 g/m*3 19.54 C 0 km/h
1587 28-08-2007 00:00:00 16.42167 C 8.1 g/m*3 16.42 C 0 km/h
1588 29-08-2007 00:00:00 17.285 C 6.71 g/m*3 17.29 C 0 km/h
1589 30-08-2007 00:00:00 15.3675 C 7.01 g/m*3 15.37 C 0 km/h
1590 31-08-2007 00:00:00 17.5825 C 9.89 g/m*3 17.58 C 0 km/h
1591 01-09-2007 00:00:00 17.1975 C 10.01 g/m*3 17.2 C 0 km/h
1592 02-09-2007 00:00:00 17.35583 C 9 g/m*3 17.36 C 0 km/h
1593 03-09-2007 00:00:00 15.74917 C 9.08 g/m*3 15.75 C 0 km/h
1594 04-09-2007 00:00:00 12.88417 C 7.04 g/m*3 12.88 C 0 km/h
1595 05-09-2007 00:00:00 12.6395 C 6.92 g/m*3 12.64 C 0 km/h
1596 06-09-2007 00:00:00 15.00917 C 9.43 g/m*3 15.01 C 0 km/h
1597 07-09-2007 00:00:00 15.9325 C 9.22 g/m*3 15.93 C 0 km/h
1598 08-09-2007 00:00:00 15.13667 C 10.05 g/m*3 15.14 C 0 km/h
1599 09-09-2007 00:00:00 15.125 C 9.17 g/m*3 15.13 C 0 km/h
1600 10-09-2007 00:00:00 12.4075 C 8.68 g/m*3 12.41 C 0 km/h
Sensor: Nr:Datum:Temp:Abs-Feuchte:Windchill:Wind:
Aussen-T/F 1601 11-09-2007 00:00:00 14.36833 C 8.61 g/m*3 14.37 C 0 km/h
1602 12-09-2007 00:00:00 14.94417 C 8.54 g/m*3 14.94 C 0 km/h
1603 13-09-2007 00:00:00 14.5175 C 8.49 g/m*3 14.52 C 0 km/h
1604 14-09-2007 00:00:00 15.68417 C 8.62 g/m*3 15.68 C 0 km/h
1605 15-09-2007 00:00:00 16.86917 C 8.24 g/m*3 16.87 C 0 km/h
1606 16-09-2007 00:00:00 15.27 C 8.22 g/m*3 15.27 C 0 km/h
1607 17-09-2007 00:00:00 16.68833 C 10.1 g/m*3 16.69 C 0 km/h
1608 18-09-2007 00:00:00 11.46833 C 8.27 g/m*3 11.47 C 0 km/h
1609 19-09-2007 00:00:00 10.3275 C 6.41 g/m*3 10.33 C 0 km/h
1610 20-09-2007 00:00:00 13.68083 C 7.03 g/m*3 13.68 C 0 km/h
1611 21-09-2007 00:00:00 14.35833 C 7.71 g/m*3 14.36 C 0 km/h
1612 22-09-2007 00:00:00 15.97583 C 8.74 g/m*3 15.98 C 0 km/h
1613 23-09-2007 00:00:00 17.80333 C 9.5 g/m*3 17.8 C 0 km/h
1614 24-09-2007 00:00:00 16.95833 C 9.49 g/m*3 16.96 C 0 km/h
1615 25-09-2007 00:00:00 12.91917 C 7.71 g/m*3 12.92 C 0 km/h
1616 26-09-2007 00:00:00 12.2675 C 7.86 g/m*3 12.27 C 0 km/h
1617 27-09-2007 00:00:00 10.19083 C 8.85 g/m*3 10.19 C 0 km/h
1618 28-09-2007 00:00:00 12.50168 C 8.71 g/m*3 12.5 C 0 km/h
1619 29-09-2007 00:00:00 13.54444 C 8.6 g/m*3 13.54 C 0 km/h
1620 30-09-2007 00:00:00 14.59687 C 9.12 g/m*3 14.6 C 0 km/h
1621 01-10-2007 00:00:00 14.70313 C 9.71 g/m*3 14.7 C 0 km/h
1622 02-10-2007 00:00:00 17.235 C 11.49 g/m*3 17.24 C 0 km/h
1623 03-10-2007 00:00:00 17.39188 C 11.47 g/m*3 17.39 C 0 km/h
1624 04-10-2007 00:00:00 17.33653 C 11.53 g/m*3 17.34 C 0 km/h
1625 05-10-2007 00:00:00 15.50646 C 8.72 g/m*3 15.51 C 0 km/h
Sensor: Nr:Datum:Temp:Abs-Feuchte:Windchill:Wind:
Aussen-T/F 1626 06-10-2007 00:00:00 12.34042 C 7.59 g/m*3 12.34 C 0 km/h
1627 07-10-2007 00:00:00 11.60813 C 7.69 g/m*3 11.61 C 0 km/h
1628 08-10-2007 00:00:00 10.74021 C 7.53 g/m*3 10.74 C 0 km/h
1629 09-10-2007 00:00:00 12.05052 C 8.1 g/m*3 12.05 C 0 km/h
1630 10-10-2007 00:00:00 14.53875 C 8.04 g/m*3 14.54 C 0 km/h
1631 11-10-2007 00:00:00 11.52958 C 7.34 g/m*3 11.53 C 0 km/h
1632 12-10-2007 00:00:00 12.23271 C 8.24 g/m*3 12.23 C 0 km/h
1633 13-10-2007 00:00:00 13.96146 C 7.82 g/m*3 13.96 C 0 km/h
1634 14-10-2007 00:00:00 9.94958 C 6.47 g/m*3 9.95 C 0 km/h
1635 15-10-2007 00:00:00 10.725 C 7.35 g/m*3 10.73 C 0 km/h
1636 16-10-2007 00:00:00 13.70417 C 8.35 g/m*3 13.7 C 0 km/h
1637 17-10-2007 00:00:00 11.78601 C 8.39 g/m*3 11.79 C 0 km/h
1638 18-10-2007 00:00:00 9.70042 C 6.45 g/m*3 9.7 C 0 km/h
1639 19-10-2007 00:00:00 7.65667 C 6.17 g/m*3 7.66 C 0 km/h
1640 20-10-2007 00:00:00 3.38583 C 5.54 g/m*3 3.39 C 0 km/h
1641 24-10-2007 00:00:00 7.63803 C 5.69 g/m*3 7.64 C 0 km/h
1642 25-10-2007 00:00:00 8.51042 C 6.26 g/m*3 8.51 C 0 km/h
1643 26-10-2007 00:00:00 8.8712 C 6.03 g/m*3 8.87 C 0 km/h
1644 27-10-2007 00:00:00 8.5725 C 5.85 g/m*3 8.57 C 0 km/h
1645 28-10-2007 00:00:00 9.1632 C 5.9 g/m*3 9.16 C 0 km/h
1646 29-10-2007 00:00:00 8.77833 C 7.07 g/m*3 8.78 C 0 km/h
1647 30-10-2007 00:00:00 8.70333 C 7.3 g/m*3 8.7 C 0 km/h
1648 31-10-2007 00:00:00 6.43333 C 6.44 g/m*3 6.43 C 0 km/h
1649 01-11-2007 00:00:00 5.77833 C 6.04 g/m*3 5.78 C 0 km/h
1650 02-11-2007 00:00:00 10.20333 C 8.52 g/m*3 10.2 C 0 km/h
Sensor: Nr:Datum:Temp:Abs-Feuchte:Windchill:Wind:
Aussen-T/F 1651 03-11-2007 00:00:00 11.76723 C 9.64 g/m*3 11.77 C 0 km/h
1652 04-11-2007 00:00:00 10.35 C 6.84 g/m*3 10.35 C 0 km/h
1653 05-11-2007 00:00:00 8.61333 C 5.38 g/m*3 8.61 C 0 km/h
1654 06-11-2007 00:00:00 8.1225 C 5.88 g/m*3 8.12 C 0 km/h
1655 07-11-2007 00:00:00 8.495 C 6.13 g/m*3 8.49 C 0 km/h
1656 08-11-2007 00:00:00 9.85667 C 7.21 g/m*3 9.86 C 0 km/h
1657 09-11-2007 00:00:00 5.16167 C 5.11 g/m*3 5.16 C 0 km/h
1658 10-11-2007 00:00:00 6.29083 C 5.92 g/m*3 6.29 C 0 km/h
1659 11-11-2007 00:00:00 7.75917 C 6.67 g/m*3 7.76 C 0 km/h
1660 12-11-2007 00:00:00 5.1475 C 4.79 g/m*3 5.15 C 0 km/h
1661 13-11-2007 00:00:00 3.98167 C 5.14 g/m*3 3.98 C 0 km/h
1662 14-11-2007 00:00:00 2.72417 C 4.37 g/m*3 2.72 C 0 km/h
1663 15-11-2007 00:00:00 1.3425 C 3.82 g/m*3 1.34 C 0 km/h
1664 16-11-2007 00:00:00 -0.59167 C 3.84 g/m*3 -0.59 C 0 km/h
1665 17-11-2007 00:00:00 3.35714 C 4.68 g/m*3 3.36 C 0 km/h
1666 18-11-2007 00:00:00 3.3825 C 4.91 g/m*3 3.38 C 0 km/h
1667 19-11-2007 00:00:00 2.57333 C 4.34 g/m*3 2.57 C 0 km/h
1668 20-11-2007 00:00:00 5.33 C 4.59 g/m*3 5.33 C 0 km/h
1669 21-11-2007 00:00:00 6.755 C 5.66 g/m*3 6.76 C 0 km/h
1670 22-11-2007 00:00:00 7.93917 C 6.65 g/m*3 7.94 C 0 km/h
1671 23-11-2007 00:00:00 6.7275 C 6.81 g/m*3 6.73 C 0 km/h
1672 24-11-2007 00:00:00 2.76833 C 4.82 g/m*3 2.77 C 0 km/h
1673 25-11-2007 00:00:00 4.25167 C 5.29 g/m*3 4.25 C 0 km/h
1674 26-11-2007 00:00:00 3.9725 C 4.66 g/m*3 3.97 C 0 km/h
1675 27-11-2007 00:00:00 4.23833 C 4.68 g/m*3 4.24 C 0 km/h
Sensor: Nr:Datum:Temp:Abs-Feuchte:Windchill:Wind:
Aussen-T/F 1676 28-11-2007 00:00:00 0.0625 C 4.32 g/m*3 0.06 C 0 km/h
1677 29-11-2007 00:00:00 1.3325 C 4.59 g/m*3 1.33 C 0 km/h
1678 30-11-2007 00:00:00 5.76 C 5.7 g/m*3 5.76 C 0 km/h
1679 01-12-2007 00:00:00 8.51345 C 5.82 g/m*3 8.51 C 0 km/h
1680 02-12-2007 00:00:00 9.13667 C 6.27 g/m*3 9.14 C 0 km/h
1681 03-12-2007 00:00:00 7.21167 C 4.97 g/m*3 7.21 C 0 km/h
1682 04-12-2007 00:00:00 5.77583 C 5.61 g/m*3 5.78 C 0 km/h
1683 05-12-2007 00:00:00 10.11667 C 7.2 g/m*3 10.12 C 0 km/h
1684 06-12-2007 00:00:00 9.85667 C 6.67 g/m*3 9.86 C 0 km/h
1685 07-12-2007 00:00:00 10.3625 C 6.09 g/m*3 10.36 C 0 km/h
1686 08-12-2007 00:00:00 5.77917 C 4.69 g/m*3 5.78 C 0 km/h
1687 09-12-2007 00:00:00 7.00333 C 5.75 g/m*3 7 C 0 km/h
1688 10-12-2007 00:00:00 6.24167 C 6.16 g/m*3 6.24 C 0 km/h
1689 11-12-2007 00:00:00 5.6775 C 5.39 g/m*3 5.68 C 0 km/h
1690 12-12-2007 00:00:00 4.92417 C 5 g/m*3 4.92 C 0 km/h
1691 13-12-2007 00:00:00 5.2125 C 4.36 g/m*3 5.21 C 0 km/h
1692 14-12-2007 00:00:00 2.35798 C 2.96 g/m*3 2.36 C 0 km/h
1693 15-12-2007 00:00:00 0.0325 C 2.86 g/m*3 0.03 C 0 km/h
1694 16-12-2007 00:00:00 -2.92417 C 2.98 g/m*3 -2.92 C 0 km/h
1695 17-12-2007 00:00:00 -1.06 C 2.85 g/m*3 -1.06 C 0 km/h
1696 18-12-2007 00:00:00 -2.50833 C 3.14 g/m*3 -2.51 C 0 km/h
1697 19-12-2007 00:00:00 -3.8675 C 3.09 g/m*3 -3.87 C 0 km/h
1698 20-12-2007 00:00:00 -5.26417 C 2.9 g/m*3 -5.26 C 0 km/h
1699 21-12-2007 00:00:00 -5.9625 C 2.72 g/m*3 -5.96 C 0 km/h
1700 22-12-2007 00:00:00 -7.21833 C 2.43 g/m*3 -7.22 C 0 km/h
Sensor: Nr:Datum:Temp:Abs-Feuchte:Windchill:Wind:
Aussen-T/F 1701 23-12-2007 00:00:00 -5.47333 C 2.81 g/m*3 -5.47 C 0 km/h
1702 24-12-2007 00:00:00 -1.28333 C 4.01 g/m*3 -1.28 C 0 km/h
1703 25-12-2007 00:00:00 -3.13917 C 3.2 g/m*3 -3.14 C 0 km/h
1704 26-12-2007 00:00:00 -1.31513 C 3.83 g/m*3 -1.32 C 0 km/h
1705 27-12-2007 00:00:00 2.63917 C 4.81 g/m*3 2.64 C 0 km/h
1706 28-12-2007 00:00:00 4.575 C 5.27 g/m*3 4.58 C 0 km/h
1707 29-12-2007 00:00:00 3.32667 C 4.84 g/m*3 3.33 C 0 km/h
1708 30-12-2007 00:00:00 4.99167 C 5.24 g/m*3 4.99 C 0 km/h
1709 31-12-2007 00:00:00 3.21667 C 5.19 g/m*3 3.22 C 0 km/h
1710 01-01-2008 00:00:00 1.85083 C 4.52 g/m*3 1.85 C 0 km/h
1711 02-01-2008 00:00:00 -1.72 C 3.21 g/m*3 -1.72 C 0 km/h
1712 03-01-2008 00:00:00 -0.05667 C 2.87 g/m*3 -0.06 C 0 km/h
1713 04-01-2008 00:00:00 0.27167 C 3.34 g/m*3 0.27 C 0 km/h
1714 05-01-2008 00:00:00 5.0775 C 5.63 g/m*3 5.08 C 0 km/h
1715 06-01-2008 00:00:00 3.95167 C 5.23 g/m*3 3.95 C 0 km/h
1716 07-01-2008 00:00:00 5.63583 C 5.3 g/m*3 5.64 C 0 km/h
1717 08-01-2008 00:00:00 4.45546 C 5.42 g/m*3 4.46 C 0 km/h
1718 09-01-2008 00:00:00 4.03167 C 5.39 g/m*3 4.03 C 0 km/h
1719 10-01-2008 00:00:00 6.32083 C 5.48 g/m*3 6.32 C 0 km/h
1720 11-01-2008 00:00:00 9.6175 C 5.87 g/m*3 9.62 C 0 km/h
1721 12-01-2008 00:00:00 6.39 C 5.01 g/m*3 6.39 C 0 km/h
1722 13-01-2008 00:00:00 0.58167 C 4.26 g/m*3 0.58 C 0 km/h
1723 14-01-2008 00:00:00 3.80833 C 4.9 g/m*3 3.81 C 0 km/h
1724 15-01-2008 00:00:00 8.28833 C 5.12 g/m*3 8.29 C 0 km/h
1725 16-01-2008 00:00:00 8.28667 C 5.35 g/m*3 8.29 C 0 km/h
Sensor: Nr:Datum:Temp:Abs-Feuchte:Windchill:Wind:
Aussen-T/F 1726 17-01-2008 00:00:00 7.21833 C 5.52 g/m*3 7.22 C 0 km/h
1727 18-01-2008 00:00:00 9.17667 C 6.31 g/m*3 9.18 C 0 km/h
1728 19-01-2008 00:00:00 12.72353 C 7.44 g/m*3 12.72 C 0 km/h
1729 20-01-2008 00:00:00 12.27333 C 6.9 g/m*3 12.27 C 0 km/h
1730 21-01-2008 00:00:00 10.17403 C 5.8 g/m*3 10.17 C 0 km/h
1731 22-01-2008 00:00:00 4.58605 C 4.01 g/m*3 4.59 C 0 km/h
1732 23-01-2008 00:00:00 2.9125 C 3.92 g/m*3 2.91 C 0 km/h
1733 24-01-2008 00:00:00 6.355 C 4.65 g/m*3 6.36 C 0 km/h
1734 25-01-2008 00:00:00 3.72583 C 4.34 g/m*3 3.73 C 0 km/h
1735 26-01-2008 00:00:00 5.43583 C 4.26 g/m*3 5.44 C 0 km/h
1736 27-01-2008 00:00:00 5.64333 C 4.29 g/m*3 5.64 C 0 km/h
1737 28-01-2008 00:00:00 7.44 C 5.19 g/m*3 7.44 C 0 km/h
1738 29-01-2008 00:00:00 5.72167 C 4.29 g/m*3 5.72 C 0 km/h
1739 30-01-2008 00:00:00 2.05833 C 4.71 g/m*3 2.06 C 0 km/h
1740 31-01-2008 00:00:00 2.0958 C 3.82 g/m*3 2.1 C 0 km/h
1741 01-02-2008 00:00:00 4.10167 C 4.83 g/m*3 4.1 C 0 km/h
1742 02-02-2008 00:00:00 2.155 C 3.64 g/m*3 2.15 C 0 km/h
1743 03-02-2008 00:00:00 0.64917 C 3.2 g/m*3 0.65 C 0 km/h
1744 04-02-2008 00:00:00 4.5125 C 4.25 g/m*3 4.51 C 0 km/h
1745 05-02-2008 00:00:00 6.43917 C 5.11 g/m*3 6.44 C 0 km/h
1746 06-02-2008 00:00:00 8.675 C 5.72 g/m*3 8.68 C 0 km/h
1747 07-02-2008 00:00:00 3.96333 C 4.24 g/m*3 3.96 C 0 km/h
1748 08-02-2008 00:00:00 2.41167 C 3.87 g/m*3 2.41 C 0 km/h
1749 09-02-2008 00:00:00 2.61833 C 3.61 g/m*3 2.62 C 0 km/h
1750 10-02-2008 00:00:00 2.41333 C 3.74 g/m*3 2.41 C 0 km/h
Sensor: Nr:Datum:Temp:Abs-Feuchte:Windchill:Wind:
Aussen-T/F 1751 11-02-2008 00:00:00 3.10083 C 4.4 g/m*3 3.1 C 0 km/h
1752 12-02-2008 00:00:00 2.92667 C 4.49 g/m*3 2.93 C 0 km/h
1753 13-02-2008 00:00:00 2.03193 C 4.33 g/m*3 2.03 C 0 km/h
1754 14-02-2008 00:00:00 0.96667 C 4.4 g/m*3 0.97 C 0 km/h
1755 15-02-2008 00:00:00 2.4125 C 3.13 g/m*3 2.41 C 0 km/h
1756 16-02-2008 00:00:00 -0.75333 C 2.03 g/m*3 -0.75 C 0 km/h
1757 17-02-2008 00:00:00 -1.21667 C 2.05 g/m*3 -1.22 C 0 km/h
1758 18-02-2008 00:00:00 -0.28333 C 2.13 g/m*3 -0.28 C 0 km/h
1759 19-02-2008 00:00:00 0.85417 C 2.54 g/m*3 0.85 C 0 km/h
1760 20-02-2008 00:00:00 1.65 C 4.49 g/m*3 1.65 C 0 km/h
1761 21-02-2008 00:00:00 6.5725 C 5.76 g/m*3 6.57 C 0 km/h
1762 22-02-2008 00:00:00 9.70667 C 5.88 g/m*3 9.71 C 0 km/h
1763 23-02-2008 00:00:00 9.48833 C 5.6 g/m*3 9.49 C 0 km/h
1764 24-02-2008 00:00:00 6.65583 C 5.66 g/m*3 6.66 C 0 km/h
1765 25-02-2008 00:00:00 9.93833 C 6.06 g/m*3 9.94 C 0 km/h
1766 26-02-2008 00:00:00 11.1075 C 6.49 g/m*3 11.11 C 0 km/h
1767 27-02-2008 00:00:00 7.70168 C 4.44 g/m*3 7.7 C 0 km/h
1768 28-02-2008 00:00:00 7.6125 C 4.89 g/m*3 7.61 C 0 km/h
1769 29-02-2008 00:00:00 8.7625 C 7.16 g/m*3 8.76 C 0 km/h
1770 01-03-2008 00:00:00 9.4675 C 4.85 g/m*3 9.47 C 0 km/h
1771 02-03-2008 00:00:00 11.1725 C 5.33 g/m*3 11.17 C 0 km/h
1772 03-03-2008 00:00:00 7.56583 C 4.08 g/m*3 7.57 C 0 km/h
1773 04-03-2008 00:00:00 2.7525 C 4.06 g/m*3 2.75 C 0 km/h
1774 05-03-2008 00:00:00 1.71 C 3.03 g/m*3 1.71 C 0 km/h
1775 06-03-2008 00:00:00 2.81917 C 2.99 g/m*3 2.82 C 0 km/h
Sensor: Nr:Datum:Temp:Abs-Feuchte:Windchill:Wind:
Aussen-T/F 1776 07-03-2008 00:00:00 6.93833 C 4.72 g/m*3 6.94 C 0 km/h
1777 08-03-2008 00:00:00 6.94667 C 4.5 g/m*3 6.95 C 0 km/h
1778 09-03-2008 00:00:00 8.06667 C 4.11 g/m*3 8.07 C 0 km/h
1779 10-03-2008 00:00:00 8.22941 C 4.32 g/m*3 8.23 C 0 km/h
1780 11-03-2008 00:00:00 8.355 C 5.31 g/m*3 8.36 C 0 km/h
1781 12-03-2008 00:00:00 9.11833 C 4.2 g/m*3 9.12 C 0 km/h
1782 13-03-2008 00:00:00 7.62667 C 4.06 g/m*3 7.63 C 0 km/h
1783 14-03-2008 00:00:00 9.14417 C 5.77 g/m*3 9.14 C 0 km/h
1784 15-03-2008 00:00:00 9.33 C 5.42 g/m*3 9.33 C 0 km/h
1785 16-03-2008 00:00:00 9.8675 C 6.68 g/m*3 9.87 C 0 km/h
1786 17-03-2008 00:00:00 5.94583 C 3.99 g/m*3 5.95 C 0 km/h
1787 18-03-2008 00:00:00 4.26083 C 3.07 g/m*3 4.26 C 0 km/h
1788 19-03-2008 00:00:00 3.37083 C 3.9 g/m*3 3.37 C 0 km/h
1789 20-03-2008 00:00:00 3.89083 C 4.07 g/m*3 3.89 C 0 km/h
1790 21-03-2008 00:00:00 3.9975 C 4.22 g/m*3 4 C 0 km/h
1791 22-03-2008 00:00:00 2.82917 C 4.71 g/m*3 2.83 C 0 km/h
1792 23-03-2008 00:00:00 1.56639 C 2.31 g/m*3 1.57 C 0 km/h
1793 24-03-2008 00:00:00 -0.00917 C 3.2 g/m*3 -0.01 C 0 km/h
1794 25-03-2008 00:00:00 1.51333 C 3.09 g/m*3 1.51 C 0 km/h
1795 26-03-2008 00:00:00 2.39667 C 4.29 g/m*3 2.4 C 0 km/h
1796 27-03-2008 00:00:00 5.29417 C 5.44 g/m*3 5.29 C 0 km/h
1797 28-03-2008 00:00:00 8.15333 C 4.14 g/m*3 8.15 C 0 km/h
1798 29-03-2008 00:00:00 9.55083 C 3.95 g/m*3 9.55 C 0 km/h
1799 30-03-2008 00:00:00 13.03217 C 4.01 g/m*3 13.03 C 0 km/h
1800 31-03-2008 00:00:00 11.98333 C 5.6 g/m*3 11.98 C 0 km/h
Sensor: Nr:Datum:Temp:Abs-Feuchte:Windchill:Wind:
Aussen-T/F 1801 01-04-2008 00:00:00 10.06833 C 5.37 g/m*3 10.07 C 0 km/h
1802 02-04-2008 00:00:00 9.77417 C 5.52 g/m*3 9.77 C 0 km/h
1803 03-04-2008 00:00:00 7.48 C 5.75 g/m*3 7.48 C 0 km/h
1804 04-04-2008 00:00:00 9.15583 C 5.79 g/m*3 9.16 C 0 km/h
1805 05-04-2008 00:00:00 7.49076 C 6.73 g/m*3 7.49 C 0 km/h
1806 06-04-2008 00:00:00 3.825 C 5.64 g/m*3 3.83 C 0 km/h
1807 07-04-2008 00:00:00 1.36917 C 4.88 g/m*3 1.37 C 0 km/h
1808 08-04-2008 00:00:00 3.57833 C 4.72 g/m*3 3.58 C 0 km/h
1809 09-04-2008 00:00:00 5.82833 C 5.5 g/m*3 5.83 C 0 km/h
1810 10-04-2008 00:00:00 8.76917 C 5.74 g/m*3 8.77 C 0 km/h
1811 11-04-2008 00:00:00 8.235 C 6.34 g/m*3 8.24 C 0 km/h
1812 12-04-2008 00:00:00 8.02 C 5.41 g/m*3 8.02 C 0 km/h
1813 13-04-2008 00:00:00 9.70833 C 6.56 g/m*3 9.71 C 0 km/h
1814 14-04-2008 00:00:00 7.63083 C 6.9 g/m*3 7.63 C 0 km/h
1815 15-04-2008 00:00:00 6.56083 C 5.99 g/m*3 6.56 C 0 km/h
1816 16-04-2008 00:00:00 6.30083 C 4.78 g/m*3 6.3 C 0 km/h
1817 17-04-2008 00:00:00 6.47227 C 4.04 g/m*3 6.47 C 0 km/h
1818 18-04-2008 00:00:00 9.94 C 4.58 g/m*3 9.94 C 0 km/h
1819 19-04-2008 00:00:00 8.41667 C 6.18 g/m*3 8.42 C 0 km/h
1820 20-04-2008 00:00:00 12.42417 C 7.14 g/m*3 12.42 C 0 km/h
1821 21-04-2008 00:00:00 12.98833 C 6.29 g/m*3 12.99 C 0 km/h
1822 22-04-2008 00:00:00 12.95917 C 5.98 g/m*3 12.96 C 0 km/h
1823 23-04-2008 00:00:00 13.95083 C 6.27 g/m*3 13.95 C 0 km/h
1824 24-04-2008 00:00:00 15.095 C 7.14 g/m*3 15.1 C 0 km/h
1825 25-04-2008 00:00:00 12.67583 C 6.12 g/m*3 12.68 C 0 km/h
Sensor: Nr:Datum:Temp:Abs-Feuchte:Windchill:Wind:
Aussen-T/F 1826 26-04-2008 00:00:00 14.51833 C 6.16 g/m*3 14.52 C 0 km/h
1827 27-04-2008 00:00:00 15.87667 C 5.79 g/m*3 15.88 C 0 km/h
1828 28-04-2008 00:00:00 13.4125 C 8.14 g/m*3 13.41 C 0 km/h
1829 29-04-2008 00:00:00 13.07667 C 6.39 g/m*3 13.08 C 0 km/h
1830 30-04-2008 00:00:00 13.76639 C 5.33 g/m*3 13.77 C 0 km/h
1831 01-05-2008 00:00:00 11.62583 C 5.8 g/m*3 11.63 C 0 km/h
1832 02-05-2008 00:00:00 12.97583 C 6.28 g/m*3 12.98 C 0 km/h
1833 03-05-2008 00:00:00 14.47667 C 6.5 g/m*3 14.48 C 0 km/h
1834 04-05-2008 00:00:00 17.15667 C 5.91 g/m*3 17.16 C 0 km/h
1835 05-05-2008 00:00:00 16.51 C 5.51 g/m*3 16.51 C 0 km/h
1836 06-05-2008 00:00:00 18.36833 C 7.67 g/m*3 18.37 C 0 km/h
1837 07-05-2008 00:00:00 19.48083 C 7 g/m*3 19.48 C 0 km/h
1838 08-05-2008 00:00:00 19.40583 C 6.98 g/m*3 19.41 C 0 km/h
1839 09-05-2008 00:00:00 20.20083 C 7.05 g/m*3 20.2 C 0 km/h
1840 10-05-2008 00:00:00 21.22917 C 7.16 g/m*3 21.23 C 0 km/h
1841 11-05-2008 00:00:00 21.15714 C 6.43 g/m*3 21.16 C 0 km/h
1842 12-05-2008 00:00:00 21.02017 C 6.74 g/m*3 21.02 C 0 km/h
1843 13-05-2008 00:00:00 21.3175 C 7.09 g/m*3 21.32 C 0 km/h
1844 14-05-2008 00:00:00 21.27167 C 7.79 g/m*3 21.27 C 0 km/h
1845 15-05-2008 00:00:00 18.93333 C 8.92 g/m*3 18.93 C 0 km/h
1846 16-05-2008 00:00:00 18.3725 C 9.69 g/m*3 18.37 C 0 km/h
1847 17-05-2008 00:00:00 17.11167 C 10.03 g/m*3 17.11 C 0 km/h
1848 18-05-2008 00:00:00 14.09583 C 8.38 g/m*3 14.1 C 0 km/h
1849 19-05-2008 00:00:00 14.61833 C 5.61 g/m*3 14.62 C 0 km/h
1850 20-05-2008 00:00:00 15.59417 C 4.92 g/m*3 15.59 C 0 km/h
Sensor: Nr:Datum:Temp:Abs-Feuchte:Windchill:Wind:
Aussen-T/F 1851 21-05-2008 00:00:00 16.93833 C 4.74 g/m*3 16.94 C 0 km/h
1852 22-05-2008 00:00:00 18.32417 C 5.49 g/m*3 18.32 C 0 km/h
1853 23-05-2008 00:00:00 19.045 C 6.46 g/m*3 19.05 C 0 km/h
1854 24-05-2008 00:00:00 18.23 C 7.82 g/m*3 18.23 C 0 km/h
1855 25-05-2008 00:00:00 21.65462 C 9.39 g/m*3 21.65 C 0 km/h
1856 26-05-2008 00:00:00 21.2775 C 11.27 g/m*3 21.28 C 0 km/h
1857 27-05-2008 00:00:00 22.17167 C 12.27 g/m*3 22.17 C 0 km/h
1858 28-05-2008 00:00:00 23.79417 C 10.23 g/m*3 23.79 C 0 km/h
1859 29-05-2008 00:00:00 23.08917 C 11.47 g/m*3 23.09 C 0 km/h
1860 30-05-2008 00:00:00 20.37 C 13.32 g/m*3 20.37 C 0 km/h
1861 31-05-2008 00:00:00 17.68917 C 12.05 g/m*3 17.69 C 0 km/h
1862 01-06-2008 00:00:00 21.38917 C 11.64 g/m*3 21.39 C 0 km/h
1863 02-06-2008 00:00:00 23.66833 C 12.72 g/m*3 23.67 C 0 km/h
1864 03-06-2008 00:00:00 21.2825 C 11.09 g/m*3 21.28 C 0 km/h
1865 04-06-2008 00:00:00 19.19833 C 11.48 g/m*3 19.2 C 0 km/h
1866 05-06-2008 00:00:00 20.67731 C 12.57 g/m*3 20.68 C 0 km/h
1867 06-06-2008 00:00:00 21.07333 C 10.91 g/m*3 21.07 C 0 km/h
1868 07-06-2008 00:00:00 19.84417 C 10.51 g/m*3 19.84 C 0 km/h
1869 08-06-2008 00:00:00 20.63167 C 10.52 g/m*3 20.63 C 0 km/h
1870 09-06-2008 00:00:00 22.875 C 10.01 g/m*3 22.88 C 0 km/h
1871 10-06-2008 00:00:00 23.51583 C 9.23 g/m*3 23.52 C 0 km/h
1872 11-06-2008 00:00:00 18.4725 C 7.23 g/m*3 18.47 C 0 km/h
1873 12-06-2008 00:00:00 12.7425 C 7.69 g/m*3 12.74 C 0 km/h
1874 13-06-2008 00:00:00 13.67167 C 7.09 g/m*3 13.67 C 0 km/h
1875 14-06-2008 00:00:00 13.75917 C 7.2 g/m*3 13.76 C 0 km/h
Sensor: Nr:Datum:Temp:Abs-Feuchte:Windchill:Wind:
Aussen-T/F 1876 15-06-2008 00:00:00 13.75333 C 8.27 g/m*3 13.75 C 0 km/h
1877 16-06-2008 00:00:00 16.2275 C 7.7 g/m*3 16.23 C 0 km/h
1878 17-06-2008 00:00:00 17.34333 C 7.29 g/m*3 17.34 C 0 km/h
1879 18-06-2008 00:00:00 20.30583 C 7.89 g/m*3 20.31 C 0 km/h
1880 19-06-2008 00:00:00 20.67417 C 8.05 g/m*3 20.67 C 0 km/h
1881 20-06-2008 00:00:00 18.32 C 8.63 g/m*3 18.32 C 0 km/h
1882 21-06-2008 00:00:00 23.24706 C 9.11 g/m*3 23.25 C 0 km/h
1883 22-06-2008 00:00:00 24.30833 C 11.76 g/m*3 24.31 C 0 km/h
1884 23-06-2008 00:00:00 22.40417 C 8.41 g/m*3 22.4 C 0 km/h
1885 24-06-2008 00:00:00 23.6325 C 8.33 g/m*3 23.63 C 0 km/h
1886 25-06-2008 00:00:00 22.66833 C 12.11 g/m*3 22.67 C 0 km/h
1887 26-06-2008 00:00:00 20.39833 C 8.44 g/m*3 20.4 C 0 km/h
1888 27-06-2008 00:00:00 18.72167 C 8.67 g/m*3 18.72 C 0 km/h
1889 28-06-2008 00:00:00 21.21 C 9.93 g/m*3 21.21 C 0 km/h
1890 29-06-2008 00:00:00 22.68667 C 9.85 g/m*3 22.69 C 0 km/h
1891 30-06-2008 00:00:00 22.95083 C 8.73 g/m*3 22.95 C 0 km/h
1892 01-07-2008 00:00:00 24.35583 C 9.2 g/m*3 24.36 C 0 km/h
1893 02-07-2008 00:00:00 26.47583 C 10.39 g/m*3 26.48 C 0 km/h
1894 03-07-2008 00:00:00 20.18992 C 12.77 g/m*3 20.19 C 0 km/h
1895 04-07-2008 00:00:00 19.38083 C 9.22 g/m*3 19.38 C 0 km/h
1896 05-07-2008 00:00:00 21.0575 C 8.87 g/m*3 21.06 C 0 km/h
1897 06-07-2008 00:00:00 21.2225 C 8.99 g/m*3 21.22 C 0 km/h
1898 07-07-2008 00:00:00 18.24917 C 8.13 g/m*3 18.25 C 0 km/h
1899 08-07-2008 00:00:00 17.2125 C 8.69 g/m*3 17.21 C 0 km/h
1900 09-07-2008 00:00:00 17.0525 C 8.83 g/m*3 17.05 C 0 km/h
Sensor: Nr:Datum:Temp:Abs-Feuchte:Windchill:Wind:
Aussen-T/F 1901 10-07-2008 00:00:00 22.32833 C 10.77 g/m*3 22.33 C 0 km/h
1902 11-07-2008 00:00:00 20.48167 C 11.17 g/m*3 20.48 C 0 km/h
1903 12-07-2008 00:00:00 17.645 C 9.92 g/m*3 17.65 C 0 km/h
1904 13-07-2008 00:00:00 17.8375 C 8.02 g/m*3 17.84 C 0 km/h
1905 14-07-2008 00:00:00 18.38 C 7.76 g/m*3 18.38 C 0 km/h
1906 15-07-2008 00:00:00 19.61978 C 8.34 g/m*3 19.62 C 0 km/h
1907 16-07-2008 00:00:00 20.38298 C 10.82 g/m*3 20.38 C 0 km/h
1908 17-07-2008 00:00:00 17.22917 C 8.94 g/m*3 17.23 C 0 km/h
1909 18-07-2008 00:00:00 16.58125 C 9.74 g/m*3 16.58 C 0 km/h
1910 19-07-2008 00:00:00 19.61667 C 9.94 g/m*3 19.62 C 0 km/h
1911 20-07-2008 00:00:00 15.48542 C 9.13 g/m*3 15.49 C 0 km/h
1912 21-07-2008 00:00:00 12.62917 C 8.41 g/m*3 12.63 C 0 km/h
1913 22-07-2008 00:00:00 14.56042 C 9.4 g/m*3 14.56 C 0 km/h
1914 23-07-2008 00:00:00 18.94375 C 9.57 g/m*3 18.94 C 0 km/h
1915 24-07-2008 00:00:00 22.13958 C 9.31 g/m*3 22.14 C 0 km/h
1916 25-07-2008 00:00:00 24.55625 C 9.56 g/m*3 24.56 C 0 km/h
1917 26-07-2008 00:00:00 23.54792 C 12.42 g/m*3 23.55 C 0 km/h
1918 27-07-2008 00:00:00 23.20625 C 13.92 g/m*3 23.21 C 0 km/h
1919 28-07-2008 00:00:00 25.10833 C 12.45 g/m*3 25.11 C 0 km/h
1920 29-07-2008 00:00:00 24.49792 C 12.1 g/m*3 24.5 C 0 km/h
1921 30-07-2008 00:00:00 23.67292 C 12.74 g/m*3 23.67 C 0 km/h
1922 31-07-2008 00:00:00 24.69792 C 13.38 g/m*3 24.7 C 0 km/h
1923 01-08-2008 00:00:00 24.97917 C 10.83 g/m*3 24.98 C 0 km/h
1924 02-08-2008 00:00:00 21.29792 C 9.43 g/m*3 21.3 C 0 km/h
1925 03-08-2008 00:00:00 23.42561 C 10.97 g/m*3 23.43 C 0 km/h
Sensor: Nr:Datum:Temp:Abs-Feuchte:Windchill:Wind:
Aussen-T/F 1926 04-08-2008 00:00:00 21.85083 C 10.01 g/m*3 21.85 C 0 km/h
1927 05-08-2008 00:00:00 20.3125 C 8.72 g/m*3 20.31 C 0 km/h
1928 06-08-2008 00:00:00 24.05417 C 10.21 g/m*3 24.05 C 0 km/h
1929 07-08-2008 00:00:00 24.29583 C 11.12 g/m*3 24.3 C 0 km/h
1930 08-08-2008 00:00:00 18.50948 C 11.78 g/m*3 18.51 C 0 km/h
1931 09-08-2008 00:00:00 19.32 C 9.06 g/m*3 19.32 C 0 km/h
1932 10-08-2008 00:00:00 20.1 C 9.41 g/m*3 20.1 C 0 km/h
1933 11-08-2008 00:00:00 20.59748 C 9.44 g/m*3 20.6 C 0 km/h
1934 12-08-2008 00:00:00 18.91833 C 12.54 g/m*3 18.92 C 0 km/h
1935 13-08-2008 00:00:00 18.3525 C 8.74 g/m*3 18.35 C 0 km/h
1936 14-08-2008 00:00:00 19.14917 C 7.79 g/m*3 19.15 C 0 km/h
1937 15-08-2008 00:00:00 18.3625 C 8.19 g/m*3 18.36 C 0 km/h
1938 16-08-2008 00:00:00 18.89 C 8.44 g/m*3 18.89 C 0 km/h
1939 17-08-2008 00:00:00 19.10252 C 8.4 g/m*3 19.1 C 0 km/h
1940 18-08-2008 00:00:00 21.21 C 10.7 g/m*3 21.21 C 0 km/h
1941 19-08-2008 00:00:00 20.7925 C 9.67 g/m*3 20.79 C 0 km/h
1942 20-08-2008 00:00:00 18.82 C 9.37 g/m*3 18.82 C 0 km/h
1943 21-08-2008 00:00:00 19.6375 C 8.99 g/m*3 19.64 C 0 km/h
1944 22-08-2008 00:00:00 18.45333 C 11.1 g/m*3 18.45 C 0 km/h
1945 23-08-2008 00:00:00 14.95083 C 9.15 g/m*3 14.95 C 0 km/h
1946 24-08-2008 00:00:00 16.59333 C 8.67 g/m*3 16.59 C 0 km/h
1947 25-08-2008 00:00:00 17.43583 C 10.93 g/m*3 17.44 C 0 km/h
1948 26-08-2008 00:00:00 19.2725 C 10.13 g/m*3 19.27 C 0 km/h
1949 27-08-2008 00:00:00 19.89833 C 10.62 g/m*3 19.9 C 0 km/h
1950 28-08-2008 00:00:00 20.35417 C 9.37 g/m*3 20.35 C 0 km/h
Sensor: Nr:Datum:Temp:Abs-Feuchte:Windchill:Wind:
Aussen-T/F 1951 29-08-2008 00:00:00 20.84454 C 9.74 g/m*3 20.84 C 0 km/h
1952 30-08-2008 00:00:00 21.35167 C 10.94 g/m*3 21.35 C 0 km/h
1953 31-08-2008 00:00:00 22.25917 C 10.49 g/m*3 22.26 C 0 km/h
1954 01-09-2008 00:00:00 20.93917 C 10.36 g/m*3 20.94 C 0 km/h
1955 02-09-2008 00:00:00 19.11333 C 9.31 g/m*3 19.11 C 0 km/h
1956 03-09-2008 00:00:00 15.21083 C 10.42 g/m*3 15.21 C 0 km/h
1957 04-09-2008 00:00:00 13.7025 C 7.94 g/m*3 13.7 C 0 km/h
1958 05-09-2008 00:00:00 16.9775 C 10.5 g/m*3 16.98 C 0 km/h
1959 06-09-2008 00:00:00 17.5625 C 11.38 g/m*3 17.56 C 0 km/h
1960 07-09-2008 00:00:00 16.83583 C 9.34 g/m*3 16.84 C 0 km/h
1961 08-09-2008 00:00:00 17.9741 C 8.43 g/m*3 17.97 C 0 km/h
1962 09-09-2008 00:00:00 18.12014 C 9.04 g/m*3 18.12 C 0 km/h
1963 10-09-2008 00:00:00 21.10243 C 10.72 g/m*3 21.1 C 0 km/h
1964 11-09-2008 00:00:00 19.94479 C 12.52 g/m*3 19.94 C 0 km/h
1965 12-09-2008 00:00:00 16.69236 C 12.91 g/m*3 16.69 C 0 km/h
1966 13-09-2008 00:00:00 12.63937 C 10.07 g/m*3 12.64 C 0 km/h
1967 14-09-2008 00:00:00 11.66215 C 6.19 g/m*3 11.66 C 0 km/h
1968 15-09-2008 00:00:00 10.27153 C 7.08 g/m*3 10.27 C 0 km/h
1969 16-09-2008 00:00:00 11.32014 C 7.11 g/m*3 11.32 C 0 km/h
1970 17-09-2008 00:00:00 11.34948 C 5.77 g/m*3 11.35 C 0 km/h
1971 18-09-2008 00:00:00 10.63264 C 5.3 g/m*3 10.63 C 0 km/h
1972 19-09-2008 00:00:00 10.48333 C 6.14 g/m*3 10.48 C 0 km/h
1973 20-09-2008 00:00:00 11.00556 C 6.26 g/m*3 11.01 C 0 km/h
1974 21-09-2008 00:00:00 11.67222 C 6.89 g/m*3 11.67 C 0 km/h
1975 22-09-2008 00:00:00 12.57108 C 7.54 g/m*3 12.57 C 0 km/h
Sensor: Nr:Datum:Temp:Abs-Feuchte:Windchill:Wind:
Aussen-T/F 1976 23-09-2008 00:00:00 12.21111 C 8.35 g/m*3 12.21 C 0 km/h
1977 24-09-2008 00:00:00 13.30799 C 9.32 g/m*3 13.31 C 0 km/h
1978 25-09-2008 00:00:00 12.56736 C 7.77 g/m*3 12.57 C 0 km/h
1979 26-09-2008 00:00:00 12.00521 C 7.09 g/m*3 12.01 C 0 km/h
1980 27-09-2008 00:00:00 11.93693 C 7.15 g/m*3 11.94 C 0 km/h
1981 28-09-2008 00:00:00 11.96493 C 7.21 g/m*3 11.96 C 0 km/h
1982 29-09-2008 00:00:00 11.47396 C 7.33 g/m*3 11.47 C 0 km/h
1983 30-09-2008 00:00:00 10.38611 C 7.67 g/m*3 10.39 C 0 km/h
1984 01-10-2008 00:00:00 13.07222 C 8.43 g/m*3 13.07 C 0 km/h
1985 02-10-2008 00:00:00 10.70244 C 6.41 g/m*3 10.7 C 0 km/h
1986 03-10-2008 00:00:00 8.94063 C 6.04 g/m*3 8.94 C 0 km/h
1987 04-10-2008 00:00:00 9.76632 C 5.66 g/m*3 9.77 C 0 km/h
1988 05-10-2008 00:00:00 11.69062 C 6.1 g/m*3 11.69 C 0 km/h
1989 06-10-2008 00:00:00 14.79306 C 10.16 g/m*3 14.79 C 0 km/h
1990 07-10-2008 00:00:00 15.17875 C 10.24 g/m*3 15.18 C 0 km/h
1991 08-10-2008 00:00:00 13.26389 C 10.6 g/m*3 13.26 C 0 km/h
1992 09-10-2008 00:00:00 13.20937 C 8.82 g/m*3 13.21 C 0 km/h
1993 10-10-2008 00:00:00 13.01806 C 8.66 g/m*3 13.02 C 0 km/h
1994 11-10-2008 00:00:00 13.2125 C 9 g/m*3 13.21 C 0 km/h
1995 12-10-2008 00:00:00 15.40729 C 9.68 g/m*3 15.41 C 0 km/h
1996 13-10-2008 00:00:00 14.40976 C 9.47 g/m*3 14.41 C 0 km/h
1997 14-10-2008 00:00:00 15.63438 C 9.35 g/m*3 15.63 C 0 km/h
1998 15-10-2008 00:00:00 13.57361 C 8.88 g/m*3 13.57 C 0 km/h
1999 16-10-2008 00:00:00 11.59444 C 8.43 g/m*3 11.59 C 0 km/h
2000 17-10-2008 00:00:00 8.00313 C 6.15 g/m*3 8 C 0 km/h
Sensor: Nr:Datum:Temp:Abs-Feuchte:Windchill:Wind:
Aussen-T/F 2001 18-10-2008 00:00:00 7.10488 C 5.92 g/m*3 7.1 C 0 km/h
2002 19-10-2008 00:00:00 8.10521 C 6.25 g/m*3 8.11 C 0 km/h
2003 20-10-2008 00:00:00 9.83646 C 7.21 g/m*3 9.84 C 0 km/h
2004 21-10-2008 00:00:00 13.12986 C 9.32 g/m*3 13.13 C 0 km/h
2005 22-10-2008 00:00:00 9.36528 C 7.49 g/m*3 9.37 C 0 km/h
2006 23-10-2008 00:00:00 9.2115 C 6.5 g/m*3 9.21 C 0 km/h
2007 24-10-2008 00:00:00 7.4434 C 6.07 g/m*3 7.44 C 0 km/h
2008 25-10-2008 00:00:00 10.48151 C 7.39 g/m*3 10.48 C 0 km/h
2009 26-10-2008 00:00:00 10.725 C 6.55 g/m*3 10.73 C 0 km/h
2010 27-10-2008 00:00:00 10.21724 C 7.98 g/m*3 10.22 C 0 km/h
2011 28-10-2008 00:00:00 6.92456 C 6.29 g/m*3 6.92 C 0 km/h
2012 29-10-2008 00:00:00 5.45 C 5.63 g/m*3 5.45 C 0 km/h
2013 30-10-2008 00:00:00 4.78947 C 6 g/m*3 4.79 C 0 km/h
2014 31-10-2008 00:00:00 5.97414 C 6.34 g/m*3 5.97 C 0 km/h
2015 01-11-2008 00:00:00 7.97414 C 7.15 g/m*3 7.97 C 0 km/h
2016 02-11-2008 00:00:00 9.98772 C 7.86 g/m*3 9.99 C 0 km/h
2017 03-11-2008 00:00:00 9.82241 C 7.83 g/m*3 9.82 C 0 km/h
2018 04-11-2008 00:00:00 9.00351 C 7.82 g/m*3 9 C 0 km/h
2019 05-11-2008 00:00:00 9.79828 C 7.68 g/m*3 9.8 C 0 km/h
2020 06-11-2008 00:00:00 10.54483 C 7.37 g/m*3 10.54 C 0 km/h
2021 07-11-2008 00:00:00 10.79123 C 7.22 g/m*3 10.79 C 0 km/h
2022 08-11-2008 00:00:00 8.24828 C 6.77 g/m*3 8.25 C 0 km/h
2023 09-11-2008 00:00:00 8.89583 C 7.31 g/m*3 8.9 C 0 km/h
2024 10-11-2008 00:00:00 13.98833 C 7.91 g/m*3 13.99 C 0 km/h
2025 11-11-2008 00:00:00 12.73917 C 6.46 g/m*3 12.74 C 0 km/h
Sensor: Nr:Datum:Temp:Abs-Feuchte:Windchill:Wind:
Aussen-T/F 2026 12-11-2008 00:00:00 8.5175 C 6.56 g/m*3 8.52 C 0 km/h
2027 13-11-2008 00:00:00 6.40667 C 6.06 g/m*3 6.41 C 0 km/h
2028 14-11-2008 00:00:00 5.60833 C 5.47 g/m*3 5.61 C 0 km/h
2029 15-11-2008 00:00:00 9.82083 C 7.04 g/m*3 9.82 C 0 km/h
2030 16-11-2008 00:00:00 9.9375 C 7.83 g/m*3 9.94 C 0 km/h
2031 17-11-2008 00:00:00 4.03167 C 5.46 g/m*3 4.03 C 0 km/h
2032 18-11-2008 00:00:00 4.76417 C 5.59 g/m*3 4.76 C 0 km/h
2033 19-11-2008 00:00:00 7.7775 C 6.09 g/m*3 7.78 C 0 km/h
2034 20-11-2008 00:00:00 9.54 C 6.58 g/m*3 9.54 C 0 km/h
2035 21-11-2008 00:00:00 5.21083 C 5.22 g/m*3 5.21 C 0 km/h
2036 22-11-2008 00:00:00 1.08571 C 3.81 g/m*3 1.09 C 0 km/h
2037 23-11-2008 00:00:00 0.81333 C 4.11 g/m*3 0.81 C 0 km/h
2038 24-11-2008 00:00:00 1.92667 C 4.67 g/m*3 1.93 C 0 km/h
2039 25-11-2008 00:00:00 0.79667 C 4.51 g/m*3 0.8 C 0 km/h
2040 26-11-2008 00:00:00 2.38333 C 4.91 g/m*3 2.38 C 0 km/h
2041 27-11-2008 00:00:00 3.435 C 4.58 g/m*3 3.44 C 0 km/h
2042 28-11-2008 00:00:00 0.47667 C 3.78 g/m*3 0.48 C 0 km/h
2043 29-11-2008 00:00:00 0.98 C 4.13 g/m*3 0.98 C 0 km/h
2044 30-11-2008 00:00:00 1.12 C 4.72 g/m*3 1.12 C 0 km/h
2045 01-12-2008 00:00:00 0.30417 C 4.54 g/m*3 0.3 C 0 km/h
2046 02-12-2008 00:00:00 2.80917 C 4.97 g/m*3 2.81 C 0 km/h
2047 03-12-2008 00:00:00 1.785 C 4.91 g/m*3 1.79 C 0 km/h
2048 04-12-2008 00:00:00 1.92353 C 5.05 g/m*3 1.92 C 0 km/h
2049 05-12-2008 00:00:00 5.36 C 6.01 g/m*3 5.36 C 0 km/h
2050 06-12-2008 00:00:00 4.73 C 5.89 g/m*3 4.73 C 0 km/h
Sensor: Nr:Datum:Temp:Abs-Feuchte:Windchill:Wind:
Aussen-T/F 2051 07-12-2008 00:00:00 3.85333 C 5.78 g/m*3 3.85 C 0 km/h
2052 08-12-2008 00:00:00 0.26917 C 4.58 g/m*3 0.27 C 0 km/h
2053 09-12-2008 00:00:00 0.56667 C 4.36 g/m*3 0.57 C 0 km/h
2054 10-12-2008 00:00:00 1.97667 C 5.17 g/m*3 1.98 C 0 km/h
2055 11-12-2008 00:00:00 1.4775 C 4.54 g/m*3 1.48 C 0 km/h
2056 12-12-2008 00:00:00 -0.23583 C 3.8 g/m*3 -0.24 C 0 km/h
2057 13-12-2008 00:00:00 -0.26167 C 3.56 g/m*3 -0.26 C 0 km/h
2058 14-12-2008 00:00:00 0.28083 C 4.24 g/m*3 0.28 C 0 km/h
2059 15-12-2008 00:00:00 -0.1075 C 4.53 g/m*3 -0.11 C 0 km/h
2060 16-12-2008 00:00:00 0.42521 C 4.59 g/m*3 0.43 C 0 km/h
2061 17-12-2008 00:00:00 -0.0375 C 4.31 g/m*3 -0.04 C 0 km/h
2062 18-12-2008 00:00:00 2.15083 C 5.01 g/m*3 2.15 C 0 km/h
2063 19-12-2008 00:00:00 4.22333 C 5.23 g/m*3 4.22 C 0 km/h
2064 20-12-2008 00:00:00 6.45667 C 6.48 g/m*3 6.46 C 0 km/h
2065 21-12-2008 00:00:00 7.94917 C 6.81 g/m*3 7.95 C 0 km/h
2066 22-12-2008 00:00:00 8.47167 C 6.7 g/m*3 8.47 C 0 km/h
2067 23-12-2008 00:00:00 6.21417 C 5.86 g/m*3 6.21 C 0 km/h
2068 24-12-2008 00:00:00 4.55833 C 5.62 g/m*3 4.56 C 0 km/h
2069 25-12-2008 00:00:00 4.40252 C 4.56 g/m*3 4.4 C 0 km/h
2070 26-12-2008 00:00:00 -1.1875 C 2.6 g/m*3 -1.19 C 0 km/h
2071 27-12-2008 00:00:00 -1.85667 C 2.56 g/m*3 -1.86 C 0 km/h
2072 28-12-2008 00:00:00 -3.02917 C 2.53 g/m*3 -3.03 C 0 km/h
2073 29-12-2008 00:00:00 -5.49833 C 2.6 g/m*3 -5.5 C 0 km/h
2074 30-12-2008 00:00:00 -6.21833 C 2.53 g/m*3 -6.22 C 0 km/h
2075 31-12-2008 00:00:00 -4.32583 C 2.92 g/m*3 -4.33 C 0 km/h
Sensor: Nr:Datum:Temp:Abs-Feuchte:Windchill:Wind:
Aussen-T/F 2076 01-01-2009 00:00:00 -3.46417 C 2.96 g/m*3 -3.46 C 0 km/h
2077 02-01-2009 00:00:00 -2.03917 C 3.39 g/m*3 -2.04 C 0 km/h
2078 03-01-2009 00:00:00 -3.57 C 2.96 g/m*3 -3.57 C 0 km/h
2079 04-01-2009 00:00:00 -1.06833 C 2.96 g/m*3 -1.07 C 0 km/h
2080 05-01-2009 00:00:00 -1.23866 C 3.28 g/m*3 -1.24 C 0 km/h
2081 06-01-2009 00:00:00 -6.97 C 1.26 g/m*3 -6.97 C 0 km/h
2082 07-01-2009 00:00:00 -10.99167 C 1.39 g/m*3 -10.99 C 0 km/h
2083 08-01-2009 00:00:00 -6.02083 C 2.27 g/m*3 -6.02 C 0 km/h
2084 09-01-2009 00:00:00 -11.165 C 1.54 g/m*3 -11.17 C 0 km/h
2085 10-01-2009 00:00:00 -11.3175 C 1.53 g/m*3 -11.32 C 0 km/h
2086 11-01-2009 00:00:00 -8.9975 C 1.92 g/m*3 -9 C 0 km/h
2087 12-01-2009 00:00:00 -7.30417 C 2.15 g/m*3 -7.3 C 0 km/h
2088 13-01-2009 00:00:00 -0.17833 C 3.29 g/m*3 -0.18 C 0 km/h
2089 14-01-2009 00:00:00 -0.15917 C 4.05 g/m*3 -0.16 C 0 km/h
2090 15-01-2009 00:00:00 0.77417 C 4.28 g/m*3 0.77 C 0 km/h
2091 16-01-2009 00:00:00 0.69833 C 3.9 g/m*3 0.7 C 0 km/h
2092 17-01-2009 00:00:00 2.97833 C 4.9 g/m*3 2.98 C 0 km/h
2093 18-01-2009 00:00:00 4.50924 C 5.1 g/m*3 4.51 C 0 km/h
2094 19-01-2009 00:00:00 5.4575 C 5.21 g/m*3 5.46 C 0 km/h
2095 20-01-2009 00:00:00 3.6475 C 4.19 g/m*3 3.65 C 0 km/h
2096 21-01-2009 00:00:00 0.32 C 4.11 g/m*3 0.32 C 0 km/h
2097 22-01-2009 00:00:00 2.825 C 4.02 g/m*3 2.83 C 0 km/h
2098 23-01-2009 00:00:00 4.345 C 5.29 g/m*3 4.35 C 0 km/h
2099 24-01-2009 00:00:00 3.13 C 4.29 g/m*3 3.13 C 0 km/h
2100 25-01-2009 00:00:00 0.15167 C 4.08 g/m*3 0.15 C 0 km/h
Sensor: Nr:Datum:Temp:Abs-Feuchte:Windchill:Wind:
Aussen-T/F 2101 26-01-2009 00:00:00 -2.16917 C 3.69 g/m*3 -2.17 C 0 km/h
2102 27-01-2009 00:00:00 -0.93167 C 3.93 g/m*3 -0.93 C 0 km/h
2103 28-01-2009 00:00:00 0.50833 C 4.02 g/m*3 0.51 C 0 km/h
2104 29-01-2009 00:00:00 1.15667 C 3.12 g/m*3 1.16 C 0 km/h
2105 30-01-2009 00:00:00 -1.50917 C 3.06 g/m*3 -1.51 C 0 km/h
2106 31-01-2009 00:00:00 0.06303 C 2.59 g/m*3 0.06 C 0 km/h
2107 01-02-2009 00:00:00 -0.11167 C 2.24 g/m*3 -0.11 C 0 km/h
2108 02-02-2009 00:00:00 1.085 C 2.84 g/m*3 1.09 C 0 km/h
2109 03-02-2009 00:00:00 0.63833 C 3.81 g/m*3 0.64 C 0 km/h
2110 04-02-2009 00:00:00 3.0025 C 4.61 g/m*3 3 C 0 km/h
2111 05-02-2009 00:00:00 3.2325 C 4.69 g/m*3 3.23 C 0 km/h
2112 06-02-2009 00:00:00 4.3 C 5.03 g/m*3 4.3 C 0 km/h
2113 07-02-2009 00:00:00 4.03417 C 5.27 g/m*3 4.03 C 0 km/h
2114 08-02-2009 00:00:00 2.6525 C 3.3 g/m*3 2.65 C 0 km/h
2115 09-02-2009 00:00:00 2.3775 C 3.79 g/m*3 2.38 C 0 km/h
2116 10-02-2009 00:00:00 4.155 C 5.17 g/m*3 4.16 C 0 km/h
2117 11-02-2009 00:00:00 2.90333 C 3.62 g/m*3 2.9 C 0 km/h
2118 12-02-2009 00:00:00 0.68908 C 3.9 g/m*3 0.69 C 0 km/h
2119 13-02-2009 00:00:00 0.51333 C 4.05 g/m*3 0.51 C 0 km/h
2120 14-02-2009 00:00:00 0.46083 C 3.41 g/m*3 0.46 C 0 km/h
2121 15-02-2009 00:00:00 -1.63583 C 2.82 g/m*3 -1.64 C 0 km/h
2122 16-02-2009 00:00:00 1.96417 C 4.68 g/m*3 1.96 C 0 km/h
2123 17-02-2009 00:00:00 3.77167 C 5.13 g/m*3 3.77 C 0 km/h
2124 18-02-2009 00:00:00 -1.62667 C 2.39 g/m*3 -1.63 C 0 km/h
2125 19-02-2009 00:00:00 1.01417 C 2.7 g/m*3 1.01 C 0 km/h
Sensor: Nr:Datum:Temp:Abs-Feuchte:Windchill:Wind:
Aussen-T/F 2126 20-02-2009 00:00:00 3.41917 C 5.01 g/m*3 3.42 C 0 km/h
2127 21-02-2009 00:00:00 4.72083 C 4.87 g/m*3 4.72 C 0 km/h
2128 22-02-2009 00:00:00 5.24667 C 5.76 g/m*3 5.25 C 0 km/h
2129 23-02-2009 00:00:00 5.50083 C 4.72 g/m*3 5.5 C 0 km/h
2130 24-02-2009 00:00:00 4.8325 C 4.1 g/m*3 4.83 C 0 km/h
2131 25-02-2009 00:00:00 3.34286 C 4 g/m*3 3.34 C 0 km/h
2132 26-02-2009 00:00:00 6.7377 C 4.3 g/m*3 6.74 C 0 km/h
2133 27-02-2009 00:00:00 7.10417 C 5.5 g/m*3 7.1 C 0 km/h
2134 28-02-2009 00:00:00 10.0375 C 5.89 g/m*3 10.04 C 0 km/h
2135 01-03-2009 00:00:00 9.95 C 5.76 g/m*3 9.95 C 0 km/h
2136 02-03-2009 00:00:00 7.98 C 5.85 g/m*3 7.98 C 0 km/h
2137 03-03-2009 00:00:00 5.05583 C 3.94 g/m*3 5.06 C 0 km/h
2138 04-03-2009 00:00:00 7.27917 C 3.96 g/m*3 7.28 C 0 km/h
2139 05-03-2009 00:00:00 4.42917 C 5.35 g/m*3 4.43 C 0 km/h
2140 06-03-2009 00:00:00 3.82417 C 5.35 g/m*3 3.82 C 0 km/h
2141 07-03-2009 00:00:00 5.72167 C 3.85 g/m*3 5.72 C 0 km/h
2142 08-03-2009 00:00:00 7.50833 C 5.49 g/m*3 7.51 C 0 km/h
2143 09-03-2009 00:00:00 5.1521 C 4.17 g/m*3 5.15 C 0 km/h
2144 10-03-2009 00:00:00 5.4275 C 4.82 g/m*3 5.43 C 0 km/h
2145 11-03-2009 00:00:00 5.60417 C 4.35 g/m*3 5.6 C 0 km/h
2146 12-03-2009 00:00:00 5.67083 C 5.13 g/m*3 5.67 C 0 km/h
2147 13-03-2009 00:00:00 8.68167 C 5.63 g/m*3 8.68 C 0 km/h
2148 14-03-2009 00:00:00 8.925 C 5.68 g/m*3 8.93 C 0 km/h
2149 15-03-2009 00:00:00 9.41667 C 4.91 g/m*3 9.42 C 0 km/h
2150 16-03-2009 00:00:00 8.23417 C 5.83 g/m*3 8.23 C 0 km/h
Sensor: Nr:Datum:Temp:Abs-Feuchte:Windchill:Wind:
Aussen-T/F 2151 17-03-2009 00:00:00 7.73833 C 5.15 g/m*3 7.74 C 0 km/h
2152 18-03-2009 00:00:00 5.82417 C 3.93 g/m*3 5.82 C 0 km/h
2153 19-03-2009 00:00:00 5.41917 C 3.04 g/m*3 5.42 C 0 km/h
2154 20-03-2009 00:00:00 4.59917 C 2.69 g/m*3 4.6 C 0 km/h
2155 21-03-2009 00:00:00 5.07 C 2.81 g/m*3 5.07 C 0 km/h
2156 22-03-2009 00:00:00 5.16639 C 3.79 g/m*3 5.17 C 0 km/h
2157 23-03-2009 00:00:00 7.82917 C 4.91 g/m*3 7.83 C 0 km/h
2158 24-03-2009 00:00:00 3.67333 C 4.24 g/m*3 3.67 C 0 km/h
2159 25-03-2009 00:00:00 3.18417 C 4.69 g/m*3 3.18 C 0 km/h
2160 26-03-2009 00:00:00 6.40083 C 5.48 g/m*3 6.4 C 0 km/h
2161 27-03-2009 00:00:00 7.28333 C 5.31 g/m*3 7.28 C 0 km/h
2162 28-03-2009 00:00:00 6.97583 C 5.39 g/m*3 6.98 C 0 km/h
2163 29-03-2009 00:00:00 6.18435 C 4.96 g/m*3 6.18 C 0 km/h
2164 30-03-2009 00:00:00 6.41833 C 4.78 g/m*3 6.42 C 0 km/h
2165 31-03-2009 00:00:00 8.3325 C 4.49 g/m*3 8.33 C 0 km/h
2166 01-04-2009 00:00:00 10.89833 C 4.57 g/m*3 10.9 C 0 km/h
2167 02-04-2009 00:00:00 15.335 C 5.18 g/m*3 15.34 C 0 km/h
2168 03-04-2009 00:00:00 15.87143 C 6.71 g/m*3 15.87 C 0 km/h
2169 04-04-2009 00:00:00 16.68333 C 7.32 g/m*3 16.68 C 0 km/h
2170 05-04-2009 00:00:00 14.9675 C 6.93 g/m*3 14.97 C 0 km/h
2171 06-04-2009 00:00:00 14.72833 C 6.98 g/m*3 14.73 C 0 km/h
2172 07-04-2009 00:00:00 14.57333 C 7.41 g/m*3 14.57 C 0 km/h
2173 08-04-2009 00:00:00 14.20167 C 6.07 g/m*3 14.2 C 0 km/h
2174 09-04-2009 00:00:00 16.28067 C 7.49 g/m*3 16.28 C 0 km/h
2175 10-04-2009 00:00:00 18.55372 C 7.45 g/m*3 18.55 C 0 km/h
Sensor: Nr:Datum:Temp:Abs-Feuchte:Windchill:Wind:
Aussen-T/F 2176 11-04-2009 00:00:00 17.3525 C 7.29 g/m*3 17.35 C 0 km/h
2177 12-04-2009 00:00:00 16.79 C 8.39 g/m*3 16.79 C 0 km/h
2178 13-04-2009 00:00:00 15.65167 C 9.22 g/m*3 15.65 C 0 km/h
2179 14-04-2009 00:00:00 16.16167 C 8.27 g/m*3 16.16 C 0 km/h
2180 15-04-2009 00:00:00 16.94202 C 7.01 g/m*3 16.94 C 0 km/h
2181 16-04-2009 00:00:00 14.94583 C 6.79 g/m*3 14.95 C 0 km/h
2182 17-04-2009 00:00:00 10.0825 C 8.69 g/m*3 10.08 C 0 km/h
2183 18-04-2009 00:00:00 9.84 C 8.53 g/m*3 9.84 C 0 km/h
2184 19-04-2009 00:00:00 14.95667 C 7.61 g/m*3 14.96 C 0 km/h
2185 20-04-2009 00:00:00 15.16917 C 7.23 g/m*3 15.17 C 0 km/h
2186 21-04-2009 00:00:00 15.74583 C 6.35 g/m*3 15.75 C 0 km/h
2187 22-04-2009 00:00:00 13.68833 C 5.48 g/m*3 13.69 C 0 km/h
2188 23-04-2009 00:00:00 11.645 C 5.16 g/m*3 11.65 C 0 km/h
2189 24-04-2009 00:00:00 14.11333 C 5.96 g/m*3 14.11 C 0 km/h
2190 25-04-2009 00:00:00 14.64833 C 7.16 g/m*3 14.65 C 0 km/h
2191 26-04-2009 00:00:00 18.35 C 8.19 g/m*3 18.35 C 0 km/h
2192 27-04-2009 00:00:00 14.89496 C 7.27 g/m*3 14.89 C 0 km/h
2193 28-04-2009 00:00:00 11.07833 C 8.01 g/m*3 11.08 C 0 km/h
2194 29-04-2009 00:00:00 11.9025 C 7.14 g/m*3 11.9 C 0 km/h
2195 30-04-2009 00:00:00 12.85833 C 7.53 g/m*3 12.86 C 0 km/h
2196 01-05-2009 00:00:00 16.25583 C 8.09 g/m*3 16.26 C 0 km/h
2197 02-05-2009 00:00:00 17.60167 C 7.7 g/m*3 17.6 C 0 km/h
2198 03-05-2009 00:00:00 14.58333 C 7.12 g/m*3 14.58 C 0 km/h
2199 04-05-2009 00:00:00 11.88333 C 4.53 g/m*3 11.88 C 0 km/h
2200 05-05-2009 00:00:00 10.50917 C 6.68 g/m*3 10.51 C 0 km/h
Sensor: Nr:Datum:Temp:Abs-Feuchte:Windchill:Wind:
Aussen-T/F 2201 06-05-2009 00:00:00 13.85625 C 7.25 g/m*3 13.86 C 0 km/h
2202 07-05-2009 00:00:00 16.47708 C 7.43 g/m*3 16.48 C 0 km/h
2203 08-05-2009 00:00:00 16.58021 C 8.46 g/m*3 16.58 C 0 km/h
2204 09-05-2009 00:00:00 14.3875 C 8.01 g/m*3 14.39 C 0 km/h
2205 10-05-2009 00:00:00 17.72083 C 9.72 g/m*3 17.72 C 0 km/h
2206 11-05-2009 00:00:00 13.57188 C 11.06 g/m*3 13.57 C 0 km/h
2207 12-05-2009 00:00:00 11.83333 C 9.17 g/m*3 11.83 C 0 km/h
2208 13-05-2009 00:00:00 15.51771 C 8.96 g/m*3 15.52 C 0 km/h
2209 14-05-2009 00:00:00 16.00104 C 9.44 g/m*3 16 C 0 km/h
2210 15-05-2009 00:00:00 15.12255 C 10.34 g/m*3 15.12 C 0 km/h
2211 16-05-2009 00:00:00 13.80333 C 7.38 g/m*3 13.8 C 0 km/h
2212 17-05-2009 00:00:00 17.02083 C 7.92 g/m*3 17.02 C 0 km/h
2213 18-05-2009 00:00:00 16.95083 C 6.63 g/m*3 16.95 C 0 km/h
2214 19-05-2009 00:00:00 16.49333 C 7.85 g/m*3 16.49 C 0 km/h
2215 20-05-2009 00:00:00 18.70167 C 9.55 g/m*3 18.7 C 0 km/h
2216 21-05-2009 00:00:00 19.21167 C 10.72 g/m*3 19.21 C 0 km/h
2217 22-05-2009 00:00:00 17.97917 C 7.45 g/m*3 17.98 C 0 km/h
2218 23-05-2009 00:00:00 18.72083 C 7.4 g/m*3 18.72 C 0 km/h
2219 24-05-2009 00:00:00 22.53417 C 9.1 g/m*3 22.53 C 0 km/h
2220 25-05-2009 00:00:00 23.49833 C 10.6 g/m*3 23.5 C 0 km/h
2221 26-05-2009 00:00:00 19.86583 C 9.97 g/m*3 19.87 C 0 km/h
2222 27-05-2009 00:00:00 14.4425 C 6.18 g/m*3 14.44 C 0 km/h
2223 28-05-2009 00:00:00 15.5325 C 8.21 g/m*3 15.53 C 0 km/h
2224 29-05-2009 00:00:00 17.81765 C 6.76 g/m*3 17.82 C 0 km/h
2225 30-05-2009 00:00:00 18.43417 C 6.45 g/m*3 18.43 C 0 km/h
Sensor: Nr:Datum:Temp:Abs-Feuchte:Windchill:Wind:
Aussen-T/F 2226 31-05-2009 00:00:00 20.3075 C 7.55 g/m*3 20.31 C 0 km/h
2227 01-06-2009 00:00:00 19.42541 C 9.1 g/m*3 19.43 C 0 km/h
2228 02-06-2009 00:00:00 19.91917 C 8.16 g/m*3 19.92 C 0 km/h
2229 03-06-2009 00:00:00 16.3775 C 5.31 g/m*3 16.38 C 0 km/h
2230 04-06-2009 00:00:00 13.435 C 4.59 g/m*3 13.44 C 0 km/h
2231 05-06-2009 00:00:00 13.4075 C 5 g/m*3 13.41 C 0 km/h
2232 06-06-2009 00:00:00 9.18333 C 7.41 g/m*3 9.18 C 0 km/h
2233 07-06-2009 00:00:00 13.71083 C 8.43 g/m*3 13.71 C 0 km/h
2234 08-06-2009 00:00:00 16.58667 C 7.38 g/m*3 16.59 C 0 km/h
2235 09-06-2009 00:00:00 17.9275 C 9.37 g/m*3 17.93 C 0 km/h
2236 10-06-2009 00:00:00 17.24454 C 8.99 g/m*3 17.24 C 0 km/h
2237 11-06-2009 00:00:00 14.60417 C 9.26 g/m*3 14.6 C 0 km/h
2238 12-06-2009 00:00:00 15.915 C 7.28 g/m*3 15.92 C 0 km/h
2239 13-06-2009 00:00:00 18.29417 C 7.64 g/m*3 18.29 C 0 km/h
2240 14-06-2009 00:00:00 20.3875 C 10.19 g/m*3 20.39 C 0 km/h
2241 15-06-2009 00:00:00 16.76083 C 12.71 g/m*3 16.76 C 0 km/h
2242 16-06-2009 00:00:00 16.58083 C 9.69 g/m*3 16.58 C 0 km/h
2243 17-06-2009 00:00:00 19.89 C 9.38 g/m*3 19.89 C 0 km/h
2244 18-06-2009 00:00:00 19.45417 C 10.3 g/m*3 19.45 C 0 km/h
2245 19-06-2009 00:00:00 18.45583 C 7.96 g/m*3 18.46 C 0 km/h
2246 20-06-2009 00:00:00 13.84583 C 7.89 g/m*3 13.85 C 0 km/h
2247 21-06-2009 00:00:00 13.40167 C 8.61 g/m*3 13.4 C 0 km/h
2248 22-06-2009 00:00:00 15.23697 C 7.62 g/m*3 15.24 C 0 km/h
2249 23-06-2009 00:00:00 18.58583 C 7.92 g/m*3 18.59 C 0 km/h
2250 24-06-2009 00:00:00 22.29167 C 7.85 g/m*3 22.29 C 0 km/h
Sensor: Nr:Datum:Temp:Abs-Feuchte:Windchill:Wind:
Aussen-T/F 2251 25-06-2009 00:00:00 24.10583 C 9.67 g/m*3 24.11 C 0 km/h
2252 26-06-2009 00:00:00 24.31083 C 10.7 g/m*3 24.31 C 0 km/h
2253 27-06-2009 00:00:00 22.1625 C 12.54 g/m*3 22.16 C 0 km/h
2254 28-06-2009 00:00:00 25.04417 C 11.78 g/m*3 25.04 C 0 km/h
2255 29-06-2009 00:00:00 24.71583 C 12 g/m*3 24.72 C 0 km/h
2256 30-06-2009 00:00:00 22.55083 C 13.98 g/m*3 22.55 C 0 km/h
2257 01-07-2009 00:00:00 23.6175 C 13.73 g/m*3 23.62 C 0 km/h
2258 02-07-2009 00:00:00 25.95917 C 12.87 g/m*3 25.96 C 0 km/h
2259 03-07-2009 00:00:00 23.36083 C 13.72 g/m*3 23.36 C 0 km/h
2260 04-07-2009 00:00:00 24.17479 C 11.83 g/m*3 24.17 C 0 km/h
2261 05-07-2009 00:00:00 23.89917 C 11.07 g/m*3 23.9 C 0 km/h
2262 06-07-2009 00:00:00 21.82333 C 11.98 g/m*3 21.82 C 0 km/h
2263 07-07-2009 00:00:00 18.7625 C 10.11 g/m*3 18.76 C 0 km/h
2264 08-07-2009 00:00:00 16.39 C 9.61 g/m*3 16.39 C 0 km/h
2265 09-07-2009 00:00:00 16.38583 C 8.58 g/m*3 16.39 C 0 km/h
2266 10-07-2009 00:00:00 15.17083 C 7.78 g/m*3 15.17 C 0 km/h
2267 11-07-2009 00:00:00 17.55667 C 8.2 g/m*3 17.56 C 0 km/h
2268 12-07-2009 00:00:00 19.3525 C 10.57 g/m*3 19.35 C 0 km/h
2269 13-07-2009 00:00:00 21.76917 C 12.23 g/m*3 21.77 C 0 km/h
2270 14-07-2009 00:00:00 23.4 C 13.46 g/m*3 23.4 C 0 km/h
2271 15-07-2009 00:00:00 24.0475 C 10.2 g/m*3 24.05 C 0 km/h
2272 16-07-2009 00:00:00 23.37479 C 9.98 g/m*3 23.37 C 0 km/h
2273 17-07-2009 00:00:00 20.90917 C 9.78 g/m*3 20.91 C 0 km/h
2274 18-07-2009 00:00:00 17.575 C 8.46 g/m*3 17.58 C 0 km/h
2275 19-07-2009 00:00:00 17.92167 C 8.71 g/m*3 17.92 C 0 km/h
Sensor: Nr:Datum:Temp:Abs-Feuchte:Windchill:Wind:
Aussen-T/F 2276 20-07-2009 00:00:00 19.82583 C 7.87 g/m*3 19.83 C 0 km/h
2277 21-07-2009 00:00:00 23.22833 C 11.03 g/m*3 23.23 C 0 km/h
2278 22-07-2009 00:00:00 25.10583 C 12 g/m*3 25.11 C 0 km/h
2279 23-07-2009 00:00:00 22.65417 C 12.31 g/m*3 22.65 C 0 km/h
2280 24-07-2009 00:00:00 20.33167 C 9.89 g/m*3 20.33 C 0 km/h
2281 25-07-2009 00:00:00 18.03083 C 9.21 g/m*3 18.03 C 0 km/h
2282 26-07-2009 00:00:00 19.94833 C 9.75 g/m*3 19.95 C 0 km/h
2283 27-07-2009 00:00:00 20.60667 C 10.4 g/m*3 20.61 C 0 km/h
2284 28-07-2009 00:00:00 20.41513 C 8.48 g/m*3 20.42 C 0 km/h
2285 29-07-2009 00:00:00 21.77833 C 9.2 g/m*3 21.78 C 0 km/h
2286 30-07-2009 00:00:00 21.10583 C 8.72 g/m*3 21.11 C 0 km/h
2287 31-07-2009 00:00:00 20.32583 C 7.51 g/m*3 20.33 C 0 km/h
2288 01-08-2009 00:00:00 22.455 C 8.67 g/m*3 22.46 C 0 km/h
2289 02-08-2009 00:00:00 20.47167 C 10.91 g/m*3 20.47 C 0 km/h
2290 03-08-2009 00:00:00 19.3075 C 9.46 g/m*3 19.31 C 0 km/h
2291 04-08-2009 00:00:00 20.48917 C 8.95 g/m*3 20.49 C 0 km/h
2292 05-08-2009 00:00:00 22.0275 C 8.17 g/m*3 22.03 C 0 km/h
2293 06-08-2009 00:00:00 24.19667 C 9.51 g/m*3 24.2 C 0 km/h
2294 07-08-2009 00:00:00 25.2075 C 10.12 g/m*3 25.21 C 0 km/h
2295 08-08-2009 00:00:00 21.22583 C 12.28 g/m*3 21.23 C 0 km/h
2296 09-08-2009 00:00:00 22.82101 C 12.15 g/m*3 22.82 C 0 km/h
2297 10-08-2009 00:00:00 21.7025 C 11.79 g/m*3 21.7 C 0 km/h
2298 11-08-2009 00:00:00 20.44 C 11.61 g/m*3 20.44 C 0 km/h
2299 12-08-2009 00:00:00 20.9725 C 11.23 g/m*3 20.97 C 0 km/h
2300 13-08-2009 00:00:00 18.55917 C 12.82 g/m*3 18.56 C 0 km/h
Sensor: Nr:Datum:Temp:Abs-Feuchte:Windchill:Wind:
Aussen-T/F 2301 14-08-2009 00:00:00 19.44083 C 10.85 g/m*3 19.44 C 0 km/h
2302 15-08-2009 00:00:00 21.37917 C 10.5 g/m*3 21.38 C 0 km/h
2303 16-08-2009 00:00:00 23.84583 C 11 g/m*3 23.85 C 0 km/h
2304 17-08-2009 00:00:00 23.615 C 11.27 g/m*3 23.62 C 0 km/h
2305 18-08-2009 00:00:00 22.105 C 9.45 g/m*3 22.11 C 0 km/h
2306 19-08-2009 00:00:00 23.76 C 10.14 g/m*3 23.76 C 0 km/h
2307 20-08-2009 00:00:00 26.03167 C 11.39 g/m*3 26.03 C 0 km/h
2308 21-08-2009 00:00:00 20.32185 C 10.69 g/m*3 20.32 C 0 km/h
2309 22-08-2009 00:00:00 19.745 C 9.13 g/m*3 19.75 C 0 km/h
2310 23-08-2009 00:00:00 20.0375 C 8.31 g/m*3 20.04 C 0 km/h
2311 24-08-2009 00:00:00 22.19667 C 9.27 g/m*3 22.2 C 0 km/h
2312 25-08-2009 00:00:00 23.11917 C 10.67 g/m*3 23.12 C 0 km/h
2313 26-08-2009 00:00:00 21.68417 C 9.77 g/m*3 21.68 C 0 km/h
2314 27-08-2009 00:00:00 23.10167 C 10.48 g/m*3 23.1 C 0 km/h
2315 28-08-2009 00:00:00 21.60583 C 8.45 g/m*3 21.61 C 0 km/h
2316 29-08-2009 00:00:00 16.21167 C 6.62 g/m*3 16.21 C 0 km/h
2317 30-08-2009 00:00:00 16.655 C 6.94 g/m*3 16.66 C 0 km/h
2318 31-08-2009 00:00:00 19.54667 C 7.6 g/m*3 19.55 C 0 km/h
2319 01-09-2009 00:00:00 19.93167 C 10.19 g/m*3 19.93 C 0 km/h
2320 02-09-2009 00:00:00 18.765 C 9.38 g/m*3 18.77 C 0 km/h
2321 03-09-2009 00:00:00 17.39328 C 8.67 g/m*3 17.39 C 0 km/h
2322 04-09-2009 00:00:00 14.56333 C 8.22 g/m*3 14.56 C 0 km/h
2323 05-09-2009 00:00:00 15.10833 C 7.6 g/m*3 15.11 C 0 km/h
2324 06-09-2009 00:00:00 14.74583 C 8.27 g/m*3 14.75 C 0 km/h
2325 07-09-2009 00:00:00 17.63417 C 8.91 g/m*3 17.63 C 0 km/h
Sensor: Nr:Datum:Temp:Abs-Feuchte:Windchill:Wind:
Aussen-T/F 2326 08-09-2009 00:00:00 19.88167 C 9.54 g/m*3 19.88 C 0 km/h
2327 09-09-2009 00:00:00 19.7475 C 9.47 g/m*3 19.75 C 0 km/h
2328 10-09-2009 00:00:00 18.43917 C 10.33 g/m*3 18.44 C 0 km/h
2329 11-09-2009 00:00:00 17.6725 C 7.37 g/m*3 17.67 C 0 km/h
2330 12-09-2009 00:00:00 16.99083 C 7.3 g/m*3 16.99 C 0 km/h
2331 13-09-2009 00:00:00 14.23 C 8.62 g/m*3 14.23 C 0 km/h
2332 14-09-2009 00:00:00 12.17417 C 10.1 g/m*3 12.17 C 0 km/h
2333 15-09-2009 00:00:00 13.7563 C 10.75 g/m*3 13.76 C 0 km/h
2334 16-09-2009 00:00:00 16.725 C 11.49 g/m*3 16.73 C 0 km/h
2335 17-09-2009 00:00:00 18.47583 C 9.96 g/m*3 18.48 C 0 km/h
2336 18-09-2009 00:00:00 18.26083 C 9.85 g/m*3 18.26 C 0 km/h
2337 19-09-2009 00:00:00 20.78583 C 11.08 g/m*3 20.79 C 0 km/h
2338 20-09-2009 00:00:00 19.92833 C 11.89 g/m*3 19.93 C 0 km/h
2339 21-09-2009 00:00:00 18.85833 C 10.75 g/m*3 18.86 C 0 km/h
2340 22-09-2009 00:00:00 17.215 C 9.52 g/m*3 17.22 C 0 km/h
2341 23-09-2009 00:00:00 17.4225 C 9.72 g/m*3 17.42 C 0 km/h
2342 24-09-2009 00:00:00 17.19 C 10.45 g/m*3 17.19 C 0 km/h
2343 25-09-2009 00:00:00 15.16083 C 8.71 g/m*3 15.16 C 0 km/h
2344 26-09-2009 00:00:00 14.56333 C 8.19 g/m*3 14.56 C 0 km/h
2345 27-09-2009 00:00:00 14.64 C 8.22 g/m*3 14.64 C 0 km/h
2346 28-09-2009 00:00:00 14.21583 C 8.47 g/m*3 14.22 C 0 km/h
2347 29-09-2009 00:00:00 15.88319 C 8.68 g/m*3 15.88 C 0 km/h
2348 30-09-2009 00:00:00 16.535 C 9.98 g/m*3 16.54 C 0 km/h
2349 01-10-2009 00:00:00 14.71583 C 8.88 g/m*3 14.72 C 0 km/h
2350 02-10-2009 00:00:00 11.32167 C 6.59 g/m*3 11.32 C 0 km/h
Sensor: Nr:Datum:Temp:Abs-Feuchte:Windchill:Wind:
Aussen-T/F 2351 03-10-2009 00:00:00 11.72333 C 6.76 g/m*3 11.72 C 0 km/h
2352 04-10-2009 00:00:00 13.54167 C 7.94 g/m*3 13.54 C 0 km/h
2353 05-10-2009 00:00:00 12.4075 C 9.99 g/m*3 12.41 C 0 km/h
2354 06-10-2009 00:00:00 16.13417 C 12.08 g/m*3 16.13 C 0 km/h
2355 07-10-2009 00:00:00 19.57083 C 12.9 g/m*3 19.57 C 0 km/h
2356 08-10-2009 00:00:00 16.41167 C 9.99 g/m*3 16.41 C 0 km/h
2357 09-10-2009 00:00:00 11.88417 C 7.56 g/m*3 11.88 C 0 km/h
2358 10-10-2009 00:00:00 13.34667 C 9.66 g/m*3 13.35 C 0 km/h
2359 11-10-2009 00:00:00 12.35042 C 8.83 g/m*3 12.35 C 0 km/h
2360 12-10-2009 00:00:00 10.9275 C 6.43 g/m*3 10.93 C 0 km/h
2361 13-10-2009 00:00:00 9.24333 C 6.35 g/m*3 9.24 C 0 km/h
2362 14-10-2009 00:00:00 4.27333 C 4.38 g/m*3 4.27 C 0 km/h
2363 15-10-2009 00:00:00 3.45583 C 4.18 g/m*3 3.46 C 0 km/h
2364 16-10-2009 00:00:00 6.41083 C 5.8 g/m*3 6.41 C 0 km/h
2365 17-10-2009 00:00:00 8.52083 C 5.63 g/m*3 8.52 C 0 km/h
2366 18-10-2009 00:00:00 7.3775 C 5.38 g/m*3 7.38 C 0 km/h
2367 19-10-2009 00:00:00 4.59 C 4.71 g/m*3 4.59 C 0 km/h
2368 20-10-2009 00:00:00 5.17083 C 4.82 g/m*3 5.17 C 0 km/h
2369 21-10-2009 00:00:00 8.07333 C 5.02 g/m*3 8.07 C 0 km/h
2370 22-10-2009 00:00:00 9.4 C 5.91 g/m*3 9.4 C 0 km/h
2371 23-10-2009 00:00:00 8.34 C 7.02 g/m*3 8.34 C 0 km/h
2372 24-10-2009 00:00:00 10.5084 C 7.81 g/m*3 10.51 C 0 km/h
2373 25-10-2009 00:00:00 12.6096 C 8.4 g/m*3 12.61 C 0 km/h
2374 26-10-2009 00:00:00 11.8875 C 7.56 g/m*3 11.89 C 0 km/h
2375 27-10-2009 00:00:00 11.82417 C 7.63 g/m*3 11.82 C 0 km/h
Sensor: Nr:Datum:Temp:Abs-Feuchte:Windchill:Wind:
Aussen-T/F 2376 28-10-2009 00:00:00 8.37917 C 7.06 g/m*3 8.38 C 0 km/h
2377 29-10-2009 00:00:00 8.69333 C 7.48 g/m*3 8.69 C 0 km/h
2378 30-10-2009 00:00:00 10.54083 C 7.59 g/m*3 10.54 C 0 km/h
2379 31-10-2009 00:00:00 7.03083 C 5.82 g/m*3 7.03 C 0 km/h
2380 01-11-2009 00:00:00 9.17333 C 6.74 g/m*3 9.17 C 0 km/h
2381 02-11-2009 00:00:00 10.32333 C 8.29 g/m*3 10.32 C 0 km/h
2382 03-11-2009 00:00:00 8.06167 C 6.19 g/m*3 8.06 C 0 km/h
2383 04-11-2009 00:00:00 8.75 C 7.01 g/m*3 8.75 C 0 km/h
2384 05-11-2009 00:00:00 9.29748 C 6.2 g/m*3 9.3 C 0 km/h
2385 06-11-2009 00:00:00 9.43333 C 6.28 g/m*3 9.43 C 0 km/h
2386 07-11-2009 00:00:00 8.11583 C 5.94 g/m*3 8.12 C 0 km/h
2387 08-11-2009 00:00:00 6.9 C 6.33 g/m*3 6.9 C 0 km/h
2388 09-11-2009 00:00:00 6.21167 C 6.26 g/m*3 6.21 C 0 km/h
2389 10-11-2009 00:00:00 6.03 C 6.79 g/m*3 6.03 C 0 km/h
2390 11-11-2009 00:00:00 6.2525 C 6.18 g/m*3 6.25 C 0 km/h
2391 12-11-2009 00:00:00 4.66 C 6.06 g/m*3 4.66 C 0 km/h
2392 13-11-2009 00:00:00 11.27583 C 8.27 g/m*3 11.28 C 0 km/h
2393 14-11-2009 00:00:00 11.7125 C 7.87 g/m*3 11.71 C 0 km/h
2394 15-11-2009 00:00:00 11.2125 C 6.89 g/m*3 11.21 C 0 km/h
2395 16-11-2009 00:00:00 10.92667 C 8.53 g/m*3 10.93 C 0 km/h
2396 17-11-2009 00:00:00 10.88235 C 8.48 g/m*3 10.88 C 0 km/h
2397 18-11-2009 00:00:00 10.245 C 6.24 g/m*3 10.25 C 0 km/h
2398 19-11-2009 00:00:00 9.77667 C 6.57 g/m*3 9.78 C 0 km/h
2399 20-11-2009 00:00:00 7.87917 C 6.83 g/m*3 7.88 C 0 km/h
2400 21-11-2009 00:00:00 11.67333 C 7.8 g/m*3 11.67 C 0 km/h
Sensor: Nr:Datum:Temp:Abs-Feuchte:Windchill:Wind:
Aussen-T/F 2401 22-11-2009 00:00:00 11.84167 C 6.48 g/m*3 11.84 C 0 km/h
2402 23-11-2009 00:00:00 10.33417 C 6.93 g/m*3 10.33 C 0 km/h
2403 24-11-2009 00:00:00 11.89833 C 7.31 g/m*3 11.9 C 0 km/h
2404 25-11-2009 00:00:00 12.0875 C 6.36 g/m*3 12.09 C 0 km/h
2405 26-11-2009 00:00:00 9.98917 C 5.73 g/m*3 9.99 C 0 km/h
2406 27-11-2009 00:00:00 9.0425 C 5.58 g/m*3 9.04 C 0 km/h
2407 28-11-2009 00:00:00 8.79 C 5.95 g/m*3 8.79 C 0 km/h
2408 29-11-2009 00:00:00 9.41597 C 6.1 g/m*3 9.42 C 0 km/h
2409 30-11-2009 00:00:00 6.46 C 6.32 g/m*3 6.46 C 0 km/h
2410 01-12-2009 00:00:00 5.65583 C 5.93 g/m*3 5.66 C 0 km/h
2411 02-12-2009 00:00:00 5.96 C 5.22 g/m*3 5.96 C 0 km/h
2412 03-12-2009 00:00:00 8.53667 C 6.07 g/m*3 8.54 C 0 km/h
2413 04-12-2009 00:00:00 4.73917 C 4.37 g/m*3 4.74 C 0 km/h
2414 05-12-2009 00:00:00 5.3975 C 5.13 g/m*3 5.4 C 0 km/h
2415 06-12-2009 00:00:00 9.83 C 7.53 g/m*3 9.83 C 0 km/h
2416 07-12-2009 00:00:00 5.59917 C 6.01 g/m*3 5.6 C 0 km/h
2417 08-12-2009 00:00:00 6.95833 C 6.27 g/m*3 6.96 C 0 km/h
2418 09-12-2009 00:00:00 7.2525 C 6.19 g/m*3 7.25 C 0 km/h
2419 10-12-2009 00:00:00 8.78583 C 6.99 g/m*3 8.79 C 0 km/h
2420 11-12-2009 00:00:00 6.665 C 6.16 g/m*3 6.67 C 0 km/h
2421 12-12-2009 00:00:00 3.47833 C 5.29 g/m*3 3.48 C 0 km/h
2422 13-12-2009 00:00:00 1.50924 C 3.54 g/m*3 1.51 C 0 km/h
2423 14-12-2009 00:00:00 -0.80667 C 2.67 g/m*3 -0.81 C 0 km/h
2424 15-12-2009 00:00:00 -0.50083 C 2.88 g/m*3 -0.5 C 0 km/h
2425 16-12-2009 00:00:00 -1.19917 C 2.79 g/m*3 -1.2 C 0 km/h
Sensor: Nr:Datum:Temp:Abs-Feuchte:Windchill:Wind:
Aussen-T/F 2426 17-12-2009 00:00:00 -4.445 C 2.62 g/m*3 -4.45 C 0 km/h
2427 18-12-2009 00:00:00 -5.04417 C 2.34 g/m*3 -5.04 C 0 km/h
2428 19-12-2009 00:00:00 -12.79 C 1.12 g/m*3 -12.79 C 0 km/h
2429 20-12-2009 00:00:00 -8.03917 C 1.87 g/m*3 -8.04 C 0 km/h
2430 21-12-2009 00:00:00 -2.18417 C 3.25 g/m*3 -2.18 C 0 km/h
2431 22-12-2009 00:00:00 2.7175 C 5.09 g/m*3 2.72 C 0 km/h
2432 23-12-2009 00:00:00 0.49333 C 4.68 g/m*3 0.49 C 0 km/h
2433 24-12-2009 00:00:00 2.31333 C 5.15 g/m*3 2.31 C 0 km/h
2434 25-12-2009 00:00:00 4.38824 C 5.08 g/m*3 4.39 C 0 km/h
2435 26-12-2009 00:00:00 2.04583 C 4.45 g/m*3 2.05 C 0 km/h
2436 27-12-2009 00:00:00 0.5475 C 4.38 g/m*3 0.55 C 0 km/h
2437 28-12-2009 00:00:00 3.1425 C 4.49 g/m*3 3.14 C 0 km/h
2438 29-12-2009 00:00:00 0.4625 C 4.61 g/m*3 0.46 C 0 km/h
2439 30-12-2009 00:00:00 7.05667 C 7.27 g/m*3 7.06 C 0 km/h
2440 31-12-2009 00:00:00 5.32667 C 6.59 g/m*3 5.33 C 0 km/h
2441 01-01-2010 00:00:00 -0.1725 C 4.38 g/m*3 -0.17 C 0 km/h
2442 02-01-2010 00:00:00 -1.51083 C 3.34 g/m*3 -1.51 C 0 km/h
2443 03-01-2010 00:00:00 -1.79667 C 3.45 g/m*3 -1.8 C 0 km/h
2444 04-01-2010 00:00:00 -5.24083 C 2.41 g/m*3 -5.24 C 0 km/h
2445 05-01-2010 00:00:00 -8.00083 C 2.22 g/m*3 -8 C 0 km/h
2446 06-01-2010 00:00:00 -6.88917 C 2.25 g/m*3 -6.89 C 0 km/h
2447 07-01-2010 00:00:00 -3.75966 C 2.79 g/m*3 -3.76 C 0 km/h
2448 08-01-2010 00:00:00 -4.82167 C 2.54 g/m*3 -4.82 C 0 km/h
2449 09-01-2010 00:00:00 -2.655 C 3.05 g/m*3 -2.66 C 0 km/h
2450 10-01-2010 00:00:00 -1.87083 C 3.27 g/m*3 -1.87 C 0 km/h
Sensor: Nr:Datum:Temp:Abs-Feuchte:Windchill:Wind:
Aussen-T/F 2451 11-01-2010 00:00:00 -1.42833 C 3.62 g/m*3 -1.43 C 0 km/h
2452 12-01-2010 00:00:00 -1.65833 C 3.4 g/m*3 -1.66 C 0 km/h
2453 13-01-2010 00:00:00 -2.2325 C 2.99 g/m*3 -2.23 C 0 km/h
2454 14-01-2010 00:00:00 0.35417 C 3.98 g/m*3 0.35 C 0 km/h
2455 15-01-2010 00:00:00 0.87333 C 4.07 g/m*3 0.87 C 0 km/h
2456 16-01-2010 00:00:00 -0.11833 C 3.75 g/m*3 -0.12 C 0 km/h
2457 17-01-2010 00:00:00 2.09667 C 5.1 g/m*3 2.1 C 0 km/h
2458 18-01-2010 00:00:00 3.38333 C 5.07 g/m*3 3.38 C 0 km/h
2459 19-01-2010 00:00:00 2.24583 C 5.1 g/m*3 2.25 C 0 km/h
2460 20-01-2010 00:00:00 1.97417 C 4.66 g/m*3 1.97 C 0 km/h
2461 21-01-2010 00:00:00 2.45126 C 4.02 g/m*3 2.45 C 0 km/h
2462 22-01-2010 00:00:00 2.93667 C 4.24 g/m*3 2.94 C 0 km/h
2463 23-01-2010 00:00:00 -0.41333 C 3.36 g/m*3 -0.41 C 0 km/h
2464 24-01-2010 00:00:00 0.27167 C 4.06 g/m*3 0.27 C 0 km/h
2465 25-01-2010 00:00:00 0.01667 C 4.19 g/m*3 0.02 C 0 km/h
2466 26-01-2010 00:00:00 -3.325 C 2.8 g/m*3 -3.33 C 0 km/h
2467 27-01-2010 00:00:00 -5.54083 C 2.18 g/m*3 -5.54 C 0 km/h
2468 28-01-2010 00:00:00 1.20667 C 4.04 g/m*3 1.21 C 0 km/h
2469 29-01-2010 00:00:00 1.39083 C 4.5 g/m*3 1.39 C 0 km/h
2470 30-01-2010 00:00:00 -1.54583 C 3.39 g/m*3 -1.55 C 0 km/h
2471 31-01-2010 00:00:00 -1.62333 C 3.2 g/m*3 -1.62 C 0 km/h
2472 01-02-2010 00:00:00 0.20167 C 3.69 g/m*3 0.2 C 0 km/h
2473 02-02-2010 00:00:00 0.69916 C 4 g/m*3 0.7 C 0 km/h
2474 03-02-2010 00:00:00 2.28899 C 5.05 g/m*3 2.29 C 0 km/h
2475 04-02-2010 00:00:00 4.17018 C 5.55 g/m*3 4.17 C 0 km/h
Sensor: Nr:Datum:Temp:Abs-Feuchte:Windchill:Wind:
Aussen-T/F 2476 05-02-2010 00:00:00 3.29649 C 4.9 g/m*3 3.3 C 0 km/h
2477 06-02-2010 00:00:00 4.55172 C 5.47 g/m*3 4.55 C 0 km/h
2478 07-02-2010 00:00:00 4.17018 C 5.02 g/m*3 4.17 C 0 km/h
2479 08-02-2010 00:00:00 -0.75 C 2.85 g/m*3 -0.75 C 0 km/h
2480 09-02-2010 00:00:00 -3.74483 C 2.17 g/m*3 -3.74 C 0 km/h
2481 10-02-2010 00:00:00 -4.8 C 2.32 g/m*3 -4.8 C 0 km/h
2482 11-02-2010 00:00:00 -3.79828 C 2.62 g/m*3 -3.8 C 0 km/h
2483 12-02-2010 00:00:00 -2.14737 C 2.95 g/m*3 -2.15 C 0 km/h
2484 13-02-2010 00:00:00 -2.57414 C 2.82 g/m*3 -2.57 C 0 km/h
2485 14-02-2010 00:00:00 -2.13621 C 3.1 g/m*3 -2.14 C 0 km/h
2486 15-02-2010 00:00:00 -1.12632 C 3.21 g/m*3 -1.13 C 0 km/h
2487 16-02-2010 00:00:00 -1.16379 C 3.02 g/m*3 -1.16 C 0 km/h
2488 17-02-2010 00:00:00 -1.61754 C 3.18 g/m*3 -1.62 C 0 km/h
2489 18-02-2010 00:00:00 3.2569 C 4.56 g/m*3 3.26 C 0 km/h
2490 19-02-2010 00:00:00 3.59375 C 4.12 g/m*3 3.59 C 0 km/h
2491 20-02-2010 00:00:00 1.69333 C 3.53 g/m*3 1.69 C 0 km/h
2492 21-02-2010 00:00:00 2.87833 C 4.25 g/m*3 2.88 C 0 km/h
2493 22-02-2010 00:00:00 6.76417 C 5.24 g/m*3 6.76 C 0 km/h
2494 23-02-2010 00:00:00 9.7875 C 7.07 g/m*3 9.79 C 0 km/h
2495 24-02-2010 00:00:00 9.55 C 6.5 g/m*3 9.55 C 0 km/h
2496 25-02-2010 00:00:00 9.58 C 5.92 g/m*3 9.58 C 0 km/h
2497 26-02-2010 00:00:00 8.62667 C 5.33 g/m*3 8.63 C 0 km/h
2498 27-02-2010 00:00:00 8.4025 C 4.07 g/m*3 8.4 C 0 km/h
2499 28-02-2010 00:00:00 8.30667 C 5.5 g/m*3 8.31 C 0 km/h
2500 01-03-2010 00:00:00 5.40917 C 3.85 g/m*3 5.41 C 0 km/h
Sensor: Nr:Datum:Temp:Abs-Feuchte:Windchill:Wind:
Aussen-T/F 2501 02-03-2010 00:00:00 3.135 C 3.87 g/m*3 3.14 C 0 km/h
2502 03-03-2010 00:00:00 2.9925 C 3.33 g/m*3 2.99 C 0 km/h
2503 04-03-2010 00:00:00 2.47395 C 2.67 g/m*3 2.47 C 0 km/h
2504 05-03-2010 00:00:00 0.77667 C 2.41 g/m*3 0.78 C 0 km/h
2505 06-03-2010 00:00:00 -0.47083 C 3.38 g/m*3 -0.47 C 0 km/h
2506 07-03-2010 00:00:00 -1.6825 C 2.27 g/m*3 -1.68 C 0 km/h
2507 08-03-2010 00:00:00 -1.21083 C 1.92 g/m*3 -1.21 C 0 km/h
2508 09-03-2010 00:00:00 -0.87167 C 1.76 g/m*3 -0.87 C 0 km/h
2509 10-03-2010 00:00:00 1.41667 C 1.75 g/m*3 1.42 C 0 km/h
2510 11-03-2010 00:00:00 0.40167 C 2.56 g/m*3 0.4 C 0 km/h
2511 12-03-2010 00:00:00 1.61167 C 3.86 g/m*3 1.61 C 0 km/h
2512 13-03-2010 00:00:00 4.36583 C 4.23 g/m*3 4.37 C 0 km/h
2513 14-03-2010 00:00:00 5.79833 C 4.06 g/m*3 5.8 C 0 km/h
2514 15-03-2010 00:00:00 6.445 C 5.04 g/m*3 6.45 C 0 km/h
2515 16-03-2010 00:00:00 6.08067 C 5.63 g/m*3 6.08 C 0 km/h
2516 17-03-2010 00:00:00 6.69417 C 4.48 g/m*3 6.69 C 0 km/h
2517 18-03-2010 00:00:00 10.12333 C 4.54 g/m*3 10.12 C 0 km/h
2518 19-03-2010 00:00:00 15.0225 C 4.66 g/m*3 15.02 C 0 km/h
2519 20-03-2010 00:00:00 14.37667 C 8.46 g/m*3 14.38 C 0 km/h
2520 21-03-2010 00:00:00 11.23667 C 8.65 g/m*3 11.24 C 0 km/h
2521 22-03-2010 00:00:00 9.7575 C 7.03 g/m*3 9.76 C 0 km/h
2522 23-03-2010 00:00:00 8.94 C 6.12 g/m*3 8.94 C 0 km/h
2523 24-03-2010 00:00:00 11.9975 C 6.24 g/m*3 12 C 0 km/h
2524 25-03-2010 00:00:00 14.27083 C 6.52 g/m*3 14.27 C 0 km/h
2525 26-03-2010 00:00:00 10.0325 C 7.02 g/m*3 10.03 C 0 km/h
Sensor: Nr:Datum:Temp:Abs-Feuchte:Windchill:Wind:
Aussen-T/F 2526 27-03-2010 00:00:00 9.34333 C 5.7 g/m*3 9.34 C 0 km/h
2527 28-03-2010 00:00:00 9.93478 C 6.19 g/m*3 9.93 C 0 km/h
2528 29-03-2010 00:00:00 11.88167 C 8.04 g/m*3 11.88 C 0 km/h
2529 30-03-2010 00:00:00 12.70672 C 6.43 g/m*3 12.71 C 0 km/h
2530 31-03-2010 00:00:00 8.18667 C 4.45 g/m*3 8.19 C 0 km/h
2531 01-04-2010 00:00:00 5.84333 C 3.76 g/m*3 5.84 C 0 km/h
2532 02-04-2010 00:00:00 6.48583 C 4.37 g/m*3 6.49 C 0 km/h
2533 03-04-2010 00:00:00 9.73667 C 5.47 g/m*3 9.74 C 0 km/h
2534 04-04-2010 00:00:00 8.98833 C 5.25 g/m*3 8.99 C 0 km/h
2535 05-04-2010 00:00:00 9.15083 C 4.56 g/m*3 9.15 C 0 km/h
2536 06-04-2010 00:00:00 10.38167 C 4.41 g/m*3 10.38 C 0 km/h
2537 07-04-2010 00:00:00 13.61167 C 5.07 g/m*3 13.61 C 0 km/h
2538 08-04-2010 00:00:00 12.375 C 6.96 g/m*3 12.38 C 0 km/h
2539 09-04-2010 00:00:00 11.49917 C 5.91 g/m*3 11.5 C 0 km/h
2540 10-04-2010 00:00:00 11.3575 C 4.66 g/m*3 11.36 C 0 km/h
2541 11-04-2010 00:00:00 7.86667 C 4.35 g/m*3 7.87 C 0 km/h
2542 12-04-2010 00:00:00 7.44958 C 5.35 g/m*3 7.45 C 0 km/h
2543 13-04-2010 00:00:00 11.85583 C 6.16 g/m*3 11.86 C 0 km/h
2544 14-04-2010 00:00:00 11.76417 C 4.66 g/m*3 11.76 C 0 km/h
2545 15-04-2010 00:00:00 11.8575 C 5 g/m*3 11.86 C 0 km/h
2546 16-04-2010 00:00:00 9.71583 C 4.32 g/m*3 9.72 C 0 km/h
2547 17-04-2010 00:00:00 11.1225 C 4.54 g/m*3 11.12 C 0 km/h
2548 18-04-2010 00:00:00 13.27917 C 4.52 g/m*3 13.28 C 0 km/h
2549 19-04-2010 00:00:00 11.18333 C 5.12 g/m*3 11.18 C 0 km/h
2550 20-04-2010 00:00:00 11.13833 C 5.11 g/m*3 11.14 C 0 km/h
Sensor: Nr:Datum:Temp:Abs-Feuchte:Windchill:Wind:
Aussen-T/F 2551 21-04-2010 00:00:00 7.34417 C 3.84 g/m*3 7.34 C 0 km/h
2552 22-04-2010 00:00:00 8.35333 C 3.82 g/m*3 8.35 C 0 km/h
2553 23-04-2010 00:00:00 11.44917 C 4.09 g/m*3 11.45 C 0 km/h
2554 24-04-2010 00:00:00 14.91167 C 4.56 g/m*3 14.91 C 0 km/h
2555 25-04-2010 00:00:00 17.1075 C 5.25 g/m*3 17.11 C 0 km/h
2556 26-04-2010 00:00:00 15.72269 C 7.07 g/m*3 15.72 C 0 km/h
2557 27-04-2010 00:00:00 15.50417 C 6.31 g/m*3 15.5 C 0 km/h
2558 28-04-2010 00:00:00 16.8925 C 6.33 g/m*3 16.89 C 0 km/h
2559 29-04-2010 00:00:00 19.21417 C 6.68 g/m*3 19.21 C 0 km/h
2560 30-04-2010 00:00:00 18.69583 C 7.11 g/m*3 18.7 C 0 km/h
2561 01-05-2010 00:00:00 15.09917 C 6.78 g/m*3 15.1 C 0 km/h
2562 02-05-2010 00:00:00 13.48583 C 7.64 g/m*3 13.49 C 0 km/h
2563 03-05-2010 00:00:00 10.01667 C 6.94 g/m*3 10.02 C 0 km/h
2564 04-05-2010 00:00:00 9.78833 C 5.53 g/m*3 9.79 C 0 km/h
2565 05-05-2010 00:00:00 10.09083 C 3.78 g/m*3 10.09 C 0 km/h
2566 06-05-2010 00:00:00 6.68167 C 6.78 g/m*3 6.68 C 0 km/h
2567 07-05-2010 00:00:00 6.49417 C 6.66 g/m*3 6.49 C 0 km/h
2568 08-05-2010 00:00:00 11.06218 C 6.38 g/m*3 11.06 C 0 km/h
2569 09-05-2010 00:00:00 12.575 C 6.93 g/m*3 12.58 C 0 km/h
2570 10-05-2010 00:00:00 11.99917 C 6.67 g/m*3 12 C 0 km/h
2571 11-05-2010 00:00:00 11.53167 C 6.84 g/m*3 11.53 C 0 km/h
2572 12-05-2010 00:00:00 8.62333 C 6.33 g/m*3 8.62 C 0 km/h
2573 13-05-2010 00:00:00 8.07667 C 6.31 g/m*3 8.08 C 0 km/h
2574 14-05-2010 00:00:00 8.97333 C 7.22 g/m*3 8.97 C 0 km/h
2575 15-05-2010 00:00:00 10.6825 C 5.92 g/m*3 10.68 C 0 km/h
Sensor: Nr:Datum:Temp:Abs-Feuchte:Windchill:Wind:
Aussen-T/F 2576 16-05-2010 00:00:00 13.32917 C 5.32 g/m*3 13.33 C 0 km/h
2577 17-05-2010 00:00:00 10.56917 C 7.13 g/m*3 10.57 C 0 km/h
2578 18-05-2010 00:00:00 11.44333 C 6.07 g/m*3 11.44 C 0 km/h
2579 19-05-2010 00:00:00 10.30583 C 6.32 g/m*3 10.31 C 0 km/h
2580 20-05-2010 00:00:00 12.64034 C 6.31 g/m*3 12.64 C 0 km/h
2581 21-05-2010 00:00:00 16.54333 C 7.66 g/m*3 16.54 C 0 km/h
2582 22-05-2010 00:00:00 18.32583 C 7.75 g/m*3 18.33 C 0 km/h
2583 23-05-2010 00:00:00 20.32083 C 8.65 g/m*3 20.32 C 0 km/h
2584 24-05-2010 00:00:00 21.23 C 8.94 g/m*3 21.23 C 0 km/h
2585 25-05-2010 00:00:00 20.64583 C 7.99 g/m*3 20.65 C 0 km/h
2586 26-05-2010 00:00:00 15.41917 C 9.07 g/m*3 15.42 C 0 km/h
2587 27-05-2010 00:00:00 15.6175 C 8.18 g/m*3 15.62 C 0 km/h
2588 28-05-2010 00:00:00 17.3075 C 7.94 g/m*3 17.31 C 0 km/h
2589 29-05-2010 00:00:00 16.34 C 7.23 g/m*3 16.34 C 0 km/h
2590 30-05-2010 00:00:00 14.5975 C 8.93 g/m*3 14.6 C 0 km/h
2591 31-05-2010 00:00:00 11.56667 C 8.16 g/m*3 11.57 C 0 km/h
2592 01-06-2010 00:00:00 16.01833 C 8.41 g/m*3 16.02 C 0 km/h
2593 02-06-2010 00:00:00 17.66471 C 7.79 g/m*3 17.66 C 0 km/h
2594 03-06-2010 00:00:00 20.49083 C 7.88 g/m*3 20.49 C 0 km/h
2595 04-06-2010 00:00:00 21.43 C 7.91 g/m*3 21.43 C 0 km/h
2596 05-06-2010 00:00:00 22.97667 C 8.82 g/m*3 22.98 C 0 km/h
2597 06-06-2010 00:00:00 20.91333 C 11.1 g/m*3 20.91 C 0 km/h
2598 07-06-2010 00:00:00 19.58833 C 9.05 g/m*3 19.59 C 0 km/h
2599 08-06-2010 00:00:00 19.76833 C 9.52 g/m*3 19.77 C 0 km/h
2600 09-06-2010 00:00:00 22.5625 C 11.34 g/m*3 22.56 C 0 km/h
Sensor: Nr:Datum:Temp:Abs-Feuchte:Windchill:Wind:
Aussen-T/F 2601 10-06-2010 00:00:00 22.76417 C 13.55 g/m*3 22.76 C 0 km/h
2602 11-06-2010 00:00:00 22.89167 C 11.59 g/m*3 22.89 C 0 km/h
2603 12-06-2010 00:00:00 18.84917 C 10.25 g/m*3 18.85 C 0 km/h
2604 13-06-2010 00:00:00 18.25083 C 7.8 g/m*3 18.25 C 0 km/h
2605 14-06-2010 00:00:00 19.76667 C 7.8 g/m*3 19.77 C 0 km/h
2606 15-06-2010 00:00:00 18.9 C 8.06 g/m*3 18.9 C 0 km/h
2607 16-06-2010 00:00:00 18.82833 C 6.18 g/m*3 18.83 C 0 km/h
2608 17-06-2010 00:00:00 15.08583 C 9.23 g/m*3 15.09 C 0 km/h
2609 18-06-2010 00:00:00 15.2325 C 9.35 g/m*3 15.23 C 0 km/h
2610 19-06-2010 00:00:00 14.2725 C 6.27 g/m*3 14.27 C 0 km/h
2611 20-06-2010 00:00:00 13.20333 C 6.8 g/m*3 13.2 C 0 km/h
2612 21-06-2010 00:00:00 14.11083 C 6.37 g/m*3 14.11 C 0 km/h
2613 22-06-2010 00:00:00 17.38667 C 7.03 g/m*3 17.39 C 0 km/h
2614 23-06-2010 00:00:00 19.75917 C 8.12 g/m*3 19.76 C 0 km/h
2615 24-06-2010 00:00:00 22.54833 C 8.68 g/m*3 22.55 C 0 km/h
2616 25-06-2010 00:00:00 23.37 C 8.65 g/m*3 23.37 C 0 km/h
2617 26-06-2010 00:00:00 23.635 C 8.77 g/m*3 23.64 C 0 km/h
2618 27-06-2010 00:00:00 24.49417 C 9.01 g/m*3 24.49 C 0 km/h
2619 28-06-2010 00:00:00 25.25546 C 9.1 g/m*3 25.26 C 0 km/h
2620 29-06-2010 00:00:00 24.86167 C 9.83 g/m*3 24.86 C 0 km/h
2621 30-06-2010 00:00:00 24.6175 C 10.06 g/m*3 24.62 C 0 km/h
2622 01-07-2010 00:00:00 25.8425 C 9.72 g/m*3 25.84 C 0 km/h
2623 02-07-2010 00:00:00 26.96667 C 9.63 g/m*3 26.97 C 0 km/h
2624 03-07-2010 00:00:00 26.33 C 11.31 g/m*3 26.33 C 0 km/h
2625 04-07-2010 00:00:00 26.44833 C 12.05 g/m*3 26.45 C 0 km/h
Sensor: Nr:Datum:Temp:Abs-Feuchte:Windchill:Wind:
Aussen-T/F 2626 05-07-2010 00:00:00 22.02083 C 9.04 g/m*3 22.02 C 0 km/h
2627 06-07-2010 00:00:00 20.17833 C 8.34 g/m*3 20.18 C 0 km/h
2628 07-07-2010 00:00:00 22.53417 C 8.16 g/m*3 22.53 C 0 km/h
2629 08-07-2010 00:00:00 26.43417 C 8.69 g/m*3 26.43 C 0 km/h
2630 09-07-2010 00:00:00 27.51333 C 9.42 g/m*3 27.51 C 0 km/h
2631 10-07-2010 00:00:00 29.25667 C 10.76 g/m*3 29.26 C 0 km/h
2632 11-07-2010 00:00:00 28.48319 C 12.85 g/m*3 28.48 C 0 km/h
2633 12-07-2010 00:00:00 27.1175 C 11.1 g/m*3 27.12 C 0 km/h
2634 13-07-2010 00:00:00 25.36083 C 10.39 g/m*3 25.36 C 0 km/h
2635 14-07-2010 00:00:00 25.98917 C 11.73 g/m*3 25.99 C 0 km/h
2636 15-07-2010 00:00:00 22.6525 C 8.81 g/m*3 22.65 C 0 km/h
2637 16-07-2010 00:00:00 23.97667 C 8.47 g/m*3 23.98 C 0 km/h
2638 17-07-2010 00:00:00 21.99167 C 10.18 g/m*3 21.99 C 0 km/h
2639 18-07-2010 00:00:00 21.73833 C 7.35 g/m*3 21.74 C 0 km/h
2640 19-07-2010 00:00:00 23.63167 C 8.01 g/m*3 23.63 C 0 km/h
2641 20-07-2010 00:00:00 25.03833 C 8.46 g/m*3 25.04 C 0 km/h
2642 21-07-2010 00:00:00 24.73833 C 9.31 g/m*3 24.74 C 0 km/h
2643 22-07-2010 00:00:00 21.34917 C 11.61 g/m*3 21.35 C 0 km/h
2644 23-07-2010 00:00:00 20.17059 C 11.52 g/m*3 20.17 C 0 km/h
2645 24-07-2010 00:00:00 19.00667 C 9.15 g/m*3 19.01 C 0 km/h
2646 25-07-2010 00:00:00 17.26833 C 7.8 g/m*3 17.27 C 0 km/h
2647 26-07-2010 00:00:00 17.2925 C 11.46 g/m*3 17.29 C 0 km/h
2648 27-07-2010 00:00:00 19.815 C 10.06 g/m*3 19.82 C 0 km/h
2649 28-07-2010 00:00:00 20.5075 C 11.17 g/m*3 20.51 C 0 km/h
2650 29-07-2010 00:00:00 16.32417 C 11.42 g/m*3 16.32 C 0 km/h
Sensor: Nr:Datum:Temp:Abs-Feuchte:Windchill:Wind:
Aussen-T/F 2651 30-07-2010 00:00:00 19.665 C 9.34 g/m*3 19.67 C 0 km/h
2652 31-07-2010 00:00:00 20.62417 C 9.08 g/m*3 20.62 C 0 km/h
2653 01-08-2010 00:00:00 22.90833 C 11.98 g/m*3 22.91 C 0 km/h
2654 02-08-2010 00:00:00 19.60917 C 11.25 g/m*3 19.61 C 0 km/h
2655 03-08-2010 00:00:00 18.94167 C 10.12 g/m*3 18.94 C 0 km/h
2656 04-08-2010 00:00:00 19.62269 C 9.16 g/m*3 19.62 C 0 km/h
2657 05-08-2010 00:00:00 18.49417 C 10 g/m*3 18.49 C 0 km/h
2658 06-08-2010 00:00:00 19.04667 C 8.08 g/m*3 19.05 C 0 km/h
2659 07-08-2010 00:00:00 19.46583 C 7.91 g/m*3 19.47 C 0 km/h
2660 08-08-2010 00:00:00 18.485 C 11.68 g/m*3 18.49 C 0 km/h
2661 09-08-2010 00:00:00 19.515 C 10.42 g/m*3 19.52 C 0 km/h
2662 10-08-2010 00:00:00 22.13583 C 9.74 g/m*3 22.14 C 0 km/h
2663 11-08-2010 00:00:00 20.32833 C 12.64 g/m*3 20.33 C 0 km/h
2664 12-08-2010 00:00:00 19.10917 C 11.28 g/m*3 19.11 C 0 km/h
2665 13-08-2010 00:00:00 18.77833 C 9.07 g/m*3 18.78 C 0 km/h
2666 14-08-2010 00:00:00 19.9675 C 9.59 g/m*3 19.97 C 0 km/h
2667 15-08-2010 00:00:00 16.88667 C 11.8 g/m*3 16.89 C 0 km/h
2668 16-08-2010 00:00:00 17.07479 C 11.15 g/m*3 17.07 C 0 km/h
2669 17-08-2010 00:00:00 16.06667 C 10.71 g/m*3 16.07 C 0 km/h
2670 18-08-2010 00:00:00 18.40917 C 9.91 g/m*3 18.41 C 0 km/h
2671 19-08-2010 00:00:00 18.88917 C 8.2 g/m*3 18.89 C 0 km/h
2672 20-08-2010 00:00:00 20.42605 C 9.9 g/m*3 20.43 C 0 km/h
2673 21-08-2010 00:00:00 23.76417 C 11.32 g/m*3 23.76 C 0 km/h
2674 22-08-2010 00:00:00 23.01667 C 12.14 g/m*3 23.02 C 0 km/h
2675 23-08-2010 00:00:00 21.205 C 13.12 g/m*3 21.21 C 0 km/h
Sensor: Nr:Datum:Temp:Abs-Feuchte:Windchill:Wind:
Aussen-T/F 2676 24-08-2010 00:00:00 19.27083 C 7.86 g/m*3 19.27 C 0 km/h
2677 25-08-2010 00:00:00 17.61917 C 7.68 g/m*3 17.62 C 0 km/h
2678 26-08-2010 00:00:00 20.68083 C 11.52 g/m*3 20.68 C 0 km/h
2679 27-08-2010 00:00:00 18.37667 C 13.18 g/m*3 18.38 C 0 km/h
2680 28-08-2010 00:00:00 14.0675 C 8.89 g/m*3 14.07 C 0 km/h
2681 29-08-2010 00:00:00 13.03167 C 8.58 g/m*3 13.03 C 0 km/h
2682 30-08-2010 00:00:00 12.5675 C 8.53 g/m*3 12.57 C 0 km/h
2683 31-08-2010 00:00:00 15.42917 C 8.4 g/m*3 15.43 C 0 km/h
2684 01-09-2010 00:00:00 14.82437 C 8.4 g/m*3 14.82 C 0 km/h
2685 02-09-2010 00:00:00 14.95333 C 8.79 g/m*3 14.95 C 0 km/h
2686 03-09-2010 00:00:00 15.91417 C 9.06 g/m*3 15.91 C 0 km/h
2687 04-09-2010 00:00:00 16.71417 C 8.43 g/m*3 16.71 C 0 km/h
2688 05-09-2010 00:00:00 15.205 C 7.52 g/m*3 15.21 C 0 km/h
2689 06-09-2010 00:00:00 15.675 C 6.76 g/m*3 15.68 C 0 km/h
2690 07-09-2010 00:00:00 13.36083 C 8.36 g/m*3 13.36 C 0 km/h
2691 08-09-2010 00:00:00 15.545 C 10.94 g/m*3 15.55 C 0 km/h
2692 09-09-2010 00:00:00 16.20583 C 9.61 g/m*3 16.21 C 0 km/h
2693 10-09-2010 00:00:00 16.18 C 10.13 g/m*3 16.18 C 0 km/h
2694 11-09-2010 00:00:00 18.13417 C 10.44 g/m*3 18.13 C 0 km/h
2695 12-09-2010 00:00:00 16.21667 C 10.52 g/m*3 16.22 C 0 km/h
2696 13-09-2010 00:00:00 15.67583 C 9.31 g/m*3 15.68 C 0 km/h
2697 14-09-2010 00:00:00 16.63697 C 8.96 g/m*3 16.64 C 0 km/h
2698 15-09-2010 00:00:00 16.3175 C 7.82 g/m*3 16.32 C 0 km/h
2699 16-09-2010 00:00:00 14.07 C 8.33 g/m*3 14.07 C 0 km/h
2700 17-09-2010 00:00:00 13.76667 C 7.53 g/m*3 13.77 C 0 km/h
Sensor: Nr:Datum:Temp:Abs-Feuchte:Windchill:Wind:
Aussen-T/F 2701 18-09-2010 00:00:00 11.45083 C 6.84 g/m*3 11.45 C 0 km/h
2702 19-09-2010 00:00:00 11.7425 C 6.69 g/m*3 11.74 C 0 km/h
2703 20-09-2010 00:00:00 14.01 C 7.27 g/m*3 14.01 C 0 km/h
2704 21-09-2010 00:00:00 14.27 C 8.52 g/m*3 14.27 C 0 km/h
2705 22-09-2010 00:00:00 15.86667 C 9.22 g/m*3 15.87 C 0 km/h
2706 23-09-2010 00:00:00 16.56167 C 9.98 g/m*3 16.56 C 0 km/h
2707 24-09-2010 00:00:00 14.165 C 11.47 g/m*3 14.17 C 0 km/h
2708 25-09-2010 00:00:00 12.41833 C 7.9 g/m*3 12.42 C 0 km/h
2709 26-09-2010 00:00:00 11.2425 C 7.29 g/m*3 11.24 C 0 km/h
2710 27-09-2010 00:00:00 9.86807 C 7.48 g/m*3 9.87 C 0 km/h
2711 28-09-2010 00:00:00 10.93083 C 9.4 g/m*3 10.93 C 0 km/h
2712 29-09-2010 00:00:00 13.39417 C 8.9 g/m*3 13.39 C 0 km/h
2713 30-09-2010 00:00:00 11.89667 C 8.83 g/m*3 11.9 C 0 km/h
2714 01-10-2010 00:00:00 12.33667 C 9.1 g/m*3 12.34 C 0 km/h
2715 02-10-2010 00:00:00 13.4525 C 10.36 g/m*3 13.45 C 0 km/h
2716 03-10-2010 00:00:00 17.83583 C 10.56 g/m*3 17.84 C 0 km/h
2717 04-10-2010 00:00:00 16.905 C 9.67 g/m*3 16.91 C 0 km/h
2718 05-10-2010 00:00:00 15.64833 C 10.9 g/m*3 15.65 C 0 km/h
2719 06-10-2010 00:00:00 17.22333 C 9.99 g/m*3 17.22 C 0 km/h
2720 07-10-2010 00:00:00 16.31167 C 10.3 g/m*3 16.31 C 0 km/h
2721 08-10-2010 00:00:00 16.02917 C 9.37 g/m*3 16.03 C 0 km/h
2722 09-10-2010 00:00:00 13.1475 C 8.13 g/m*3 13.15 C 0 km/h
2723 10-10-2010 00:00:00 11.6125 C 6.4 g/m*3 11.61 C 0 km/h
2724 11-10-2010 00:00:00 10.90084 C 5.45 g/m*3 10.9 C 0 km/h
2725 12-10-2010 00:00:00 8.71917 C 5.9 g/m*3 8.72 C 0 km/h
Sensor: Nr:Datum:Temp:Abs-Feuchte:Windchill:Wind:
Aussen-T/F 2726 13-10-2010 00:00:00 7.475 C 5.54 g/m*3 7.48 C 0 km/h
2727 14-10-2010 00:00:00 7.55583 C 5.99 g/m*3 7.56 C 0 km/h
2728 15-10-2010 00:00:00 10.475 C 7.36 g/m*3 10.48 C 0 km/h
2729 16-10-2010 00:00:00 8.375 C 7.62 g/m*3 8.38 C 0 km/h
2730 17-10-2010 00:00:00 7.22667 C 6.33 g/m*3 7.23 C 0 km/h
2731 18-10-2010 00:00:00 6.71833 C 5.58 g/m*3 6.72 C 0 km/h
2732 19-10-2010 00:00:00 7.28167 C 6.47 g/m*3 7.28 C 0 km/h
2733 20-10-2010 00:00:00 6.14167 C 5.97 g/m*3 6.14 C 0 km/h
2734 21-10-2010 00:00:00 5.27 C 4.63 g/m*3 5.27 C 0 km/h
2735 22-10-2010 00:00:00 4.20167 C 4.11 g/m*3 4.2 C 0 km/h
2736 23-10-2010 00:00:00 4.37899 C 4.82 g/m*3 4.38 C 0 km/h
2737 24-10-2010 00:00:00 8.55667 C 5.66 g/m*3 8.56 C 0 km/h
2738 25-10-2010 00:00:00 6.1525 C 5.22 g/m*3 6.15 C 0 km/h
2739 26-10-2010 00:00:00 3.62417 C 5.12 g/m*3 3.62 C 0 km/h
2740 27-10-2010 00:00:00 8.14917 C 4.91 g/m*3 8.15 C 0 km/h
2741 28-10-2010 00:00:00 9.1725 C 5.55 g/m*3 9.17 C 0 km/h
2742 29-10-2010 00:00:00 6.48333 C 6.48 g/m*3 6.48 C 0 km/h
2743 02-11-2010 00:00:00 11.31548 C 6.81 g/m*3 11.32 C 0 km/h
2744 03-11-2010 00:00:00 13.10333 C 7.84 g/m*3 13.1 C 0 km/h
2745 04-11-2010 00:00:00 16.41167 C 8.7 g/m*3 16.41 C 0 km/h
2746 05-11-2010 00:00:00 14.51917 C 7.32 g/m*3 14.52 C 0 km/h
2747 06-11-2010 00:00:00 10.40917 C 7.73 g/m*3 10.41 C 0 km/h
2748 07-11-2010 00:00:00 6.86917 C 7.11 g/m*3 6.87 C 0 km/h
2749 08-11-2010 00:00:00 4.65583 C 5.68 g/m*3 4.66 C 0 km/h
2750 09-11-2010 00:00:00 6.65667 C 6.48 g/m*3 6.66 C 0 km/h
Sensor: Nr:Datum:Temp:Abs-Feuchte:Windchill:Wind:
Aussen-T/F 2751 10-11-2010 00:00:00 7.08319 C 6.48 g/m*3 7.08 C 0 km/h
2752 11-11-2010 00:00:00 5.84167 C 5.32 g/m*3 5.84 C 0 km/h
2753 12-11-2010 00:00:00 11.04083 C 6.73 g/m*3 11.04 C 0 km/h
2754 13-11-2010 00:00:00 14.51917 C 8.83 g/m*3 14.52 C 0 km/h
2755 14-11-2010 00:00:00 14.60833 C 7.79 g/m*3 14.61 C 0 km/h
2756 15-11-2010 00:00:00 9.47833 C 6.15 g/m*3 9.48 C 0 km/h
2757 16-11-2010 00:00:00 6.0125 C 5.77 g/m*3 6.01 C 0 km/h
2758 17-11-2010 00:00:00 5.3125 C 5.17 g/m*3 5.31 C 0 km/h
2759 18-11-2010 00:00:00 5.61917 C 5.95 g/m*3 5.62 C 0 km/h
2760 19-11-2010 00:00:00 6.4275 C 6.1 g/m*3 6.43 C 0 km/h
2761 20-11-2010 00:00:00 4.8325 C 5.94 g/m*3 4.83 C 0 km/h
2762 21-11-2010 00:00:00 4.48333 C 4.84 g/m*3 4.48 C 0 km/h
2763 22-11-2010 00:00:00 4.47417 C 4.96 g/m*3 4.47 C 0 km/h
2764 23-11-2010 00:00:00 4.54118 C 4.59 g/m*3 4.54 C 0 km/h
2765 24-11-2010 00:00:00 3.415 C 4.9 g/m*3 3.42 C 0 km/h
2766 25-11-2010 00:00:00 1.74083 C 4.39 g/m*3 1.74 C 0 km/h
2767 26-11-2010 00:00:00 -0.29083 C 4.18 g/m*3 -0.29 C 0 km/h
2768 27-11-2010 00:00:00 -1.99167 C 3.56 g/m*3 -1.99 C 0 km/h
2769 28-11-2010 00:00:00 -1.325 C 3.55 g/m*3 -1.33 C 0 km/h
2770 29-11-2010 00:00:00 -1.55833 C 3.51 g/m*3 -1.56 C 0 km/h
2771 30-11-2010 00:00:00 -1.9425 C 3.4 g/m*3 -1.94 C 0 km/h
2772 01-12-2010 00:00:00 -5.7325 C 1.99 g/m*3 -5.73 C 0 km/h
2773 02-12-2010 00:00:00 -7.03167 C 2.03 g/m*3 -7.03 C 0 km/h
2774 03-12-2010 00:00:00 -7.38583 C 2.19 g/m*3 -7.39 C 0 km/h
2775 04-12-2010 00:00:00 -3.48167 C 2.61 g/m*3 -3.48 C 0 km/h
Sensor: Nr:Datum:Temp:Abs-Feuchte:Windchill:Wind:
Aussen-T/F 2776 05-12-2010 00:00:00 0.91667 C 3.38 g/m*3 0.92 C 0 km/h
2777 06-12-2010 00:00:00 0.24538 C 4.01 g/m*3 0.25 C 0 km/h
2778 07-12-2010 00:00:00 -0.20833 C 3.88 g/m*3 -0.21 C 0 km/h
2779 08-12-2010 00:00:00 -0.25917 C 4.32 g/m*3 -0.26 C 0 km/h
2780 09-12-2010 00:00:00 0.61333 C 3.92 g/m*3 0.61 C 0 km/h
2781 10-12-2010 00:00:00 1.73333 C 4.69 g/m*3 1.73 C 0 km/h
2782 11-12-2010 00:00:00 4.07583 C 5.18 g/m*3 4.08 C 0 km/h
2783 12-12-2010 00:00:00 3.085 C 4.57 g/m*3 3.09 C 0 km/h
2784 13-12-2010 00:00:00 -4.44833 C 2.51 g/m*3 -4.45 C 0 km/h
2785 14-12-2010 00:00:00 -3.65833 C 2.82 g/m*3 -3.66 C 0 km/h
2786 15-12-2010 00:00:00 -3.1275 C 2.86 g/m*3 -3.13 C 0 km/h
2787 16-12-2010 00:00:00 -3.4675 C 2.96 g/m*3 -3.47 C 0 km/h
2788 17-12-2010 00:00:00 -2.77417 C 2.92 g/m*3 -2.77 C 0 km/h
2789 18-12-2010 00:00:00 -4.65833 C 2.74 g/m*3 -4.66 C 0 km/h
2790 19-12-2010 00:00:00 -0.7125 C 3.86 g/m*3 -0.71 C 0 km/h
2791 20-12-2010 00:00:00 -1.53667 C 3.48 g/m*3 -1.54 C 0 km/h
2792 21-12-2010 00:00:00 -0.65546 C 4 g/m*3 -0.66 C 0 km/h
2793 22-12-2010 00:00:00 0.9225 C 4.66 g/m*3 0.92 C 0 km/h
2794 23-12-2010 00:00:00 -0.36833 C 4.23 g/m*3 -0.37 C 0 km/h
2795 24-12-2010 00:00:00 -1.77438 C 3.53 g/m*3 -1.77 C 0 km/h
2796 25-12-2010 00:00:00 -5.4775 C 2.37 g/m*3 -5.48 C 0 km/h
2797 26-12-2010 00:00:00 -4.87833 C 2.59 g/m*3 -4.88 C 0 km/h
2798 27-12-2010 00:00:00 -2.21833 C 3.28 g/m*3 -2.22 C 0 km/h
2799 28-12-2010 00:00:00 -2.07899 C 3.35 g/m*3 -2.08 C 0 km/h
2800 29-12-2010 00:00:00 -0.255 C 3.76 g/m*3 -0.26 C 0 km/h
Sensor: Nr:Datum:Temp:Abs-Feuchte:Windchill:Wind:
Aussen-T/F 2801 30-12-2010 00:00:00 -0.55333 C 3.62 g/m*3 -0.55 C 0 km/h
2802 31-12-2010 00:00:00 -1.09187 C 3.57 g/m*3 -1.09 C 0 km/h
2803 01-01-2011 00:00:00 1.07311 C 4.52 g/m*3 1.07 C 0 km/h
2804 02-01-2011 00:00:00 0.8025 C 4.39 g/m*3 0.8 C 0 km/h
2805 03-01-2011 00:00:00 -0.9125 C 3.88 g/m*3 -0.91 C 0 km/h
2806 04-01-2011 00:00:00 -2.36667 C 3.35 g/m*3 -2.37 C 0 km/h
2807 05-01-2011 00:00:00 -3.83583 C 2.66 g/m*3 -3.84 C 0 km/h
2808 06-01-2011 00:00:00 3.72667 C 5.49 g/m*3 3.73 C 0 km/h
2809 07-01-2011 00:00:00 6.91833 C 6.93 g/m*3 6.92 C 0 km/h
2810 08-01-2011 00:00:00 10.5675 C 7.09 g/m*3 10.57 C 0 km/h
2811 09-01-2011 00:00:00 5.08655 C 5.84 g/m*3 5.09 C 0 km/h
2812 10-01-2011 00:00:00 0.7175 C 4.39 g/m*3 0.72 C 0 km/h
2813 11-01-2011 00:00:00 3.43667 C 4.81 g/m*3 3.44 C 0 km/h
2814 12-01-2011 00:00:00 5.44 C 5.5 g/m*3 5.44 C 0 km/h
2815 13-01-2011 00:00:00 11.80333 C 8.2 g/m*3 11.8 C 0 km/h
2816 14-01-2011 00:00:00 11.77417 C 6.94 g/m*3 11.77 C 0 km/h
2817 15-01-2011 00:00:00 8.68167 C 5.98 g/m*3 8.68 C 0 km/h
2818 16-01-2011 00:00:00 6.84167 C 5.88 g/m*3 6.84 C 0 km/h
2819 17-01-2011 00:00:00 3.62917 C 5.41 g/m*3 3.63 C 0 km/h

Maximal/Minimal-Werte vom 16.04.2003 - 17.01.2011

Sensor Min Max Avg
Temp
(Aussen-T/F)
-16.4 °C
20-12-2009  01:30:01
36.2 °C
08-08-2003  16:43:01
11.72 °C
Abs-Feuchte
(Aussen-T/F)
1.12 g/m*3
19-12-2009  00:00:00
14.99 g/m*3
11-08-2004  00:00:00
7.21 g/m*3
Windchill
(Aussen-T/F)
-12.79 C
19-12-2009  00:00:00
29.26 C
10-07-2010  00:00:00
11.65 C

Die Daten stammen von einer Davis Vantage Pro 2 Wetter-Station und werden unter Linux mit der Software wview2wettercgi und aufbereitet. Alle Angaben erfolgen ohne Gewähr für ihre Vollständigkeit oder Richtigkeit.
Kontakt: Rainer Krienke krienke@uni-koblenz.de . Meine Webseiten an der Uni Koblenz oder privat.
Version: $Revision: 0.78 $